ftp/pub/palmer/observations_modified/2019/October/original_files/AR191003_BASE.txt
Download
Sample DateTime Unit Id WS Avg 2min WD Avg 2min WGS 10min WGD 10min Air Temp Rel Humidity Dew Point Pyranometer Quantum Air Pressure Snow Level Rainfall PW Current Visibility CBase 1 CBase 2 CBase 3 Vert Vis
2019/10/03 00:00:00 BASE 8.86 257 10.19 256 -8.8 90 -10.2 0 0 977.9 NA 0.0000 9999 1540 0 0 0
2019/10/03 00:01:00 BASE 8.45 256 10.19 256 -8.8 90 -10.2 0 0 977.9 NA 0.0000 9999 1510 0 0 0
2019/10/03 00:02:00 BASE 8.99 254 10.75 264 -8.8 90 -10.1 0 0 977.9 NA 0.0000 9999 1670 3150 0 0
2019/10/03 00:03:00 BASE 9.76 249 10.75 264 -8.8 90 -10.2 0 0 977.9 NA 0.0000 9999 1640 0 0 0
2019/10/03 00:04:00 BASE 8.92 248 10.75 264 -8.8 90 -10.2 0 0 977.9 NA 0.0000 9999 1800 0 0 0
2019/10/03 00:05:00 BASE 8.39 248 10.75 264 -8.8 90 -10.2 0 0 977.9 NA 0.0000 9999 2000 0 0 0
2019/10/03 00:06:00 BASE 9.38 241 11.37 240 -8.9 90 -10.2 0 0 977.9 NA 0.0000 9999 2100 3710 0 0
2019/10/03 00:07:00 BASE 9.81 237 11.37 240 -8.9 90 -10.2 0 0 977.9 NA 0.0000 9999 2230 3740 0 0
2019/10/03 00:08:00 BASE 9.76 242 11.37 240 -8.9 90 -10.3 0 0 977.8 NA 0.0000 9999 2330 3740 0 0
2019/10/03 00:09:00 BASE 10.07 245 11.37 240 -8.9 90 -10.3 0 0 977.8 NA 0.0000 9999 3670 0 0 0
2019/10/03 00:10:00 BASE 10.03 242 11.37 240 -9.0 89 -10.4 0 0 977.8 NA 0.0000 9999 3670 0 0 0
2019/10/03 00:11:00 BASE 9.78 243 11.37 240 -9.0 89 -10.5 0 0 977.8 NA 0.0000 9999 3640 0 0 0
2019/10/03 00:12:00 BASE 9.40 243 11.37 240 -8.9 88 -10.5 0 0 977.9 NA 0.0000 9999 3670 0 0 0
2019/10/03 00:13:00 BASE 8.51 242 11.37 240 -8.9 87 -10.6 0 0 977.9 NA 0.0000 9999 3710 0 0 0
2019/10/03 00:14:00 BASE 7.86 242 11.37 240 -8.9 87 -10.7 0 0 977.9 NA 0.0000 9999 3740 0 0 0
2019/10/03 00:15:00 BASE 7.78 243 11.37 240 -8.9 86 -10.8 0 0 977.9 NA 0.0000 9999 1900 3810 0 0
2019/10/03 00:16:00 BASE 7.78 241 11.21 239 -8.9 86 -10.8 0 0 977.9 NA 0.0000 9999 3810 0 0 0
2019/10/03 00:17:00 BASE 8.54 236 11.21 239 -8.9 86 -10.8 0 0 977.8 NA 0.0000 9999 3380 0 0 0
2019/10/03 00:18:00 BASE 9.48 233 11.21 239 -8.9 86 -10.8 0 0 977.8 NA 0.0000 9999 2030 3410 3900 0
2019/10/03 00:19:00 BASE 9.17 232 10.91 244 -8.9 86 -10.9 0 0 977.9 NA 0.0000 9999 3350 0 0 0
2019/10/03 00:20:00 BASE 8.26 234 10.75 238 -8.9 85 -10.9 0 0 977.9 NA 0.0000 9999 2130 3350 4000 0
2019/10/03 00:21:00 BASE 8.83 233 10.75 234 -8.9 85 -10.9 0 0 977.8 NA 0.0000 9999 1900 3350 3970 0
2019/10/03 00:22:00 BASE 9.70 231 10.75 234 -8.9 85 -10.9 0 0 977.8 NA 0.0000 9999 1940 3380 4000 0
2019/10/03 00:23:00 BASE 9.41 230 10.75 227 -8.9 85 -10.9 0 0 977.8 NA 0.0000 9999 1870 3450 0 0
2019/10/03 00:24:00 BASE 8.82 230 10.75 227 -8.9 85 -10.9 0 0 977.8 NA 0.0000 9999 1740 0 0 0
2019/10/03 00:25:00 BASE 8.44 232 10.75 227 -8.9 85 -11.0 0 0 977.8 NA 0.0000 9999 1710 0 0 0
2019/10/03 00:26:00 BASE 8.45 236 10.75 227 -8.9 85 -10.9 0 0 977.9 NA 0.0000 9999 1540 0 0 0
2019/10/03 00:27:00 BASE 8.23 244 10.75 227 -8.9 85 -10.9 0 0 977.9 NA 0.0000 9999 1250 0 0 0
2019/10/03 00:28:00 BASE 7.84 248 10.75 227 -8.8 85 -10.9 0 0 977.9 NA 0.0000 9999 1210 0 0 0
2019/10/03 00:29:00 BASE 8.97 248 11.88 252 -8.8 85 -10.9 0 0 977.9 NA 0.0000 9999 1280 0 0 0
2019/10/03 00:30:00 BASE 10.51 250 12.04 247 -8.8 85 -10.9 0 0 977.8 NA 0.0000 9999 1280 0 0 0
2019/10/03 00:31:00 BASE 10.29 250 12.04 247 -8.8 85 -10.8 0 0 977.9 NA 0.0000 9999 1280 0 0 0
2019/10/03 00:32:00 BASE 9.96 251 12.04 247 -8.8 86 -10.8 0 0 977.9 NA 0.0000 9999 1210 0 0 0
2019/10/03 00:33:00 BASE 10.30 252 12.04 247 -8.8 86 -10.7 0 0 977.9 NA 0.0000 9999 1350 0 0 0
2019/10/03 00:34:00 BASE 10.29 252 12.04 247 -8.8 87 -10.7 0 0 977.9 NA 0.0000 9999 1380 0 0 0
2019/10/03 00:35:00 BASE 10.53 254 12.04 247 -8.8 87 -10.6 0 0 977.8 NA 0.0000 9999 1440 0 0 0
2019/10/03 00:36:00 BASE 10.50 255 12.04 247 -8.9 88 -10.5 0 0 977.9 NA 0.0000 9999 1380 0 0 0
2019/10/03 00:37:00 BASE 9.46 255 12.04 247 -8.9 88 -10.5 0 0 977.8 NA 0.0000 9999 1740 0 0 0
2019/10/03 00:38:00 BASE 9.28 259 12.04 247 -8.8 89 -10.4 0 0 977.8 NA 0.0000 9999 1770 0 0 0
2019/10/03 00:39:00 BASE 9.78 259 12.04 247 -8.8 89 -10.3 0 0 977.8 NA 0.0000 9999 1540 0 0 0
2019/10/03 00:40:00 BASE 9.51 259 11.99 256 -8.8 90 -10.2 0 0 977.8 NA 0.0000 9999 1480 0 0 0
2019/10/03 00:41:00 BASE 9.74 259 11.99 256 -8.8 90 -10.2 0 0 977.8 NA 0.0000 9999 1410 0 0 0
2019/10/03 00:42:00 BASE 10.02 255 11.99 256 -8.8 90 -10.1 0 0 977.8 NA 0.0000 9999 1210 0 0 0
2019/10/03 00:43:00 BASE 10.65 254 12.91 256 -8.8 91 -10.1 0 0 977.7 NA 0.0000 9999 1210 0 0 0
2019/10/03 00:44:00 BASE 11.42 252 12.91 256 -8.8 91 -10.1 0 0 977.7 NA 0.0000 9999 1250 0 0 0
2019/10/03 00:45:00 BASE 11.43 252 12.91 256 -8.9 91 -10.0 0 0 977.7 NA 0.0000 9999 1610 0 0 0
2019/10/03 00:46:00 BASE 11.34 253 12.91 256 -8.9 91 -10.0 0 0 977.7 NA 0.0000 9999 1640 0 0 0
2019/10/03 00:47:00 BASE 10.16 250 12.91 256 -8.9 92 -10.0 0 0 977.7 NA 0.0000 9999 1710 0 0 0
2019/10/03 00:48:00 BASE 9.32 246 12.91 256 -8.9 92 -10.0 0 0 977.7 NA 0.0000 9999 1640 2330 0 0
2019/10/03 00:49:00 BASE 9.06 243 12.91 256 -8.9 92 -10.0 0 0 977.7 NA 0.0000 9999 1610 2300 0 0
2019/10/03 00:50:00 BASE 8.11 240 12.91 256 -8.9 92 -9.9 0 0 977.7 NA 0.0000 9999 1640 0 0 0
2019/10/03 00:51:00 BASE 7.98 238 12.91 256 -8.9 92 -9.9 0 0 977.7 NA 0.0000 9999 1610 0 0 0
2019/10/03 00:52:00 BASE 8.61 235 12.91 256 -8.9 92 -10.0 0 0 977.7 NA 0.0000 9999 1570 0 0 0
2019/10/03 00:53:00 BASE 8.85 238 12.55 255 -8.9 92 -10.0 0 0 977.7 NA 0.0000 9999 1640 0 0 0
2019/10/03 00:54:00 BASE 8.94 239 12.55 255 -8.9 91 -10.0 0 0 977.7 NA 0.0000 9999 1710 0 0 0
2019/10/03 00:55:00 BASE 8.85 243 12.35 257 -8.9 91 -10.0 0 0 977.7 NA 0.0000 9999 1570 0 0 0
2019/10/03 00:56:00 BASE 9.66 252 11.21 252 -8.8 91 -10.1 0 0 977.7 NA 0.0000 9999 1150 0 0 0
2019/10/03 00:57:00 BASE 10.74 256 11.88 250 -8.8 91 -10.1 0 0 977.7 NA 0.0000 9999 1150 0 0 0
2019/10/03 00:58:00 BASE 10.65 259 11.88 250 -8.9 90 -10.1 0 0 977.7 NA 0.0000 9999 1080 0 0 0
2019/10/03 00:59:00 BASE 9.67 261 11.88 250 -8.9 90 -10.2 0 0 977.7 NA 0.0000 9999 1410 0 0 0
2019/10/03 01:00:00 BASE 9.55 259 11.88 250 -8.9 90 -10.2 0 0 977.7 NA 0.0000 9999 1180 0 0 0
2019/10/03 01:01:00 BASE 10.18 258 11.88 250 -8.9 90 -10.2 0 0 977.6 NA 0.0000 9999 1410 0 0 0
2019/10/03 01:02:00 BASE 10.04 258 11.88 250 -8.9 91 -10.2 0 0 977.6 NA 0.0000 9999 1310 0 0 0
2019/10/03 01:03:00 BASE 9.95 260 12.14 266 -8.9 91 -10.1 0 0 977.6 NA 0.0000 9999 1480 0 0 0
2019/10/03 01:04:00 BASE 10.59 261 12.60 259 -8.9 91 -10.0 0 0 977.6 NA 0.0000 9999 1410 0 0 0
2019/10/03 01:05:00 BASE 10.24 259 12.60 259 -8.9 92 -10.0 0 0 977.6 NA 0.0000 9999 1480 0 0 0
2019/10/03 01:06:00 BASE 9.69 261 12.71 258 -8.9 92 -10.0 0 0 977.6 NA 0.0000 9999 1540 0 0 0
2019/10/03 01:07:00 BASE 9.78 261 12.71 258 -8.9 92 -9.9 0 0 977.6 NA 0.0000 9999 1440 0 0 0
2019/10/03 01:08:00 BASE 10.15 258 12.71 258 -8.9 92 -9.9 0 0 977.6 NA 0.0000 9999 1280 0 0 0
2019/10/03 01:09:00 BASE 10.24 253 12.71 258 -8.9 93 -9.9 0 0 977.6 NA 0.0000 9999 1770 0 0 0
2019/10/03 01:10:00 BASE 10.30 252 12.71 258 -8.9 93 -9.9 0 0 977.6 NA 0.0000 9999 1740 0 0 0
2019/10/03 01:11:00 BASE 11.02 253 13.43 252 -8.9 93 -9.8 0 0 977.6 NA 0.0000 9999 1640 0 0 0
2019/10/03 01:12:00 BASE 11.66 253 13.43 252 -8.9 93 -9.9 0 0 977.6 NA 0.0000 9999 1510 0 0 0
2019/10/03 01:13:00 BASE 11.80 253 13.43 252 -9.0 93 -9.9 0 0 977.5 NA 0.0000 9999 1540 0 0 0
2019/10/03 01:14:00 BASE 11.59 254 13.43 252 -9.0 93 -9.9 0 0 977.5 NA 0.0000 9999 1540 0 0 0
2019/10/03 01:15:00 BASE 11.78 256 14.10 260 -9.0 93 -9.9 0 0 977.5 NA 0.0000 9999 1410 0 0 0
2019/10/03 01:16:00 BASE 12.36 258 14.10 260 -9.0 93 -9.9 0 0 977.5 NA 0.0000 9999 1640 0 0 0
2019/10/03 01:17:00 BASE 12.41 257 14.10 260 -9.0 93 -9.9 0 0 977.5 NA 0.0000 9999 1640 0 0 0
2019/10/03 01:18:00 BASE 12.50 258 14.46 255 -9.0 93 -9.9 0 0 977.4 NA 0.0000 9999 1480 0 0 0
2019/10/03 01:19:00 BASE 12.72 257 14.46 255 -9.0 93 -9.9 0 0 977.4 NA 0.0000 9999 1570 0 0 0
2019/10/03 01:20:00 BASE 12.31 255 14.46 255 -9.0 93 -9.9 0 0 977.4 NA 0.0000 9999 1610 0 0 0
2019/10/03 01:21:00 BASE 12.31 255 14.46 255 -9.0 93 -9.9 0 0 977.4 NA 0.0000 9999 1610 0 0 0
2019/10/03 01:22:00 BASE 11.68 256 14.46 255 -9.0 93 -9.9 0 0 977.4 NA 0.0000 9999 1770 0 0 0
2019/10/03 01:23:00 BASE 10.22 259 14.46 255 -9.0 93 -9.9 0 0 977.4 NA 0.0000 9999 1570 0 0 0
2019/10/03 01:24:00 BASE 10.94 260 14.87 257 -9.0 93 -9.9 0 0 977.4 NA 0.0000 9999 1670 0 0 0
2019/10/03 01:25:00 BASE 11.78 253 14.87 257 -9.0 93 -9.9 0 0 977.4 NA 0.0000 9999 1610 0 0 0
2019/10/03 01:26:00 BASE 11.31 250 14.87 257 -9.0 93 -9.9 0 0 977.4 NA 0.0000 9999 1640 0 0 0
2019/10/03 01:27:00 BASE 11.61 252 14.87 257 -9.0 93 -9.9 0 0 977.4 NA 0.0000 9999 1570 0 0 0
2019/10/03 01:28:00 BASE 11.59 255 14.87 257 -9.0 93 -9.9 0 0 977.4 NA 0.0000 9999 1710 0 0 0
2019/10/03 01:29:00 BASE 11.72 258 14.87 257 -9.0 93 -9.9 0 0 977.4 NA 0.0000 9999 1710 0 0 0
2019/10/03 01:30:00 BASE 11.45 259 14.87 257 -9.0 93 -9.9 0 0 977.4 NA 0.0000 9999 1840 0 0 0
2019/10/03 01:31:00 BASE 10.69 260 14.87 257 -9.0 93 -9.9 0 0 977.4 NA 0.0000 9999 1800 0 0 0
2019/10/03 01:32:00 BASE 10.69 261 14.87 257 -9.0 94 -9.8 0 0 977.4 NA 0.0000 9999 1940 0 0 0
2019/10/03 01:33:00 BASE 10.76 257 14.87 257 -9.0 94 -9.8 0 0 977.4 NA 0.0000 9999 1900 0 0 0
2019/10/03 01:34:00 BASE 10.61 257 13.22 251 -9.0 94 -9.8 0 0 977.4 NA 0.0000 9999 1800 0 0 0
2019/10/03 01:35:00 BASE 10.44 259 13.22 251 -9.0 94 -9.8 0 0 977.4 NA 0.0000 9999 1800 0 0 0
2019/10/03 01:36:00 BASE 10.41 259 13.22 251 -9.0 94 -9.8 0 0 977.4 NA 0.0000 9999 1770 0 0 0
2019/10/03 01:37:00 BASE 10.17 261 13.12 265 -9.0 94 -9.8 0 0 977.4 NA 0.0000 9999 1870 0 0 0
2019/10/03 01:38:00 BASE 9.96 263 12.81 259 -9.0 94 -9.8 0 0 977.4 NA 0.0000 9999 1870 0 0 0
2019/10/03 01:39:00 BASE 10.84 261 13.12 265 -9.0 94 -9.8 0 0 977.4 NA 0.0000 9999 1800 0 0 0
2019/10/03 01:40:00 BASE 11.47 260 13.12 265 -9.0 94 -9.8 0 0 977.4 NA 0.0000 9999 1770 0 0 0
2019/10/03 01:41:00 BASE 11.33 260 13.58 258 -9.0 94 -9.8 0 0 977.3 NA 0.0000 9999 1770 0 0 0
2019/10/03 01:42:00 BASE 11.27 260 13.58 258 -9.0 94 -9.8 0 0 977.3 NA 0.0000 9999 1740 0 0 0
2019/10/03 01:43:00 BASE 10.86 260 13.58 258 -9.0 94 -9.8 0 0 977.3 NA 0.0000 9999 1770 0 0 0
2019/10/03 01:44:00 BASE 10.41 257 13.58 258 -9.0 94 -9.8 0 0 977.3 NA 0.0000 9999 1710 0 0 0
2019/10/03 01:45:00 BASE 9.95 259 13.58 258 -9.0 94 -9.8 0 0 977.3 NA 0.0000 9999 1610 0 0 0
2019/10/03 01:46:00 BASE 10.24 260 13.58 258 -9.0 94 -9.8 0 0 977.3 NA 0.0000 9999 1570 0 0 0
2019/10/03 01:47:00 BASE 10.71 258 13.58 258 -9.0 94 -9.8 0 0 977.3 NA 0.0000 9999 1540 0 0 0
2019/10/03 01:48:00 BASE 10.50 265 13.58 258 -9.0 94 -9.8 0 0 977.3 NA 0.0000 9999 1540 0 0 0
2019/10/03 01:49:00 BASE 10.63 268 13.58 258 -9.0 94 -9.8 0 0 977.3 NA 0.0000 9999 1770 0 0 0
2019/10/03 01:50:00 BASE 9.89 267 13.58 258 -9.0 94 -9.8 0 0 977.3 NA 0.0000 9999 1640 0 0 0
2019/10/03 01:51:00 BASE 10.05 267 13.53 252 -9.0 95 -9.8 0 0 977.3 NA 0.0000 9999 1250 0 0 0
2019/10/03 01:52:00 BASE 11.30 262 14.04 261 -9.1 95 -9.7 0 0 977.3 NA 0.0000 9999 1740 0 0 0
2019/10/03 01:53:00 BASE 11.11 259 14.04 261 -9.1 95 -9.7 0 0 977.3 NA 0.0000 9999 1770 0 0 0
2019/10/03 01:54:00 BASE 10.77 261 14.04 261 -9.1 95 -9.7 0 0 977.2 NA 0.0000 9999 2130 0 0 0
2019/10/03 01:55:00 BASE 10.96 260 14.04 261 -9.1 95 -9.7 0 0 977.3 NA 0.0000 9999 2100 0 0 0
2019/10/03 01:56:00 BASE 11.77 259 14.04 261 -9.0 95 -9.7 0 0 977.3 NA 0.0000 9999 1740 0 0 0
2019/10/03 01:57:00 BASE 12.40 258 14.04 261 -9.0 95 -9.7 0 0 977.2 NA 0.0000 9999 2300 0 0 0
2019/10/03 01:58:00 BASE 12.15 259 14.04 261 -9.1 95 -9.7 0 0 977.3 NA 0.0000 9999 2720 0 0 0
2019/10/03 01:59:00 BASE 11.96 260 14.04 261 -9.1 95 -9.7 0 0 977.2 NA 0.0000 9999 2990 0 0 0
2019/10/03 02:00:00 BASE 11.67 260 14.04 261 -9.1 95 -9.7 0 0 977.2 NA 0.0000 9999 3280 0 0 0
2019/10/03 02:01:00 BASE 11.66 259 14.04 261 -9.1 95 -9.7 0 0 977.2 NA 0.0000 9999 3280 0 0 0
2019/10/03 02:02:00 BASE 11.47 260 13.84 253 -9.1 95 -9.7 0 0 977.2 NA 0.0000 9999 3350 0 0 0
2019/10/03 02:03:00 BASE 10.32 263 13.84 253 -9.1 95 -9.7 0 0 977.2 NA 0.0000 9999 3310 5320 0 0
2019/10/03 02:04:00 BASE 9.58 263 13.84 253 -9.1 95 -9.7 0 0 977.2 NA 0.0000 9999 3220 3670 5150 0
2019/10/03 02:05:00 BASE 8.84 262 13.84 253 -9.1 95 -9.7 0 0 977.2 NA 0.0000 9999 5150 0 0 0
2019/10/03 02:06:00 BASE 9.62 261 13.84 253 -9.0 95 -9.7 0 0 977.2 NA 0.0000 9999 4890 0 0 0
2019/10/03 02:07:00 BASE 10.89 263 13.84 253 -9.0 95 -9.7 0 0 977.2 NA 0.0000 9999 4860 5320 0 0
2019/10/03 02:08:00 BASE 10.14 265 13.84 253 -9.0 95 -9.7 0 0 977.2 NA 0.0000 9999 1900 4890 0 0
2019/10/03 02:09:00 BASE 10.53 258 13.38 255 -9.0 95 -9.7 0 0 977.2 NA 0.0000 9999 1870 4920 5350 0
2019/10/03 02:10:00 BASE 11.40 254 13.38 255 -9.1 95 -9.7 0 0 977.2 NA 0.0000 9999 2070 4920 0 0
2019/10/03 02:11:00 BASE 11.07 254 13.38 255 -9.1 95 -9.7 0 0 977.1 NA 0.0000 9999 2070 4920 0 0
2019/10/03 02:12:00 BASE 12.00 256 13.74 263 -9.1 95 -9.7 0 0 977.2 NA 0.0000 9999 5320 0 0 0
2019/10/03 02:13:00 BASE 12.67 256 13.74 263 -9.1 95 -9.7 0 0 977.2 NA 0.0000 9999 4990 0 0 0
2019/10/03 02:14:00 BASE 11.40 259 13.74 263 -9.1 95 -9.7 0 0 977.2 NA 0.0000 9999 1940 5020 0 0
2019/10/03 02:15:00 BASE 10.81 259 13.74 263 -9.1 95 -9.7 0 0 977.2 NA 0.0000 9999 1710 5320 0 0
2019/10/03 02:16:00 BASE 11.32 256 13.74 263 -9.0 95 -9.7 0 0 977.2 NA 0.0000 9999 1640 0 0 0
2019/10/03 02:17:00 BASE 11.07 258 13.74 263 -9.0 95 -9.7 0 0 977.2 NA 0.0000 9999 1480 0 0 0
2019/10/03 02:18:00 BASE 10.10 260 13.74 263 -9.0 95 -9.7 0 0 977.2 NA 0.0000 9999 1670 0 0 0
2019/10/03 02:19:00 BASE 8.92 260 13.74 263 -9.0 95 -9.7 0 0 977.2 NA 0.0000 9999 2400 0 0 0
2019/10/03 02:20:00 BASE 8.75 262 13.74 263 -9.0 95 -9.7 0 0 977.2 NA 0.0000 9999 2620 4000 5180 0
2019/10/03 02:21:00 BASE 9.39 265 13.74 263 -9.0 95 -9.7 0 0 977.2 NA 0.0000 9999 4130 5250 0 0
2019/10/03 02:22:00 BASE 10.25 263 13.38 264 -9.0 95 -9.7 0 0 977.2 NA 0.0000 9999 2030 4070 0 0
2019/10/03 02:23:00 BASE 10.87 262 13.38 264 -9.0 95 -9.7 0 0 977.2 NA 0.0000 9999 2200 4040 5320 0
2019/10/03 02:24:00 BASE 11.08 262 13.22 265 -9.0 95 -9.7 0 0 977.1 NA 0.0000 9999 2300 3940 0 0
2019/10/03 02:25:00 BASE 10.88 258 13.22 265 -9.0 95 -9.7 0 0 977.2 NA 0.0000 9999 4040 5280 0 0
2019/10/03 02:26:00 BASE 10.14 257 13.22 265 -9.0 95 -9.7 0 0 977.1 NA 0.0000 9999 4070 5220 0 0
2019/10/03 02:27:00 BASE 10.29 258 13.22 265 -9.0 95 -9.7 0 0 977.2 NA 0.0000 9999 4040 5320 0 0
2019/10/03 02:28:00 BASE 10.11 262 13.22 265 -9.0 95 -9.7 0 0 977.1 NA 0.0000 9999 4070 5350 0 0
2019/10/03 02:29:00 BASE 9.35 260 13.22 265 -9.0 95 -9.7 0 0 977.2 NA 0.0000 9999 4000 5320 0 0
2019/10/03 02:30:00 BASE 8.78 259 13.22 265 -9.0 95 -9.7 0 0 977.2 NA 0.0000 9999 3970 0 0 0
2019/10/03 02:31:00 BASE 8.86 262 13.22 265 -9.0 95 -9.7 0 0 977.2 NA 0.0000 9999 4040 0 0 0
2019/10/03 02:32:00 BASE 9.75 265 12.60 265 -9.0 95 -9.7 0 0 977.2 NA 0.0000 9999 3940 0 0 0
2019/10/03 02:33:00 BASE 10.85 261 12.81 254 -9.0 95 -9.7 0 0 977.2 NA 0.0000 9999 3940 0 0 0
2019/10/03 02:34:00 BASE 11.55 255 12.81 254 -9.0 95 -9.7 0 0 977.2 NA 0.0000 9999 3810 0 0 0
2019/10/03 02:35:00 BASE 10.70 257 12.81 254 -9.1 95 -9.7 0 0 977.2 NA 0.0000 9999 3740 0 0 0
2019/10/03 02:36:00 BASE 10.14 260 12.81 254 -9.1 95 -9.7 0 0 977.1 NA 0.0000 9999 3220 0 0 0
2019/10/03 02:37:00 BASE 9.99 264 12.81 254 -9.1 95 -9.7 0 0 977.2 NA 0.0000 9999 3250 0 0 0
2019/10/03 02:38:00 BASE 9.78 263 12.81 254 -9.0 95 -9.7 0 0 977.2 NA 0.0000 9999 3380 0 0 0
2019/10/03 02:39:00 BASE 10.23 260 13.02 257 -9.0 95 -9.7 0 0 977.1 NA 0.0000 9999 3410 0 0 0
2019/10/03 02:40:00 BASE 10.62 258 13.02 257 -9.0 95 -9.7 0 0 977.2 NA 0.0000 9999 3480 0 0 0
2019/10/03 02:41:00 BASE 10.77 257 13.02 257 -9.1 95 -9.7 0 0 977.2 NA 0.0000 9999 2460 3480 0 0
2019/10/03 02:42:00 BASE 9.48 260 13.02 257 -9.1 95 -9.7 0 0 977.1 NA 0.0000 9999 2330 3250 3640 0
2019/10/03 02:43:00 BASE 8.70 262 13.02 257 -9.1 95 -9.7 0 0 977.2 NA 0.0000 9999 2100 0 0 0
2019/10/03 02:44:00 BASE 8.45 263 13.02 257 -9.1 95 -9.7 0 0 977.2 NA 0.0000 9999 1900 0 0 0
2019/10/03 02:45:00 BASE 8.43 264 13.02 257 -9.0 95 -9.7 0 0 977.2 NA 0.0000 9999 1900 0 0 0
2019/10/03 02:46:00 BASE 9.34 261 13.02 257 -9.0 95 -9.7 0 0 977.2 NA 0.0000 9999 1870 0 0 0
2019/10/03 02:47:00 BASE 9.82 260 13.02 257 -9.0 95 -9.7 0 0 977.2 NA 0.0000 9999 1800 0 0 0
2019/10/03 02:48:00 BASE 10.15 261 13.02 257 -9.0 95 -9.6 0 0 977.2 NA 0.0000 9999 1670 0 0 0
2019/10/03 02:49:00 BASE 10.72 260 12.19 259 -9.0 95 -9.6 0 0 977.2 NA 0.0000 9999 1740 0 0 0
2019/10/03 02:50:00 BASE 10.22 260 12.19 259 -9.0 95 -9.6 0 0 977.2 NA 0.0000 9999 2200 0 0 0
2019/10/03 02:51:00 BASE 8.55 263 12.19 259 -9.0 95 -9.6 0 0 977.2 NA 0.0000 9999 2030 0 0 0
2019/10/03 02:52:00 BASE 8.64 265 12.19 259 -9.0 96 -9.5 0 0 977.2 NA 0.0000 9999 1800 0 0 0
2019/10/03 02:53:01 BASE 9.87 263 12.19 259 -9.0 96 -9.5 0 0 977.2 NA 0.0000 9999 1840 0 0 0
2019/10/03 02:54:00 BASE 9.18 262 12.19 259 -9.0 96 -9.5 0 0 977.2 NA 0.0000 9999 1740 0 0 0
2019/10/03 02:55:00 BASE 8.51 261 12.19 259 -8.9 96 -9.5 0 0 977.2 NA 0.0000 9999 1120 0 0 0
2019/10/03 02:56:00 BASE 8.44 264 12.19 259 -8.9 96 -9.5 0 0 977.2 NA 0.0000 9999 1740 0 0 0
2019/10/03 02:57:00 BASE 8.24 271 12.19 259 -8.9 96 -9.4 0 0 977.2 NA 0.0000 9999 1870 0 0 0
2019/10/03 02:58:00 BASE 8.29 270 12.19 259 -8.9 96 -9.4 0 0 977.2 NA 0.0000 9999 2030 0 0 0
2019/10/03 02:59:00 BASE 8.02 271 11.47 261 -8.9 96 -9.4 0 0 977.2 NA 0.0000 9999 1970 0 0 0
2019/10/03 03:00:00 BASE 8.17 270 11.47 261 -8.9 96 -9.4 0 0 977.2 NA 0.0000 9999 2070 0 0 0
2019/10/03 03:01:00 BASE 7.99 269 11.47 261 -8.9 97 -9.3 0 0 977.2 NA 0.0000 9999 1870 0 0 0
2019/10/03 03:02:00 BASE 7.81 272 11.47 261 -8.9 97 -9.3 0 0 977.2 NA 0.0000 9999 1900 0 0 0
2019/10/03 03:03:00 BASE 9.14 268 11.47 254 -8.9 97 -9.3 0 0 977.2 NA 0.0000 9999 2000 0 0 0
2019/10/03 03:04:00 BASE 9.85 262 11.47 254 -8.9 97 -9.3 0 0 977.2 NA 0.0000 9999 1740 0 0 0
2019/10/03 03:05:00 BASE 9.11 260 11.47 254 -8.9 97 -9.3 0 0 977.2 NA 0.0000 9999 390 1350 0 0
2019/10/03 03:06:00 BASE 8.46 264 11.47 254 -8.9 97 -9.3 0 0 977.2 NA 0.0000 9000 330 1510 0 0
2019/10/03 03:07:00 BASE 7.87 267 11.47 254 -8.9 97 -9.3 0 0 977.2 NA 0.0000 -SN 5000 230 0 0 0
2019/10/03 03:08:00 BASE 8.33 262 11.47 254 -8.9 97 -9.3 0 0 977.2 NA 0.0000 -SN BR 4500 260 1640 0 0
2019/10/03 03:09:00 BASE 9.02 256 11.47 254 -8.9 97 -9.2 0 0 977.2 NA 0.0000 -SN BR 6000 360 0 0 0
2019/10/03 03:10:00 BASE 7.96 256 11.47 254 -8.9 98 -9.2 0 0 977.2 NA 0.0000 -SN BR 8000 360 0 0 0
2019/10/03 03:11:00 BASE 8.71 258 11.99 250 -8.9 98 -9.2 0 0 977.2 NA 0.0000 -SN BR 9000 460 0 0 0
2019/10/03 03:12:00 BASE 11.06 260 13.02 272 -8.9 98 -9.2 0 0 977.1 NA 0.0000 -SN BR 9999 920 0 0 0
2019/10/03 03:13:00 BASE 11.54 264 13.53 259 -8.9 98 -9.2 0 0 977.1 NA 0.0000 -SN BR 9999 560 1940 0 0
2019/10/03 03:14:00 BASE 11.72 263 13.68 255 -9.0 98 -9.2 0 0 977.1 NA 0.0000 -SN BR 9999 920 1710 0 0
2019/10/03 03:15:00 BASE 12.21 260 14.51 253 -9.0 98 -9.2 0 0 977.1 NA 0.0000 -SN BR 9999 720 1940 0 0
2019/10/03 03:16:00 BASE 12.88 256 14.71 255 -9.0 99 -9.2 0 0 977.1 NA 0.0000 -SN BR 9999 360 0 0 0
2019/10/03 03:17:00 BASE 13.25 254 14.71 259 -9.0 99 -9.2 0 0 977.2 NA 0.0000 -SN BR 9999 390 1770 0 0
2019/10/03 03:18:00 BASE 12.67 256 14.71 259 -9.0 99 -9.1 0 0 977.1 NA 0.0000 -SN 9999 1380 0 0 0
2019/10/03 03:19:00 BASE 12.97 257 14.71 259 -9.0 99 -9.2 0 0 977.1 NA 0.0000 -SN 9999 1740 0 0 0
2019/10/03 03:20:00 BASE 13.74 254 15.38 248 -9.1 99 -9.2 0 0 977.1 NA 0.0000 -SN 9999 1840 0 0 0
2019/10/03 03:21:00 BASE 13.40 254 15.38 248 -9.1 99 -9.2 0 0 977.1 NA 0.0000 -SN 9999 460 0 0 0
2019/10/03 03:22:00 BASE 13.40 254 15.38 248 -9.1 99 -9.2 0 0 977.1 NA 0.0000 -SN 9999 1940 0 0 0
2019/10/03 03:23:00 BASE 13.14 253 15.38 248 -9.1 99 -9.2 0 0 977.1 NA 0.0000 -SN 9999 2260 0 0 0
2019/10/03 03:24:00 BASE 12.36 254 15.38 248 -9.1 99 -9.2 0 0 977.1 NA 0.0000 -SN 9999 2400 0 0 0
2019/10/03 03:25:00 BASE 11.45 255 15.38 248 -9.1 99 -9.2 0 0 977.1 NA 0.0000 -SN 9999 2430 0 0 0
2019/10/03 03:26:00 BASE 11.11 255 15.38 248 -9.1 99 -9.2 0 0 977.1 NA 0.0000 9999 2490 0 0 0
2019/10/03 03:27:00 BASE 11.32 256 15.38 248 -9.0 99 -9.2 0 0 977.1 NA 0.0000 9999 950 2430 0 0
2019/10/03 03:28:00 BASE 11.90 259 15.38 248 -9.0 99 -9.1 0 0 977.1 NA 0.0000 9999 920 2170 0 0
2019/10/03 03:29:00 BASE 12.73 256 15.38 248 -9.0 99 -9.1 0 0 977.1 NA 0.0000 9999 1120 2170 0 0
2019/10/03 03:30:00 BASE 11.64 256 15.33 245 -9.0 99 -9.1 0 0 977.1 NA 0.0000 9999 2300 0 0 0
2019/10/03 03:31:00 BASE 11.24 257 15.33 245 -9.0 99 -9.1 0 0 977.1 NA 0.0000 9999 2130 0 0 0
2019/10/03 03:32:00 BASE 11.76 255 14.40 266 -9.0 99 -9.1 0 0 977.1 NA 0.0000 9999 1970 0 0 0
2019/10/03 03:33:00 BASE 11.49 254 14.40 266 -9.0 99 -9.2 0 0 977.1 NA 0.0000 9999 430 1970 0 0
2019/10/03 03:34:00 BASE 11.13 256 14.40 266 -9.0 99 -9.2 0 0 977.1 NA 0.0000 9999 390 2000 0 0
2019/10/03 03:35:00 BASE 10.89 258 14.40 266 -9.0 99 -9.1 0 0 977.1 NA 0.0000 -SN 9999 950 1940 0 0
2019/10/03 03:36:00 BASE 10.27 259 14.40 266 -9.0 99 -9.1 0 0 977.1 NA 0.0000 -SN 9999 1970 0 0 0
2019/10/03 03:37:00 BASE 10.20 260 14.40 266 -9.0 99 -9.1 0 0 977.1 NA 0.0000 -SN 9999 360 2000 0 0
2019/10/03 03:38:00 BASE 10.80 258 14.25 250 -9.0 99 -9.1 0 0 977.1 NA 0.0000 -SN 9999 1900 0 0 0
2019/10/03 03:39:00 BASE 11.31 254 13.48 250 -9.0 99 -9.1 0 0 977.1 NA 0.0000 -SN 9999 490 0 0 0
2019/10/03 03:40:00 BASE 12.10 254 13.53 259 -9.0 99 -9.1 0 0 977.0 NA 0.0000 -SN 9999 390 1900 0 0
2019/10/03 03:41:00 BASE 11.81 254 13.53 259 -9.0 99 -9.1 0 0 977.0 NA 0.0000 -SN 9999 360 1540 0 0
2019/10/03 03:42:00 BASE 11.17 252 13.53 259 -9.0 99 -9.1 0 0 977.0 NA 0.0000 -SN 9999 390 1900 0 0
2019/10/03 03:43:00 BASE 11.03 256 13.53 259 -9.0 99 -9.1 0 0 977.0 NA 0.0000 -SN 9999 360 1770 0 0
2019/10/03 03:44:00 BASE 11.69 257 13.53 259 -9.0 100 -9.1 0 0 977.0 NA 0.0000 -SN 9999 390 1940 0 0
2019/10/03 03:45:00 BASE 12.36 257 14.40 254 -9.0 100 -9.0 0 0 977.0 NA 0.0000 -SN 9999 360 0 0 0
2019/10/03 03:46:00 BASE 12.30 256 14.40 254 -9.0 100 -9.0 0 0 977.0 NA 0.0000 -SN 9999 660 0 0 0
2019/10/03 03:47:00 BASE 12.38 252 14.51 254 -9.0 100 -9.0 0 0 977.0 NA 0.0000 -SN 9999 1670 0 0 0
2019/10/03 03:48:00 BASE 11.38 253 14.51 254 -9.0 100 -9.0 0 0 977.0 NA 0.0000 -SN 9999 1610 0 0 0
2019/10/03 03:49:00 BASE 10.53 257 14.51 254 -9.0 100 -9.0 0 0 977.0 NA 0.0000 -SN 9999 1670 0 0 0
2019/10/03 03:50:00 BASE 11.24 259 14.51 254 -9.0 100 -9.0 0 0 977.0 NA 0.0000 -SN 9999 1310 0 0 0
2019/10/03 03:51:00 BASE 12.02 257 14.51 254 -9.0 100 -9.0 0 0 977.0 NA 0.0000 -SN 9999 1770 0 0 0
2019/10/03 03:52:00 BASE 12.70 253 14.51 254 -9.0 100 -9.0 0 0 977.0 NA 0.0000 -SN 9999 1770 0 0 0
2019/10/03 03:53:00 BASE 12.05 253 14.51 254 -9.0 100 -9.0 0 0 977.0 NA 0.0000 -SN 9999 1670 0 0 0
2019/10/03 03:54:00 BASE 10.84 254 14.51 254 -9.0 100 -9.0 0 0 977.0 NA 0.0000 -SN 9999 1710 0 0 0
2019/10/03 03:55:00 BASE 10.33 258 14.51 254 -9.0 100 -9.0 0 0 977.0 NA 0.0000 9999 1740 0 0 0
2019/10/03 03:56:00 BASE 11.24 258 14.51 254 -9.0 100 -9.0 0 0 977.0 NA 0.0000 9999 1640 0 0 0
2019/10/03 03:57:00 BASE 12.01 252 14.25 252 -9.0 100 -9.0 0 0 977.0 NA 0.0000 9999 980 1710 0 0
2019/10/03 03:58:00 BASE 10.54 255 14.25 252 -9.0 100 -9.0 0 0 977.0 NA 0.0000 9999 1640 0 0 0
2019/10/03 03:59:00 BASE 9.87 260 14.25 252 -9.0 99 -9.1 0 0 977.0 NA 0.0000 9999 1740 0 0 0
2019/10/03 04:00:00 BASE 10.15 259 14.25 252 -9.0 99 -9.1 0 0 977.0 NA 0.0000 9999 1870 0 0 0
2019/10/03 04:01:00 BASE 9.73 256 14.25 252 -9.0 99 -9.1 0 0 977.0 NA 0.0000 9999 430 1840 0 0
2019/10/03 04:02:01 BASE 10.24 254 14.25 252 -9.0 99 -9.1 0 0 976.9 NA 0.0000 9999 1710 0 0 0
2019/10/03 04:03:01 BASE 10.90 258 14.25 252 -9.0 99 -9.1 0 0 977.0 NA 0.0000 9999 490 1800 0 0
2019/10/03 04:04:01 BASE 11.49 260 14.25 252 -9.0 99 -9.1 0 0 976.9 NA 0.0000 9999 1280 1940 0 0
2019/10/03 04:05:01 BASE 10.52 261 14.25 252 -9.0 99 -9.1 0 0 977.0 NA 0.0000 9999 1280 2000 0 0
2019/10/03 04:06:01 BASE 8.98 261 13.53 248 -9.0 99 -9.1 0 0 977.0 NA 0.0000 9999 2000 0 0 0
2019/10/03 04:07:01 BASE 8.91 257 13.43 261 -9.0 99 -9.0 0 0 977.0 NA 0.0000 9999 2070 0 0 0
2019/10/03 04:08:01 BASE 9.59 259 13.43 261 -8.9 100 -9.0 0 0 976.9 NA 0.0000 9999 2100 0 0 0
2019/10/03 04:09:01 BASE 10.67 261 13.43 261 -8.9 100 -9.0 0 0 976.9 NA 0.0000 9999 2070 0 0 0
2019/10/03 04:10:01 BASE 11.45 258 13.68 256 -8.9 100 -8.9 0 0 976.9 NA 0.0000 9999 1210 0 0 0
2019/10/03 04:11:01 BASE 10.56 258 13.68 256 -8.9 100 -8.9 0 0 977.0 NA 0.0000 9999 2070 0 0 0
2019/10/03 04:12:01 BASE 9.89 260 13.68 256 -8.9 100 -8.9 0 0 976.9 NA 0.0000 9999 2260 0 0 0
2019/10/03 04:13:01 BASE 11.01 259 13.68 256 -8.9 100 -8.9 0 0 976.9 NA 0.0000 9999 1870 0 0 0
2019/10/03 04:14:01 BASE 11.31 260 13.68 256 -8.9 100 -8.9 0 0 976.9 NA 0.0000 9999 1800 0 0 0
2019/10/03 04:15:01 BASE 11.34 261 13.68 256 -8.9 100 -8.9 0 0 976.9 NA 0.0000 9999 1770 0 0 0
2019/10/03 04:16:01 BASE 10.66 261 13.68 256 -8.9 100 -8.9 0 0 976.9 NA 0.0000 9999 850 1710 0 0
2019/10/03 04:17:01 BASE 10.11 259 13.68 256 -8.9 100 -8.9 0 0 976.9 NA 0.0000 9999 920 1640 0 0
2019/10/03 04:18:01 BASE 10.49 261 13.68 256 -8.9 100 -8.9 0 0 976.9 NA 0.0000 9999 1120 1710 0 0
2019/10/03 04:19:01 BASE 11.23 261 13.68 256 -8.9 100 -8.9 0 0 976.9 NA 0.0000 9999 1670 0 0 0
2019/10/03 04:20:01 BASE 10.91 256 13.12 257 -8.9 100 -8.9 0 0 976.9 NA 0.0000 9999 1800 0 0 0
2019/10/03 04:21:01 BASE 10.97 255 13.12 257 -8.9 100 -8.9 0 0 976.9 NA 0.0000 9999 1900 0 0 0
2019/10/03 04:22:01 BASE 11.72 256 13.12 253 -9.0 100 -9.0 0 0 976.9 NA 0.0000 9999 1900 0 0 0
2019/10/03 04:23:01 BASE 11.51 259 13.12 253 -9.0 100 -9.0 0 0 976.9 NA 0.0000 9999 1900 0 0 0
2019/10/03 04:24:01 BASE 11.28 259 13.12 253 -9.0 100 -9.0 0 0 976.8 NA 0.0000 9999 660 0 0 0
2019/10/03 04:25:01 BASE 10.92 259 13.12 253 -9.0 100 -9.0 0 0 976.8 NA 0.0000 9999 750 0 0 0
2019/10/03 04:26:01 BASE 10.26 259 13.12 253 -9.0 100 -9.0 0 0 976.8 NA 0.0000 9999 720 2230 0 0
2019/10/03 04:27:01 BASE 9.66 260 13.12 253 -8.9 100 -8.9 0 0 976.8 NA 0.0000 9999 690 0 0 0
2019/10/03 04:28:01 BASE 10.13 259 13.12 253 -8.9 100 -8.9 0 0 976.8 NA 0.0000 9999 460 1870 0 0
2019/10/03 04:29:01 BASE 9.61 262 13.12 253 -8.9 100 -8.9 0 0 976.8 NA 0.0000 9999 430 1900 0 0
2019/10/03 04:30:01 BASE 8.94 266 13.12 253 -8.9 100 -8.9 0 0 976.8 NA 0.0000 9999 360 1940 0 0
2019/10/03 04:31:01 BASE 9.20 265 13.12 253 -8.9 100 -8.9 0 0 976.8 NA 0.0000 8000 360 1670 0 0
2019/10/03 04:32:01 BASE 9.49 262 12.71 256 -8.9 100 -8.9 0 0 976.8 NA 0.0000 -SN 8000 300 0 0 0
2019/10/03 04:33:01 BASE 9.72 261 12.71 256 -8.9 100 -8.9 0 0 976.8 NA 0.0000 -SN 6000 230 0 0 0
2019/10/03 04:34:01 BASE 9.48 259 12.60 256 -8.9 100 -8.9 0 0 976.8 NA 0.0000 -SN BR 5000 0 0 0 2100
2019/10/03 04:35:01 BASE 9.40 259 12.60 256 -8.9 100 -8.9 0 0 976.8 NA 0.0000 -SN BR 5000 0 0 0 1740
2019/10/03 04:36:01 BASE 8.76 262 12.60 256 -8.9 100 -8.9 0 0 976.8 NA 0.0000 -SN BR 4200 0 0 0 2100
2019/10/03 04:37:01 BASE 9.06 262 12.60 256 -8.9 100 -8.9 0 0 976.8 NA 0.0000 -SN BR 3500 0 0 0 1640
2019/10/03 04:38:00 BASE 9.30 258 12.60 256 -8.9 100 -8.9 0 0 976.8 NA 0.0000 -SN BR 3100 0 0 0 1740
2019/10/03 04:39:01 BASE 9.31 259 12.60 256 -8.9 100 -8.9 0 0 976.8 NA 0.0000 -SN BR 3200 0 0 0 1050
2019/10/03 04:40:00 BASE 10.56 259 12.81 261 -8.9 100 -8.9 0 0 976.8 NA 0.0000 -SN BR 1800 0 0 0 1150
2019/10/03 04:41:00 BASE 10.61 256 12.81 261 -8.9 100 -8.9 0 0 976.8 NA 0.0000 -SN BR 2200 0 0 0 790
2019/10/03 04:42:00 BASE 9.68 257 12.81 261 -8.9 100 -8.9 0 0 976.8 NA 0.0000 -SN BR 2300 0 0 0 950
2019/10/03 04:43:01 BASE 8.81 259 12.81 261 -8.9 100 -8.9 0 0 976.8 NA 0.0000 -SN BR 3000 0 0 0 1280
2019/10/03 04:44:00 BASE 9.65 259 12.81 261 -8.9 100 -8.9 0 0 976.8 NA 0.0000 -SN BR 3800 0 0 0 2170
2019/10/03 04:45:00 BASE 10.47 256 12.81 261 -8.9 100 -8.9 0 0 976.8 NA 0.0000 -SN BR 7000 0 0 0 2000
2019/10/03 04:46:00 BASE 9.90 253 12.81 261 -8.9 100 -8.9 0 0 976.8 NA 0.0000 -SN BR 9999 330 0 0 0
2019/10/03 04:47:00 BASE 9.56 252 12.81 261 -8.9 100 -8.9 0 0 976.8 NA 0.0000 -SN BR 9999 360 1570 0 0
2019/10/03 04:48:01 BASE 9.39 251 12.81 261 -8.9 100 -8.9 0 0 976.8 NA 0.0000 -SN BR 9999 360 1970 0 0
2019/10/03 04:49:00 BASE 10.47 249 13.02 250 -8.9 100 -8.9 0 0 976.8 NA 0.0000 -SN BR 9999 1180 2530 0 0
2019/10/03 04:50:00 BASE 11.02 248 13.12 243 -8.9 100 -8.9 0 0 976.7 NA 0.0000 -SN BR 9999 1440 2560 0 0
2019/10/03 04:51:00 BASE 10.91 250 13.12 243 -8.9 100 -8.9 0 0 976.7 NA 0.0000 -SN BR 9999 1570 2660 0 0
2019/10/03 04:52:00 BASE 10.73 252 13.12 243 -8.9 100 -8.9 0 0 976.7 NA 0.0000 -SN BR 9999 1250 2760 0 0
2019/10/03 04:53:00 BASE 10.58 251 13.12 243 -8.9 100 -8.9 0 0 976.7 NA 0.0000 -SN 9999 1150 0 0 0
2019/10/03 04:54:00 BASE 10.61 252 13.12 243 -8.9 100 -8.9 0 0 976.7 NA 0.0000 -SN 9999 1740 2660 0 0
2019/10/03 04:55:00 BASE 10.68 252 13.12 243 -8.9 100 -8.9 0 0 976.7 NA 0.0000 -SN 9999 1940 2790 0 0
2019/10/03 04:56:00 BASE 10.75 248 13.12 243 -8.9 100 -8.9 0 0 976.7 NA 0.0000 -SN 9999 1480 2760 0 0
2019/10/03 04:57:00 BASE 9.97 246 13.12 243 -8.9 100 -8.9 0 0 976.7 NA 0.0000 -SN 9999 1120 2760 0 0
2019/10/03 04:58:00 BASE 9.72 244 13.12 243 -8.9 100 -8.9 0 0 976.7 NA 0.0000 -SN 9999 1310 2260 0 0
2019/10/03 04:59:00 BASE 9.56 237 13.12 243 -8.9 100 -8.9 0 0 976.7 NA 0.0000 9999 2070 2820 0 0
2019/10/03 05:00:00 BASE 8.39 235 12.04 247 -8.8 100 -8.9 0 0 976.7 NA 0.0000 9999 1770 2620 0 0
2019/10/03 05:01:00 BASE 7.52 234 11.99 239 -8.8 100 -8.8 0 0 976.7 NA 0.0000 9999 1840 0 0 0
2019/10/03 05:02:00 BASE 8.76 230 11.99 239 -8.8 100 -8.8 0 0 976.7 NA 0.0000 9999 1510 2920 0 0
2019/10/03 05:03:00 BASE 10.37 230 11.99 239 -8.8 100 -8.8 0 0 976.7 NA 0.0000 9999 2820 0 0 0
2019/10/03 05:04:00 BASE 10.46 231 11.99 239 -8.8 100 -8.8 0 0 976.7 NA 0.0000 9999 1670 2790 0 0
2019/10/03 05:05:00 BASE 9.18 231 11.99 239 -8.9 100 -8.9 0 0 976.7 NA 0.0000 9999 1540 2760 0 0
2019/10/03 05:06:00 BASE 8.18 235 11.88 222 -8.9 100 -8.9 0 0 976.7 NA 0.0000 9999 2790 0 0 0
2019/10/03 05:07:00 BASE 8.19 239 11.88 222 -8.9 100 -8.9 0 0 976.7 NA 0.0000 9999 1570 2720 3250 0
2019/10/03 05:08:00 BASE 8.00 240 11.88 222 -8.9 100 -8.9 0 0 976.7 NA 0.0000 9999 1510 2360 0 0
2019/10/03 05:09:00 BASE 8.52 243 11.88 222 -8.9 100 -8.9 0 0 976.7 NA 0.0000 9999 1350 2260 0 0
2019/10/03 05:10:00 BASE 8.64 247 11.88 222 -8.8 100 -8.8 0 0 976.7 NA 0.0000 9999 2000 3080 0 0
2019/10/03 05:11:00 BASE 8.81 249 11.88 222 -8.8 100 -8.8 0 0 976.8 NA 0.0000 9999 430 2530 0 0
2019/10/03 05:12:00 BASE 10.29 248 12.50 244 -8.8 100 -8.8 0 0 976.7 NA 0.0000 -SN 9999 1410 3150 0 0
2019/10/03 05:13:00 BASE 10.63 247 12.50 244 -8.8 100 -8.8 0 0 976.7 NA 0.0000 -SN 9999 1250 0 0 0
2019/10/03 05:14:01 BASE 10.14 249 12.50 244 -8.9 100 -8.9 0 0 976.7 NA 0.0000 -SN 9999 1310 0 0 0
2019/10/03 05:15:01 BASE 10.28 252 12.50 244 -8.9 100 -8.9 0 0 976.7 NA 0.0000 -SN 9999 430 0 0 0
2019/10/03 05:16:01 BASE 10.48 254 12.50 244 -8.9 100 -9.0 0 0 976.7 NA 0.0000 -SN 9999 790 0 0 0
2019/10/03 05:17:01 BASE 10.48 254 12.50 244 -8.9 99 -9.0 0 0 976.7 NA 0.0000 -SN 9999 750 1440 0 0
2019/10/03 05:18:01 BASE 10.40 254 12.50 244 -8.9 99 -9.1 0 0 976.7 NA 0.0000 -SN 9999 890 3150 0 0
2019/10/03 05:19:01 BASE 10.17 256 12.50 244 -9.0 99 -9.1 0 0 976.7 NA 0.0000 -SN 9999 1480 3150 0 0
2019/10/03 05:20:01 BASE 9.76 255 12.50 244 -9.0 99 -9.1 0 0 976.7 NA 0.0000 -SN 9999 490 3220 0 0
2019/10/03 05:21:01 BASE 9.89 254 12.50 244 -9.0 99 -9.1 0 0 976.7 NA 0.0000 -SN 9999 460 3150 0 0
2019/10/03 05:22:00 BASE 9.90 254 12.30 250 -9.0 99 -9.1 0 0 976.7 NA 0.0000 9999 520 1840 0 0
2019/10/03 05:23:00 BASE 8.90 254 12.30 250 -9.0 99 -9.1 0 0 976.7 NA 0.0000 -SN 9999 460 3180 0 0
2019/10/03 05:24:00 BASE 8.68 253 12.30 250 -9.0 99 -9.1 0 0 976.7 NA 0.0000 -SN 9999 1740 3250 0 0
2019/10/03 05:25:00 BASE 9.18 253 11.99 254 -9.0 99 -9.1 0 0 976.7 NA 0.0000 -SN 9999 460 0 0 0
2019/10/03 05:26:00 BASE 9.04 254 11.57 259 -9.0 99 -9.1 0 0 976.7 NA 0.0000 -SN 9999 660 2950 0 0
2019/10/03 05:27:00 BASE 8.45 255 11.57 259 -9.0 99 -9.1 0 0 976.7 NA 0.0000 -SN 9999 1840 2850 0 0
2019/10/03 05:28:00 BASE 7.99 257 11.57 259 -9.0 99 -9.1 0 0 976.7 NA 0.0000 -SN 9999 2920 0 0 0
2019/10/03 05:29:00 BASE 8.17 255 11.57 259 -9.0 99 -9.1 0 0 976.7 NA 0.0000 -SN 9999 2950 0 0 0
2019/10/03 05:30:00 BASE 8.28 253 11.57 259 -9.0 99 -9.1 0 0 976.7 NA 0.0000 -SN 9999 3080 0 0 0
2019/10/03 05:31:00 BASE 8.59 253 11.37 252 -9.0 99 -9.1 0 0 976.7 NA 0.0000 -SN 9999 1640 3120 0 0
2019/10/03 05:32:00 BASE 8.65 256 10.65 250 -9.0 99 -9.1 0 0 976.7 NA 0.0000 -SN 9999 3050 0 0 0
2019/10/03 05:33:00 BASE 7.97 262 10.65 250 -9.0 99 -9.1 0 0 976.7 NA 0.0000 -SN 9999 2330 3180 0 0
2019/10/03 05:34:00 BASE 7.02 265 10.65 250 -9.0 99 -9.1 0 0 976.7 NA 0.0000 9999 2100 3180 0 0
2019/10/03 05:35:00 BASE 6.98 264 10.44 253 -8.9 99 -9.1 0 0 976.7 NA 0.0000 9999 1710 3350 0 0
2019/10/03 05:36:00 BASE 7.33 261 10.34 262 -8.9 99 -9.0 0 0 976.7 NA 0.0000 9999 1670 2460 3180 0
2019/10/03 05:37:00 BASE 7.35 258 10.34 262 -8.9 99 -9.0 0 0 976.7 NA 0.0000 9999 1670 3150 0 0
2019/10/03 05:38:00 BASE 7.57 257 10.34 262 -8.9 99 -9.0 0 0 976.7 NA 0.0000 9999 1610 3020 0 0
2019/10/03 05:39:00 BASE 8.86 258 10.80 257 -8.9 99 -9.0 0 0 976.7 NA 0.0000 9999 2790 0 0 0
2019/10/03 05:40:00 BASE 9.13 255 10.80 257 -8.9 99 -9.0 0 0 976.7 NA 0.0000 9999 1740 2790 0 0
2019/10/03 05:41:00 BASE 8.62 251 10.80 257 -8.9 99 -9.0 0 0 976.7 NA 0.0000 9999 1610 3150 0 0
2019/10/03 05:42:00 BASE 8.99 251 10.80 257 -8.9 99 -9.0 0 0 976.7 NA 0.0000 9999 1570 2990 0 0
2019/10/03 05:43:00 BASE 8.82 253 10.80 257 -8.9 99 -9.0 0 0 976.7 NA 0.0000 9999 1710 3080 0 0
2019/10/03 05:44:00 BASE 9.52 254 11.11 260 -8.9 99 -9.1 0 0 976.6 NA 0.0000 9999 1510 3180 0 0
2019/10/03 05:45:00 BASE 9.76 254 11.27 250 -8.9 99 -9.1 0 0 976.6 NA 0.0000 9999 2890 0 0 0
2019/10/03 05:46:00 BASE 9.35 255 11.27 250 -8.9 98 -9.1 0 0 976.6 NA 0.0000 9999 2850 0 0 0
2019/10/03 05:47:00 BASE 9.67 255 11.27 250 -8.9 98 -9.1 0 0 976.6 NA 0.0000 9999 2950 0 0 0
2019/10/03 05:48:00 BASE 9.64 254 11.27 250 -8.9 98 -9.2 0 0 976.6 NA 0.0000 9999 2990 0 0 0
2019/10/03 05:49:00 BASE 9.07 256 11.27 250 -8.9 98 -9.2 0 0 976.6 NA 0.0000 9999 3020 0 0 0
2019/10/03 05:50:00 BASE 9.11 257 11.27 250 -8.9 98 -9.2 0 0 976.6 NA 0.0000 9999 3050 0 0 0
2019/10/03 05:51:00 BASE 9.77 253 11.27 250 -8.9 98 -9.2 0 0 976.6 NA 0.0000 9999 3250 0 0 0
2019/10/03 05:52:00 BASE 9.74 248 11.27 250 -8.9 98 -9.2 0 0 976.5 NA 0.0000 9999 3310 0 0 0
2019/10/03 05:53:00 BASE 8.09 245 11.27 250 -8.9 98 -9.3 0 0 976.5 NA 0.0000 9999 3080 0 0 0
2019/10/03 05:54:00 BASE 6.89 249 11.27 250 -9.0 97 -9.3 0 0 976.5 NA 0.0000 9999 1710 3220 0 0
2019/10/03 05:55:00 BASE 6.85 252 11.11 260 -9.0 97 -9.3 0 0 976.5 NA 0.0000 9999 3120 0 0 0
2019/10/03 05:56:00 BASE 7.60 244 11.11 260 -9.0 97 -9.4 0 0 976.5 NA 0.0000 9999 3020 0 0 0
2019/10/03 05:57:00 BASE 7.56 241 10.96 253 -9.0 97 -9.4 0 0 976.5 NA 0.0000 9999 3020 0 0 0
2019/10/03 05:58:00 BASE 6.66 243 10.96 253 -9.0 97 -9.4 0 0 976.5 NA 0.0000 9999 3050 0 0 0
2019/10/03 05:59:00 BASE 7.29 241 10.96 253 -9.0 97 -9.4 0 0 976.4 NA 0.0000 9999 1610 3080 0 0
2019/10/03 06:00:00 BASE 8.13 239 10.65 243 -9.0 97 -9.3 0 0 976.4 NA 0.0000 9999 3120 0 0 0
2019/10/03 06:01:00 BASE 8.78 237 10.60 240 -9.0 97 -9.3 0 0 976.4 NA 0.0000 9999 2790 0 0 0
2019/10/03 06:02:00 BASE 9.19 238 10.44 238 -8.9 97 -9.3 0 0 976.4 NA 0.0000 9999 2790 0 0 0
2019/10/03 06:03:00 BASE 9.87 239 11.47 235 -8.9 97 -9.3 0 0 976.4 NA 0.0000 9999 2790 0 0 0
2019/10/03 06:04:00 BASE 9.85 239 11.47 235 -8.9 97 -9.3 0 0 976.4 NA 0.0000 9999 2660 0 0 0
2019/10/03 06:05:00 BASE 9.30 242 11.47 235 -8.9 97 -9.3 0 0 976.4 NA 0.0000 9999 2950 0 0 0
2019/10/03 06:06:00 BASE 8.66 241 11.47 235 -8.9 97 -9.3 0 0 976.4 NA 0.0000 9999 2920 0 0 0
2019/10/03 06:07:00 BASE 7.73 241 11.47 235 -8.9 97 -9.3 0 0 976.4 NA 0.0000 9999 3220 0 0 0
2019/10/03 06:08:01 BASE 8.10 244 11.47 235 -8.9 97 -9.3 0 0 976.3 NA 0.0000 9999 3120 0 0 0
2019/10/03 06:09:00 BASE 9.22 244 11.47 235 -8.9 97 -9.4 0 0 976.3 NA 0.0000 9999 3250 0 0 0
2019/10/03 06:10:00 BASE 9.94 242 11.47 235 -9.0 96 -9.4 0 0 976.3 NA 0.0000 9999 3080 0 0 0
2019/10/03 06:11:00 BASE 9.73 240 11.47 235 -9.0 96 -9.5 0 0 976.4 NA 0.0000 9999 2990 0 0 0
2019/10/03 06:12:00 BASE 9.13 239 11.47 235 -9.0 96 -9.5 0 0 976.4 NA 0.0000 9999 2990 0 0 0
2019/10/03 06:13:00 BASE 9.34 238 11.21 242 -9.0 96 -9.5 0 0 976.4 NA 0.0000 9999 3120 0 0 0
2019/10/03 06:14:00 BASE 10.08 242 11.83 248 -9.0 96 -9.5 0 0 976.3 NA 0.0000 9999 3150 0 0 0
2019/10/03 06:15:00 BASE 11.15 245 12.91 242 -9.0 96 -9.6 0 0 976.3 NA 0.0000 9999 3120 0 0 0
2019/10/03 06:16:00 BASE 11.01 241 12.91 242 -9.1 96 -9.6 0 0 976.3 NA 0.0000 9999 3280 0 0 0
2019/10/03 06:17:00 BASE 9.83 240 12.91 242 -9.1 96 -9.7 0 0 976.3 NA 0.0000 9999 3220 0 0 0
2019/10/03 06:18:00 BASE 9.82 241 12.91 242 -9.1 95 -9.7 0 0 976.3 NA 0.0000 9999 3050 0 0 0
2019/10/03 06:19:00 BASE 9.85 243 12.91 242 -9.1 95 -9.7 0 0 976.2 NA 0.0000 9999 3120 0 0 0
2019/10/03 06:20:00 BASE 9.70 241 12.91 242 -9.1 95 -9.8 0 0 976.2 NA 0.0000 9999 2990 0 0 0
2019/10/03 06:21:00 BASE 9.32 239 12.91 242 -9.1 95 -9.8 0 0 976.2 NA 0.0000 9999 3120 0 0 0
2019/10/03 06:22:00 BASE 8.65 240 12.91 242 -9.1 95 -9.8 0 0 976.2 NA 0.0000 9999 2990 0 0 0
2019/10/03 06:23:00 BASE 8.86 241 12.91 242 -9.1 95 -9.7 0 0 976.2 NA 0.0000 9999 2850 0 0 0
2019/10/03 06:24:00 BASE 9.11 239 12.91 242 -9.1 95 -9.7 0 0 976.2 NA 0.0000 9999 2690 0 0 0
2019/10/03 06:25:00 BASE 9.17 238 11.73 241 -9.1 95 -9.7 0 0 976.2 NA 0.0000 9999 2890 0 0 0
2019/10/03 06:26:00 BASE 9.96 237 11.73 241 -9.0 95 -9.7 0 0 976.2 NA 0.0000 9999 2950 0 0 0
2019/10/03 06:27:00 BASE 9.41 237 11.73 241 -9.0 95 -9.7 0 0 976.2 NA 0.0000 9999 2920 0 0 0
2019/10/03 06:28:00 BASE 9.02 236 11.68 239 -9.0 95 -9.7 0 0 976.2 NA 0.0000 9999 3050 0 0 0
2019/10/03 06:29:00 BASE 9.65 232 11.68 239 -9.0 95 -9.6 0 0 976.2 NA 0.0000 9999 3050 0 0 0
2019/10/03 06:30:01 BASE 8.94 230 11.68 239 -9.0 95 -9.6 0 0 976.2 NA 0.0000 9999 3020 0 0 0
2019/10/03 06:31:01 BASE 7.89 230 11.68 239 -9.0 95 -9.6 0 0 976.2 NA 0.0000 9999 2850 0 0 0
2019/10/03 06:32:01 BASE 7.32 232 11.68 239 -9.0 95 -9.7 0 0 976.2 NA 0.0000 9999 2890 0 0 0
2019/10/03 06:33:01 BASE 7.99 231 11.68 239 -9.0 95 -9.7 0 0 976.2 NA 0.0000 9999 2890 0 0 0
2019/10/03 06:34:01 BASE 8.79 232 11.68 239 -9.0 95 -9.7 0 0 976.2 NA 0.0000 9999 2950 0 0 0
2019/10/03 06:35:01 BASE 8.80 232 11.68 239 -9.0 95 -9.7 0 0 976.2 NA 0.0000 9999 2920 0 0 0
2019/10/03 06:36:01 BASE 9.56 229 11.32 232 -9.0 95 -9.7 0 0 976.2 NA 0.0000 9999 2690 0 0 0
2019/10/03 06:37:01 BASE 9.63 229 11.32 232 -9.0 95 -9.6 0 0 976.3 NA 0.0000 9999 2620 0 0 0
2019/10/03 06:38:01 BASE 8.16 233 11.32 232 -9.0 95 -9.6 0 0 976.3 NA 0.0000 9999 1970 2850 0 0
2019/10/03 06:39:01 BASE 8.54 239 11.42 237 -9.0 95 -9.6 0 0 976.3 NA 0.0000 9999 490 0 0 0
2019/10/03 06:40:00 BASE 10.39 239 12.14 236 -9.0 95 -9.6 0 0 976.2 NA 0.0000 9999 1640 2760 0 0
2019/10/03 06:41:00 BASE 10.90 238 12.35 235 -8.9 95 -9.6 0 0 976.2 NA 0.0000 9999 1840 2590 0 0
2019/10/03 06:42:01 BASE 10.39 238 12.35 235 -8.9 95 -9.6 0 0 976.2 NA 0.0000 9999 2490 0 0 0
2019/10/03 06:43:00 BASE 9.66 237 12.35 235 -8.9 95 -9.6 0 0 976.2 NA 0.0000 9999 2230 0 0 0
2019/10/03 06:44:00 BASE 9.53 236 12.35 235 -8.9 95 -9.6 0 0 976.2 NA 0.0000 9999 2000 0 0 0
2019/10/03 06:45:00 BASE 9.96 235 12.35 235 -8.9 95 -9.6 0 0 976.2 NA 0.0000 9999 2000 0 0 0
2019/10/03 06:46:00 BASE 9.91 234 12.35 235 -8.9 94 -9.6 0 0 976.2 NA 0.0000 9999 2000 0 0 0
2019/10/03 06:47:00 BASE 9.67 235 12.35 235 -8.9 94 -9.7 0 0 976.2 NA 0.0000 9999 1510 0 0 0
2019/10/03 06:48:00 BASE 9.23 236 12.35 235 -8.9 94 -9.7 0 0 976.2 NA 0.0000 9999 1770 2590 0 0
2019/10/03 06:49:00 BASE 9.01 239 12.35 235 -8.9 94 -9.7 0 0 976.2 NA 0.0000 9999 1610 2530 0 0
2019/10/03 06:50:00 BASE 8.65 245 12.35 235 -8.9 94 -9.7 0 0 976.3 NA 0.0000 9999 1540 0 0 0
2019/10/03 06:51:00 BASE 9.18 254 11.94 234 -8.9 94 -9.7 0 0 976.3 NA 0.0000 9999 1480 2950 0 0
2019/10/03 06:52:00 BASE 10.23 257 11.94 234 -8.9 94 -9.7 0 0 976.3 NA 0.0000 9999 1480 0 0 0
2019/10/03 06:53:00 BASE 10.55 256 12.60 254 -8.9 94 -9.7 0 0 976.3 NA 0.0000 9999 1080 1510 0 0
2019/10/03 06:54:00 BASE 10.67 254 12.60 254 -8.9 94 -9.7 0 0 976.3 NA 0.0000 9999 1350 0 0 0
2019/10/03 06:55:00 BASE 10.36 250 12.60 254 -8.9 94 -9.7 0 0 976.3 NA 0.0000 9999 1180 0 0 0
2019/10/03 06:56:01 BASE 10.79 250 12.60 254 -8.9 94 -9.7 0 0 976.3 NA 0.0000 9999 1440 0 0 0
2019/10/03 06:57:01 BASE 11.20 244 12.60 254 -8.9 94 -9.7 0 0 976.3 NA 0.0000 9999 1410 2430 0 0
2019/10/03 06:58:00 BASE 10.36 242 12.60 254 -9.0 95 -9.7 0 0 976.3 NA 0.0000 9999 1440 0 0 0
2019/10/03 06:59:00 BASE 10.38 245 13.58 247 -9.0 95 -9.6 0 0 976.3 NA 0.0000 9999 1380 0 0 0
2019/10/03 07:00:00 BASE 10.28 249 13.58 247 -9.0 95 -9.6 0 0 976.3 NA 0.0000 9999 1710 0 0 0
2019/10/03 07:01:00 BASE 10.07 252 13.58 247 -9.0 96 -9.6 0 0 976.3 NA 0.0000 9999 1510 0 0 0
2019/10/03 07:02:00 BASE 10.07 253 13.58 247 -9.0 96 -9.5 0 0 976.3 NA 0.0000 9999 1310 1870 0 0
2019/10/03 07:03:00 BASE 9.22 253 13.58 247 -9.0 96 -9.5 0 0 976.3 NA 0.0000 9999 1410 0 0 0
2019/10/03 07:04:00 BASE 9.74 251 13.58 247 -9.0 97 -9.5 0 0 976.2 NA 0.0000 9999 1440 0 0 0
2019/10/03 07:05:00 BASE 9.74 251 13.58 247 -9.1 97 -9.5 0 0 976.3 NA 0.0000 9999 1180 0 0 0
2019/10/03 07:06:00 BASE 9.60 253 13.58 247 -9.1 97 -9.5 0 0 976.3 NA 0.0000 9999 1120 0 0 0
2019/10/03 07:07:00 BASE 10.28 255 13.58 247 -9.1 97 -9.4 0 0 976.2 NA 0.0000 9999 1120 0 0 0
2019/10/03 07:08:00 BASE 11.38 255 13.58 247 -9.1 97 -9.4 0 0 976.2 NA 0.0000 9999 1180 2230 0 0
2019/10/03 07:09:00 BASE 11.85 252 13.43 248 -9.0 98 -9.4 0 0 976.2 NA 0.0000 9999 1180 2100 0 0
2019/10/03 07:10:00 BASE 11.26 250 13.43 248 -9.0 98 -9.3 0 0 976.3 NA 0.0000 9999 1740 0 0 0
2019/10/03 07:11:00 BASE 11.27 253 13.43 248 -9.0 98 -9.3 0 0 976.3 NA 0.0000 9999 1250 2170 0 0
2019/10/03 07:12:00 BASE 11.87 253 14.04 249 -9.0 98 -9.3 0 0 976.3 NA 0.0000 9999 1440 0 0 0
2019/10/03 07:13:00 BASE 11.79 254 14.04 249 -9.1 98 -9.3 0 0 976.2 NA 0.0000 9999 1280 0 0 0
2019/10/03 07:14:00 BASE 11.59 255 14.04 249 -9.1 98 -9.3 0 0 976.2 NA 0.0000 9999 1970 0 0 0
2019/10/03 07:15:00 BASE 13.11 252 15.54 248 -9.1 98 -9.3 0 0 976.2 NA 0.0000 9999 1180 2130 0 0
2019/10/03 07:16:00 BASE 12.49 253 15.54 248 -9.1 99 -9.3 0 0 976.2 NA 0.0000 9999 2200 0 0 0
2019/10/03 07:17:00 BASE 11.52 254 15.54 248 -9.1 99 -9.3 0 0 976.2 NA 0.0000 9999 2230 0 0 0
2019/10/03 07:18:00 BASE 12.21 254 15.54 248 -9.1 99 -9.2 0 0 976.2 NA 0.0000 9999 1940 0 0 0
2019/10/03 07:19:00 BASE 11.70 252 15.54 248 -9.1 99 -9.2 0 0 976.2 NA 0.0000 9999 1840 0 0 0
2019/10/03 07:20:00 BASE 10.78 251 15.54 248 -9.1 99 -9.2 0 0 976.2 NA 0.0000 9999 1970 0 0 0
2019/10/03 07:21:00 BASE 10.93 252 15.54 248 -9.1 99 -9.2 0 0 976.2 NA 0.0000 9999 1570 2070 0 0
2019/10/03 07:22:00 BASE 11.65 253 15.54 248 -9.1 99 -9.2 0 0 976.2 NA 0.0000 9999 1840 0 0 0
2019/10/03 07:23:00 BASE 10.78 251 15.54 248 -9.1 99 -9.2 0 0 976.2 NA 0.0000 9999 1940 0 0 0
2019/10/03 07:24:00 BASE 9.03 248 15.54 248 -9.1 99 -9.2 0 0 976.2 NA 0.0000 9999 1380 2000 0 0
2019/10/03 07:25:00 BASE 9.71 249 14.66 247 -9.1 99 -9.2 0 0 976.2 NA 0.0000 9999 1410 2070 0 0
2019/10/03 07:26:00 BASE 10.39 250 14.66 247 -9.1 99 -9.2 0 0 976.2 NA 0.0000 9999 1940 0 0 0
2019/10/03 07:27:00 BASE 9.05 253 14.66 247 -9.1 99 -9.2 0 0 976.2 NA 0.0000 9999 1410 0 0 0
2019/10/03 07:28:00 BASE 8.49 259 13.48 254 -9.1 99 -9.2 0 0 976.2 NA 0.0000 9999 1970 0 0 0
2019/10/03 07:29:00 BASE 9.08 257 13.48 254 -9.1 99 -9.2 0 0 976.1 NA 0.0000 9999 2130 0 0 0
2019/10/03 07:30:00 BASE 10.06 253 13.48 254 -9.1 99 -9.2 0 0 976.1 NA 0.0000 9999 2230 0 0 0
2019/10/03 07:31:00 BASE 11.20 250 13.84 249 -9.1 99 -9.2 0 0 976.0 NA 0.0000 9999 2330 0 0 0
2019/10/03 07:32:00 BASE 10.59 247 13.84 249 -9.1 99 -9.2 0 0 976.0 NA 0.0000 9999 1710 0 0 0
2019/10/03 07:33:00 BASE 8.63 252 13.84 249 -9.1 99 -9.2 0 0 976.0 NA 0.0000 9999 2230 0 0 0
2019/10/03 07:34:00 BASE 8.77 254 13.84 249 -9.1 99 -9.2 0 0 976.0 NA 0.0000 9999 2330 0 0 0
2019/10/03 07:35:00 BASE 10.08 253 13.84 249 -9.1 99 -9.2 0 0 976.0 NA 0.0000 9999 1380 2330 0 0
2019/10/03 07:36:00 BASE 9.75 252 13.84 249 -9.1 99 -9.2 0 0 976.0 NA 0.0000 9999 2260 0 0 0
2019/10/03 07:37:00 BASE 8.54 251 13.84 249 -9.1 99 -9.2 0 0 976.0 NA 0.0000 9999 2330 0 0 0
2019/10/03 07:38:00 BASE 9.51 247 13.84 249 -9.1 99 -9.3 0 0 976.0 NA 0.0000 9999 2260 0 0 0
2019/10/03 07:39:00 BASE 11.12 247 13.84 249 -9.1 98 -9.3 0 0 975.9 NA 0.0000 9999 2300 0 0 0
2019/10/03 07:40:00 BASE 10.88 247 13.84 249 -9.1 98 -9.3 0 0 975.9 NA 0.0000 9999 2130 0 0 0
2019/10/03 07:41:00 BASE 9.31 244 12.71 254 -9.1 98 -9.4 0 0 976.0 NA 0.0000 9999 1940 0 0 0
2019/10/03 07:42:00 BASE 8.47 242 12.71 254 -9.1 98 -9.4 0 0 975.9 NA 0.0000 9999 1940 0 0 0
2019/10/03 07:43:00 BASE 9.40 243 12.71 254 -9.1 98 -9.4 0 0 975.9 NA 0.0000 9999 1970 0 0 0
2019/10/03 07:44:00 BASE 9.97 243 12.71 254 -9.1 98 -9.4 0 0 975.9 NA 0.0000 9999 1970 0 0 0
2019/10/03 07:45:00 BASE 10.40 242 12.71 254 -9.1 98 -9.4 0 0 975.9 NA 0.0000 9999 1940 0 0 0
2019/10/03 07:46:00 BASE 11.28 243 12.81 244 -9.1 97 -9.4 0 0 975.9 NA 0.0000 9999 1840 0 0 0
2019/10/03 07:47:00 BASE 12.42 245 14.10 244 -9.1 97 -9.4 0 0 975.9 NA 0.0000 9999 1970 0 0 0
2019/10/03 07:48:00 BASE 13.26 242 14.71 248 -9.1 97 -9.5 0 0 975.9 NA 0.0000 9999 1280 0 0 0
2019/10/03 07:49:01 BASE 13.04 240 14.71 248 -9.1 97 -9.5 0 0 975.9 NA 0.0000 9999 1710 0 0 0
2019/10/03 07:50:01 BASE 11.63 240 14.71 248 -9.1 97 -9.5 0 0 975.9 NA 0.0000 9999 390 0 0 0
2019/10/03 07:51:01 BASE 10.93 239 14.71 248 -9.1 97 -9.5 0 0 975.9 NA 0.0000 -SN 9999 1640 0 0 0
2019/10/03 07:52:01 BASE 11.72 232 14.71 248 -9.0 97 -9.5 0 0 975.9 NA 0.0000 -SN 9999 390 2130 0 0
2019/10/03 07:53:01 BASE 11.81 230 14.71 248 -9.0 96 -9.5 0 0 975.9 NA 0.0000 -SN 9999 430 0 0 0
2019/10/03 07:54:01 BASE 11.00 232 14.71 248 -9.0 96 -9.5 0 0 975.9 NA 0.0000 -SN 9999 430 2230 0 0
2019/10/03 07:55:01 BASE 11.10 236 14.71 248 -9.0 96 -9.5 0 0 975.9 NA 0.0000 -SN 9999 1120 2330 0 0
2019/10/03 07:56:01 BASE 10.58 240 14.71 248 -9.0 96 -9.5 0 0 975.9 NA 0.0000 -SN 7000 300 1350 0 0
2019/10/03 07:57:01 BASE 10.41 239 14.71 248 -9.0 96 -9.5 0 0 975.9 NA 0.0000 -SN 9000 390 0 0 0
2019/10/03 07:58:01 BASE 10.62 237 14.61 244 -9.0 96 -9.5 0 0 975.9 NA 0.0000 -SN 7000 360 0 0 0
2019/10/03 07:59:01 BASE 9.21 234 13.74 231 -9.0 96 -9.5 0 0 975.9 NA 0.0000 -SN BR 4600 0 0 0 2430
2019/10/03 08:00:01 BASE 8.35 232 13.74 231 -9.0 96 -9.5 0 0 975.9 NA 0.0000 -SN BR 6000 430 0 0 0
2019/10/03 08:01:01 BASE 10.13 233 13.74 231 -9.0 96 -9.5 0 0 975.9 NA 0.0000 -SN BR 9000 1280 0 0 0
2019/10/03 08:02:00 BASE 12.06 232 13.74 231 -9.0 96 -9.5 0 0 975.9 NA 0.0000 -SN BR 9999 1840 0 0 0
2019/10/03 08:03:01 BASE 12.15 229 13.32 237 -9.0 96 -9.5 0 0 975.8 NA 0.0000 -SN BR 9999 1350 1900 0 0
2019/10/03 08:04:00 BASE 12.29 228 13.89 233 -9.0 96 -9.5 0 0 975.8 NA 0.0000 -SN BR 9999 1380 0 0 0
2019/10/03 08:05:00 BASE 11.34 228 13.89 233 -9.0 96 -9.5 0 0 975.9 NA 0.0000 -SN BR 9999 2000 0 0 0
2019/10/03 08:06:00 BASE 10.75 227 13.89 233 -9.0 96 -9.5 0 0 975.9 NA 0.0000 -SN BR 9999 2070 0 0 0
2019/10/03 08:07:00 BASE 11.08 226 13.89 233 -9.0 96 -9.6 0 0 975.9 NA 0.0000 -SN BR 9999 1900 0 0 0
2019/10/03 08:08:00 BASE 11.83 230 13.99 234 -9.0 95 -9.6 0 0 975.9 NA 0.0000 -SN 9999 2300 0 0 0
2019/10/03 08:09:00 BASE 11.81 235 13.99 234 -9.0 95 -9.6 0 0 975.9 NA 0.0000 -SN 9999 2230 0 0 0
2019/10/03 08:10:00 BASE 10.51 234 13.99 234 -8.9 95 -9.6 0 0 975.9 NA 0.0000 -SN 9999 1440 0 0 0
2019/10/03 08:11:00 BASE 10.41 234 13.99 234 -8.9 95 -9.6 0 0 975.9 NA 0.0000 -SN 9999 1610 0 0 0
2019/10/03 08:12:00 BASE 11.08 235 13.99 234 -8.9 95 -9.6 0 0 975.9 NA 0.0000 -SN 9999 1900 0 0 0
2019/10/03 08:13:00 BASE 10.79 236 13.99 234 -8.9 94 -9.7 0 0 975.9 NA 0.0000 -SN 9999 2100 0 0 0
2019/10/03 08:14:00 BASE 10.60 236 13.99 234 -8.9 94 -9.7 0 0 975.9 NA 0.0000 -SN 9999 1740 2230 0 0
2019/10/03 08:15:00 BASE 11.03 236 13.99 234 -8.9 94 -9.7 0 0 975.9 NA 0.0000 -SN 9999 1710 0 0 0
2019/10/03 08:16:00 BASE 10.23 237 13.99 234 -8.9 94 -9.7 0 0 975.9 NA 0.0000 -SN 9999 2100 0 0 0
2019/10/03 08:17:00 BASE 9.52 240 13.99 234 -8.9 94 -9.7 0 0 975.9 NA 0.0000 -SN 9999 2230 0 0 0
2019/10/03 08:18:00 BASE 9.95 239 12.81 235 -8.9 94 -9.7 0 0 975.9 NA 0.0000 -SN 9999 2260 0 0 0
2019/10/03 08:19:00 BASE 10.61 235 12.81 235 -8.9 94 -9.7 0 0 975.9 NA 0.0000 -SN 9999 1800 0 0 0
2019/10/03 08:20:00 BASE 10.92 236 13.27 238 -8.9 94 -9.7 0 0 975.9 NA 0.0000 -SN 9999 2560 0 0 0
2019/10/03 08:21:00 BASE 11.32 237 13.27 238 -8.9 93 -9.8 0 0 975.9 NA 0.0000 -SN 9999 2690 0 0 0
2019/10/03 08:22:00 BASE 11.13 238 13.27 238 -8.9 93 -9.8 0 0 975.9 NA 0.0000 -SN 9999 1770 2590 0 0
2019/10/03 08:23:00 BASE 10.99 239 13.27 238 -9.0 93 -9.9 0 0 975.9 NA 0.0000 -SN 9999 2430 0 0 0
2019/10/03 08:24:00 BASE 11.17 237 13.27 238 -9.0 93 -9.9 0 0 975.8 NA 0.0000 -SN 9999 2230 0 0 0
2019/10/03 08:25:00 BASE 10.66 236 13.27 238 -9.0 93 -10.0 0 0 975.8 NA 0.0000 9999 2230 0 0 0
2019/10/03 08:26:00 BASE 11.02 236 13.27 238 -9.0 92 -10.0 0 0 975.8 NA 0.0000 9999 2230 0 0 0
2019/10/03 08:27:00 BASE 10.99 236 13.27 238 -9.0 92 -10.0 0 0 975.8 NA 0.0000 9999 2100 0 0 0
2019/10/03 08:28:00 BASE 10.50 234 13.27 238 -9.0 92 -10.1 0 0 975.8 NA 0.0000 9999 1970 0 0 0
2019/10/03 08:29:00 BASE 10.52 231 13.27 238 -9.0 92 -10.1 0 0 975.8 NA 0.0000 9999 1970 0 0 0
2019/10/03 08:30:00 BASE 10.82 232 13.17 233 -9.0 92 -10.1 0 0 975.8 NA 0.0000 9999 1970 0 0 0
2019/10/03 08:31:00 BASE 10.88 233 13.17 233 -9.0 92 -10.1 0 0 975.8 NA 0.0000 9999 2100 0 0 0
2019/10/03 08:32:00 BASE 9.69 232 13.17 233 -9.0 92 -10.1 0 0 975.8 NA 0.0000 9999 2200 0 0 0
2019/10/03 08:33:01 BASE 8.58 233 13.17 233 -9.0 92 -10.1 0 0 975.8 NA 0.0000 9999 2070 0 0 0
2019/10/03 08:34:00 BASE 8.39 229 13.17 233 -9.0 92 -10.1 0 0 975.8 NA 0.0000 9999 2260 0 0 0
2019/10/03 08:35:00 BASE 8.43 226 13.17 233 -9.0 92 -10.1 0 0 975.8 NA 0.0000 9999 2100 0 0 0
2019/10/03 08:36:00 BASE 8.13 227 13.17 233 -9.0 92 -10.1 0 0 975.8 NA 0.0000 9999 2130 0 0 0
2019/10/03 08:37:00 BASE 8.47 225 13.17 233 -9.0 92 -10.0 0 0 975.8 NA 0.0000 9999 1840 0 0 0
2019/10/03 08:38:01 BASE 7.87 227 13.17 233 -8.9 92 -10.0 0 0 975.8 NA 0.0000 9999 1280 0 0 0
2019/10/03 08:39:00 BASE 6.94 229 13.17 233 -8.9 92 -10.0 0 0 975.8 NA 0.0000 9999 1940 0 0 0
2019/10/03 08:40:00 BASE 8.62 227 11.47 237 -8.9 92 -10.0 0 0 975.8 NA 0.0000 9999 1770 0 0 0
2019/10/03 08:41:00 BASE 9.78 227 11.21 227 -8.9 92 -10.0 0 0 975.8 NA 0.0000 9999 1770 0 0 0
2019/10/03 08:42:00 BASE 9.57 229 11.21 227 -8.9 92 -10.0 0 0 975.8 NA 0.0000 9999 1940 0 0 0
2019/10/03 08:43:00 BASE 10.13 231 11.57 229 -8.9 92 -10.0 0 0 975.8 NA 0.0000 9999 1940 0 0 0
2019/10/03 08:44:00 BASE 10.20 234 11.57 229 -8.9 92 -10.1 0 0 975.8 NA 0.0000 9999 1900 0 0 0
2019/10/03 08:45:00 BASE 9.23 235 11.57 229 -8.9 91 -10.1 0 0 975.8 NA 0.0000 9999 1900 0 0 0
2019/10/03 08:46:00 BASE 9.12 233 11.57 229 -8.9 91 -10.1 0 0 975.8 NA 0.0000 9999 1900 0 0 0
2019/10/03 08:47:00 BASE 9.76 231 11.57 229 -8.9 91 -10.1 0 0 975.8 NA 0.0000 9999 2260 0 0 0
2019/10/03 08:48:00 BASE 9.47 233 11.57 229 -8.9 91 -10.2 0 0 975.8 NA 0.0000 9999 2530 0 0 0
2019/10/03 08:49:00 BASE 8.94 232 11.57 229 -8.9 90 -10.2 0 0 975.8 NA 0.0000 9999 2170 0 0 0
2019/10/03 08:50:00 BASE 9.45 226 11.57 229 -8.9 90 -10.2 0 0 975.8 NA 0.0000 9999 2300 0 0 0
2019/10/03 08:51:00 BASE 9.52 225 11.57 229 -8.9 90 -10.2 0 0 975.8 NA 0.0000 9999 1800 0 0 0
2019/10/03 08:52:00 BASE 9.10 227 11.57 229 -8.9 91 -10.2 0 0 975.8 NA 0.0000 9999 1740 0 0 0
2019/10/03 08:53:00 BASE 9.37 227 13.22 222 -8.9 91 -10.1 0 0 975.8 NA 0.0000 9999 1840 0 0 0
2019/10/03 08:54:00 BASE 10.26 225 13.22 222 -8.9 91 -10.1 0 0 975.8 NA 0.0000 9999 1710 0 0 0
2019/10/03 08:55:00 BASE 10.14 227 13.22 222 -8.9 91 -10.1 0 0 975.8 NA 0.0000 9999 690 1740 0 0
2019/10/03 08:56:00 BASE 9.61 226 13.22 222 -8.9 91 -10.1 0 0 975.8 NA 0.0000 9999 980 1970 0 0
2019/10/03 08:57:00 BASE 11.02 226 13.32 228 -8.9 91 -10.1 0 0 975.8 NA 0.0000 -SN 9999 1570 0 0 0
2019/10/03 08:58:00 BASE 12.02 231 13.32 228 -8.9 91 -10.1 0 0 975.8 NA 0.0000 -SN 9999 1740 0 0 0
2019/10/03 08:59:00 BASE 10.94 236 13.32 228 -8.9 91 -10.1 0 0 975.8 NA 0.0000 -SN 9999 1570 0 0 0
2019/10/03 09:00:00 BASE 10.55 234 13.32 228 -9.0 91 -10.2 0 0 975.8 NA 0.0000 -SN 9999 620 0 0 0
2019/10/03 09:01:00 BASE 9.90 232 13.32 228 -9.0 91 -10.2 0 0 975.8 NA 0.0000 -SN 9000 300 0 0 0
2019/10/03 09:02:00 BASE 9.40 234 13.32 228 -9.0 91 -10.2 0 0 975.8 NA 0.0000 -SN 9999 360 0 0 0
2019/10/03 09:03:00 BASE 10.17 233 13.32 228 -9.0 91 -10.1 0 0 975.8 NA 0.0000 -SN 9999 690 0 0 0
2019/10/03 09:04:00 BASE 10.65 234 13.32 228 -9.0 91 -10.1 0 0 975.8 NA 0.0000 -SN 9999 300 1610 0 0
2019/10/03 09:05:00 BASE 11.16 233 13.32 228 -9.0 92 -10.1 0 0 975.7 NA 0.0000 -SN 5000 0 0 0 2790
2019/10/03 09:06:00 BASE 10.59 233 13.32 228 -9.0 92 -10.1 0 0 975.7 NA 0.0000 -SN BR 3300 0 0 0 2070
2019/10/03 09:07:00 BASE 9.87 234 13.02 238 -9.0 92 -10.1 0 0 975.8 NA 0.0000 -SN BR 2100 0 0 0 2400
2019/10/03 09:08:00 BASE 10.36 230 12.76 231 -9.0 92 -10.0 0 0 975.7 NA 0.0000 -SN BR 1800 0 0 0 1740
2019/10/03 09:09:00 BASE 11.48 229 12.76 231 -9.0 92 -10.0 0 0 975.7 NA 0.0000 -SN BR 1600 0 0 0 2030
2019/10/03 09:10:01 BASE 12.01 230 12.86 230 -9.0 93 -10.0 0 0 975.7 NA 0.0000 -SN BR 2100 0 0 0 2690
2019/10/03 09:11:00 BASE 11.35 230 12.86 230 -9.0 93 -9.9 0 0 975.7 NA 0.0000 -SN BR 2500 0 0 0 2400
2019/10/03 09:12:00 BASE 10.46 230 12.86 230 -9.0 94 -9.9 1 0 975.7 NA 0.0000 -SN BR 2000 260 0 0 0
2019/10/03 09:13:00 BASE 10.04 230 12.86 230 -9.1 94 -9.8 1 0 975.8 NA 0.0000 -SN BR 1700 0 0 0 2230
2019/10/03 09:14:00 BASE 8.91 232 12.86 230 -9.1 95 -9.8 1 0 975.8 NA 0.0000 -SN BR 2000 300 2100 0 0
2019/10/03 09:15:00 BASE 7.61 235 12.86 230 -9.1 95 -9.7 1 0 975.8 NA 0.0000 -SN BR 2600 360 1570 0 0
2019/10/03 09:16:00 BASE 8.09 237 12.86 230 -9.1 96 -9.7 1 0 975.8 NA 0.0000 -SN BR 5000 1770 0 0 0
2019/10/03 09:17:00 BASE 9.53 238 12.86 230 -9.1 96 -9.6 1 0 975.8 NA 0.0000 -SN BR 9999 2300 0 0 0
2019/10/03 09:18:00 BASE 10.08 234 12.86 230 -9.1 96 -9.6 2 0 975.7 NA 0.0000 -SN BR 9999 690 0 0 0
2019/10/03 09:19:00 BASE 9.09 233 12.86 230 -9.2 97 -9.6 2 0 975.7 NA 0.0000 -SN BR 9999 1740 0 0 0
2019/10/03 09:20:00 BASE 8.06 234 12.14 227 -9.2 97 -9.5 2 0 975.7 NA 0.0000 -SN BR 9999 1740 2590 0 0
2019/10/03 09:21:00 BASE 7.96 232 11.78 244 -9.2 98 -9.5 2 0 975.6 NA 0.0000 -SN BR 9999 2690 0 0 0
2019/10/03 09:22:00 BASE 8.44 232 11.78 244 -9.2 98 -9.5 2 0 975.6 NA 0.0000 -SN BR 9999 2430 0 0 0
2019/10/03 09:23:00 BASE 8.27 234 11.78 244 -9.2 98 -9.5 3 0 975.6 NA 0.0000 -SN BR 9999 2490 0 0 0
2019/10/03 09:24:00 BASE 7.58 236 11.78 244 -9.3 98 -9.5 3 0 975.6 NA 0.0000 -SN BR 9999 2460 0 0 0
2019/10/03 09:25:00 BASE 6.91 236 11.78 244 -9.3 98 -9.5 3 0 975.6 NA 0.0000 -SN 9999 2360 0 0 0
2019/10/03 09:26:00 BASE 7.10 233 11.78 244 -9.3 98 -9.5 3 0 975.6 NA 0.0000 -SN 9999 2360 0 0 0
2019/10/03 09:27:00 BASE 7.04 233 11.06 245 -9.2 98 -9.5 3 0 975.6 NA 0.0000 -SN 9999 2260 0 0 0
2019/10/03 09:28:00 BASE 7.41 233 9.36 218 -9.2 98 -9.5 3 0 975.6 NA 0.0000 9999 2000 0 0 0
2019/10/03 09:29:00 BASE 8.81 231 10.34 238 -9.2 98 -9.5 3 0 975.6 NA 0.0000 9999 2170 0 0 0
2019/10/03 09:30:00 BASE 9.88 226 12.14 230 -9.2 98 -9.5 4 0 975.6 NA 0.0000 9999 2170 0 0 0
2019/10/03 09:31:00 BASE 11.06 223 12.60 226 -9.2 98 -9.5 4 0 975.6 NA 0.0000 9999 2260 0 0 0
2019/10/03 09:32:00 BASE 12.16 226 13.48 231 -9.2 98 -9.5 4 0 975.6 NA 0.0000 9999 1940 0 0 0
2019/10/03 09:33:00 BASE 11.90 227 13.48 225 -9.2 97 -9.5 4 0 975.6 NA 0.0000 9999 1970 0 0 0
2019/10/03 09:34:00 BASE 9.64 225 13.48 225 -9.2 97 -9.6 5 0 975.6 NA 0.0000 9999 1800 0 0 0
2019/10/03 09:35:00 BASE 8.93 223 13.48 225 -9.2 96 -9.7 5 0 975.6 NA 0.0000 9999 2000 0 0 0
2019/10/03 09:36:00 BASE 9.19 225 13.48 225 -9.2 96 -9.7 5 0 975.6 NA 0.0000 9999 1870 0 0 0
2019/10/03 09:37:00 BASE 8.47 230 13.48 225 -9.2 95 -9.8 5 0 975.6 NA 0.0000 9999 1800 0 0 0
2019/10/03 09:38:00 BASE 8.46 240 13.48 225 -9.1 94 -9.9 6 0 975.6 NA 0.0000 9999 1540 0 0 0
2019/10/03 09:39:00 BASE 9.72 241 13.48 225 -9.1 93 -10.0 6 0 975.6 NA 0.0000 8000 1440 0 0 0
2019/10/03 09:40:00 BASE 9.85 234 13.48 225 -9.1 93 -10.1 7 0 975.6 NA 0.0000 -SN 4900 330 1540 0 0
2019/10/03 09:41:00 BASE 8.56 233 13.48 225 -9.2 92 -10.2 8 0 975.6 NA 0.0000 -SN 6000 690 0 0 0
2019/10/03 09:42:00 BASE 8.10 232 13.48 225 -9.2 92 -10.2 8 0 975.6 NA 0.0000 -SN 9999 1280 1870 0 0
2019/10/03 09:43:00 BASE 8.09 229 11.83 241 -9.2 92 -10.3 8 0 975.6 NA 0.0000 -SN 9999 1870 0 0 0
2019/10/03 09:44:00 BASE 7.85 228 11.83 241 -9.2 92 -10.3 9 0 975.6 NA 0.0000 -SN 9999 1310 1900 0 0
2019/10/03 09:45:00 BASE 7.92 229 11.83 241 -9.2 92 -10.3 11 0 975.6 NA 0.0000 -SN 9999 1740 0 0 0
2019/10/03 09:46:00 BASE 7.87 230 11.83 241 -9.2 92 -10.3 12 0 975.6 NA 0.0000 -SN 9999 790 0 0 0
2019/10/03 09:47:00 BASE 7.54 229 11.83 241 -9.2 92 -10.3 12 0 975.6 NA 0.0000 -SN 9999 660 1940 0 0
2019/10/03 09:48:00 BASE 7.20 231 11.83 241 -9.2 92 -10.3 13 0 975.6 NA 0.0000 -SN 9999 1210 0 0 0
2019/10/03 09:49:00 BASE 6.00 233 10.24 236 -9.2 92 -10.3 15 0 975.6 NA 0.0000 -SN 9999 1020 0 0 0
2019/10/03 09:50:00 BASE 5.37 232 9.31 231 -9.2 92 -10.3 16 0 975.6 NA 0.0000 -SN 9999 1740 0 0 0
2019/10/03 09:51:00 BASE 5.66 236 9.31 231 -9.2 92 -10.3 17 0 975.5 NA 0.0000 -SN 9999 1740 0 0 0
2019/10/03 09:52:00 BASE 6.33 241 9.31 231 -9.2 92 -10.3 17 0 975.4 NA 0.0000 -SN 9999 1870 0 0 0
2019/10/03 09:53:00 BASE 7.01 241 9.31 231 -9.2 92 -10.4 18 0 975.4 NA 0.0000 -SN 9999 1670 0 0 0
2019/10/03 09:54:00 BASE 7.35 238 9.31 231 -9.3 92 -10.4 18 0 975.4 NA 0.0000 -SN 9999 390 1440 0 0
2019/10/03 09:55:00 BASE 7.59 239 8.54 239 -9.3 92 -10.4 18 0 975.4 NA 0.0000 -SN 8000 390 0 0 0
2019/10/03 09:56:00 BASE 7.21 240 8.54 239 -9.3 92 -10.4 18 0 975.4 NA 0.0000 -SN 5000 690 1610 0 0
2019/10/03 09:57:00 BASE 6.54 238 8.54 239 -9.3 92 -10.4 20 0 975.4 NA 0.0000 -SN 5000 950 1640 0 0
2019/10/03 09:58:00 BASE 6.11 238 8.54 239 -9.3 92 -10.4 22 0 975.4 NA 0.0000 -SN BR 4100 1740 0 0 0
2019/10/03 09:59:00 BASE 6.12 242 8.54 239 -9.3 92 -10.4 24 0 975.4 NA 0.0000 -SN BR 9999 1740 0 0 0
2019/10/03 10:00:00 BASE 7.03 245 8.54 239 -9.3 92 -10.4 26 0 975.4 NA 0.0000 -SN BR 9999 1900 0 0 0
2019/10/03 10:01:00 BASE 7.70 246 9.21 248 -9.3 92 -10.4 24 0 975.4 NA 0.0000 -SN BR 9999 1870 0 0 0
2019/10/03 10:02:00 BASE 7.72 243 9.21 248 -9.3 92 -10.4 21 0 975.4 NA 0.0000 -SN BR 9999 1870 0 0 0
2019/10/03 10:03:00 BASE 7.96 241 9.41 244 -9.3 92 -10.4 19 0 975.4 NA 0.0000 -SN BR 9999 1740 0 0 0
2019/10/03 10:04:00 BASE 8.32 241 9.41 247 -9.3 92 -10.4 18 0 975.4 NA 0.0000 -SN BR 9999 1800 0 0 0
2019/10/03 10:05:00 BASE 8.49 240 9.41 247 -9.3 92 -10.4 17 0 975.4 NA 0.0000 -SN BR 9999 1840 0 0 0
2019/10/03 10:06:00 BASE 7.90 237 9.41 247 -9.3 92 -10.4 16 0 975.4 NA 0.0000 -SN 9999 1900 0 0 0
2019/10/03 10:07:00 BASE 6.90 236 9.41 247 -9.4 91 -10.5 16 0 975.4 NA 0.0000 9999 1900 0 0 0
2019/10/03 10:08:00 BASE 6.74 240 9.41 247 -9.4 91 -10.6 15 0 975.4 NA 0.0000 9999 0 0 0 0
2019/10/03 10:09:00 BASE 7.07 244 9.41 247 -9.5 91 -10.7 15 0 975.4 NA 0.0000 9999 0 0 0 0
2019/10/03 10:10:00 BASE 7.32 241 9.41 247 -9.5 90 -10.8 16 0 975.4 NA 0.0000 9999 0 0 0 0
2019/10/03 10:11:00 BASE 7.03 238 9.41 247 -9.6 90 -10.9 16 0 975.4 NA 0.0000 9999 0 0 0 0
2019/10/03 10:12:00 BASE 5.97 241 9.41 247 -9.6 90 -11.0 16 0 975.4 NA 0.0000 9999 0 0 0 0
2019/10/03 10:13:00 BASE 5.55 243 9.41 247 -9.7 90 -11.0 16 0 975.3 NA 0.0000 9999 0 0 0 0
2019/10/03 10:14:00 BASE 5.01 245 8.90 238 -9.7 90 -11.1 16 0 975.3 NA 0.0000 9999 0 0 0 0
2019/10/03 10:15:00 BASE 4.53 247 8.69 239 -9.8 89 -11.2 16 0 975.3 NA 0.0000 9999 0 0 0 0
2019/10/03 10:16:00 BASE 4.60 248 8.69 239 -9.8 89 -11.3 16 0 975.3 NA 0.0000 9999 0 0 0 0
2019/10/03 10:17:00 BASE 4.16 249 8.69 239 -9.9 89 -11.4 16 0 975.3 NA 0.0000 9999 0 0 0 0
2019/10/03 10:18:00 BASE 4.34 248 8.69 239 -10.0 89 -11.5 17 0 975.3 NA 0.0000 9999 0 0 0 0
2019/10/03 10:19:00 BASE 5.06 248 8.69 239 -10.0 88 -11.6 17 0 975.3 NA 0.0000 9999 0 0 0 0
2019/10/03 10:20:00 BASE 5.08 258 8.18 235 -10.0 88 -11.6 18 0 975.3 NA 0.0000 9999 0 0 0 0
2019/10/03 10:21:00 BASE 4.85 271 6.48 242 -10.0 88 -11.6 18 0 975.3 NA 0.0000 9999 0 0 0 0
2019/10/03 10:22:00 BASE 4.71 275 6.38 238 -10.0 88 -11.6 19 0 975.3 NA 0.0000 9999 0 0 0 0
2019/10/03 10:23:00 BASE 4.71 273 5.71 280 -10.0 88 -11.6 20 0 975.3 NA 0.0000 9999 0 0 0 0
2019/10/03 10:24:00 BASE 4.68 272 5.71 280 -9.9 88 -11.6 22 0 975.3 NA 0.0000 9999 0 0 0 0
2019/10/03 10:25:00 BASE 4.61 268 5.71 280 -9.9 88 -11.5 24 0 975.3 NA 0.0000 9999 2070 0 0 0
2019/10/03 10:26:00 BASE 4.52 269 5.71 280 -10.0 88 -11.6 28 0 975.3 NA 0.0000 9999 0 0 0 0
2019/10/03 10:27:00 BASE 4.88 270 6.12 268 -10.0 88 -11.6 34 0 975.3 NA 0.0000 9999 0 0 0 0
2019/10/03 10:28:00 BASE 5.32 273 6.17 289 -10.1 88 -11.7 41 0 975.3 NA 0.0000 9999 0 0 0 0
2019/10/03 10:29:00 BASE 5.21 278 6.17 289 -10.1 88 -11.8 48 0 975.3 NA 0.0000 9999 0 0 0 0
2019/10/03 10:30:00 BASE 5.01 278 6.48 270 -10.1 88 -11.8 55 0 975.3 NA 0.0000 9999 1840 0 0 0
2019/10/03 10:31:00 BASE 5.04 278 6.48 279 -10.2 88 -11.8 54 0 975.3 NA 0.0000 9999 1800 0 0 0
2019/10/03 10:32:00 BASE 4.80 278 6.48 279 -10.2 88 -11.8 44 0 975.3 NA 0.0000 9999 1770 0 0 0
2019/10/03 10:33:00 BASE 4.41 279 6.48 279 -10.3 88 -11.9 43 0 975.3 NA 0.0000 9999 1870 0 0 0
2019/10/03 10:34:00 BASE 4.08 277 6.48 279 -10.4 88 -12.0 48 0 975.3 NA 0.0000 9999 1800 0 0 0
2019/10/03 10:35:00 BASE 3.64 275 6.48 279 -10.6 88 -12.2 44 0 975.3 NA 0.0000 9999 1640 0 0 0
2019/10/03 10:36:00 BASE 3.65 277 6.48 279 -10.7 88 -12.2 37 0 975.2 NA 0.0000 9999 0 0 0 0
2019/10/03 10:37:00 BASE 3.53 276 6.48 279 -10.8 88 -12.3 32 0 975.2 NA 0.0000 9999 0 0 0 0
2019/10/03 10:38:00 BASE 3.74 275 6.48 279 -10.8 89 -12.3 30 0 975.2 NA 0.0000 9999 0 0 0 0
2019/10/03 10:39:00 BASE 4.23 273 6.48 279 -10.8 89 -12.2 28 0 975.2 NA 0.0000 9999 0 0 0 0
2019/10/03 10:40:00 BASE 4.11 273 6.48 279 -10.8 89 -12.2 27 0 975.2 NA 0.0000 9999 0 0 0 0
2019/10/03 10:41:00 BASE 3.89 277 6.38 270 -10.7 90 -12.1 27 0 975.2 NA 0.0000 9999 0 0 0 0
2019/10/03 10:42:00 BASE 3.69 280 6.38 270 -10.7 90 -12.1 29 0 975.2 NA 0.0000 9999 0 0 0 0
2019/10/03 10:43:00 BASE 3.81 282 6.38 270 -10.7 90 -12.0 29 0 975.1 NA 0.0000 9999 0 0 0 0
2019/10/03 10:44:00 BASE 3.56 288 6.38 270 -10.8 90 -12.0 29 0 975.1 NA 0.0000 9999 0 0 0 0
2019/10/03 10:45:00 BASE 3.37 294 6.38 270 -10.8 91 -12.1 29 0 975.1 NA 0.0000 9999 0 0 0 0
2019/10/03 10:46:00 BASE 3.52 297 6.38 270 -10.9 91 -12.1 69 0 975.1 NA 0.0000 9999 0 0 0 0
2019/10/03 10:47:00 BASE 3.29 302 6.38 270 -10.9 91 -12.1 112 0 975.1 NA 0.0000 9999 0 0 0 0
2019/10/03 10:48:00 BASE 3.05 301 5.66 257 -11.0 91 -12.2 105 0 975.2 NA 0.0000 9999 0 0 0 0
2019/10/03 10:49:00 BASE 2.34 309 5.66 257 -11.1 91 -12.2 129 0 975.2 NA 0.0000 9999 0 0 0 0
2019/10/03 10:50:00 BASE 1.54 341 5.66 257 -11.1 91 -12.2 131 0 975.2 NA 0.0000 9999 0 0 0 0
2019/10/03 10:51:00 BASE 0.82 32 4.94 274 -11.2 92 -12.2 131 0 975.3 NA 0.0000 9999 0 0 0 0
2019/10/03 10:52:00 BASE 0.76 60 4.84 287 -11.1 92 -12.1 137 0 975.2 NA 0.0000 9999 0 0 0 0
2019/10/03 10:53:00 BASE 0.82 32 4.63 282 -11.1 93 -12.0 137 0 975.3 NA 0.0000 9999 0 0 0 0
2019/10/03 10:54:00 BASE 0.25 341 4.63 282 -11.0 93 -11.9 140 0 975.2 NA 0.0000 9999 0 0 0 0
2019/10/03 10:55:00 BASE 0.45 28 4.58 268 -10.9 93 -11.8 144 0 975.2 NA 0.0000 9999 0 0 0 0
2019/10/03 10:56:00 BASE 0.57 48 3.76 308 -10.9 93 -11.8 87 0 975.2 NA 0.0000 9999 0 0 0 0
2019/10/03 10:57:00 BASE 0.17 59 3.76 308 -10.9 93 -11.8 62 0 975.2 NA 0.0000 9999 0 0 0 0
2019/10/03 10:58:00 BASE 0.10 94 2.47 297 -11.0 94 -11.8 38 0 975.2 NA 0.0000 9999 0 0 0 0
2019/10/03 10:59:00 BASE 0.28 114 2.31 40 -11.1 94 -11.9 37 0 975.2 NA 0.0000 9999 0 0 0 0
2019/10/03 11:00:00 BASE 1.24 97 2.62 65 -11.2 94 -12.0 34 0 975.2 NA 0.0000 9999 0 0 0 0
2019/10/03 11:01:00 BASE 1.28 61 2.62 65 -11.2 94 -12.0 33 0 975.2 NA 0.0000 9999 0 0 0 0
2019/10/03 11:02:00 BASE 1.18 62 2.88 56 -11.2 94 -12.0 37 0 975.2 NA 0.0000 9999 0 0 0 0
2019/10/03 11:03:00 BASE 2.11 72 3.09 68 -11.2 94 -11.9 154 0 975.2 NA 0.0000 9999 0 0 0 0
2019/10/03 11:04:00 BASE 2.60 69 3.19 46 -11.1 95 -11.8 157 0 975.2 NA 0.0000 9999 0 0 0 0
2019/10/03 11:05:00 BASE 2.80 55 3.19 46 -11.0 95 -11.7 163 0 975.2 NA 0.0000 9999 0 0 0 0
2019/10/03 11:06:00 BASE 2.98 47 3.55 53 -10.9 95 -11.6 166 0 975.1 NA 0.0000 9999 0 0 0 0
2019/10/03 11:07:00 BASE 3.22 42 3.70 30 -10.9 95 -11.6 165 0 975.1 NA 0.0000 9999 0 0 0 0
2019/10/03 11:08:00 BASE 3.35 34 4.12 37 -10.9 95 -11.6 166 0 975.1 NA 0.0000 9999 0 0 0 0
2019/10/03 11:09:00 BASE 3.94 33 4.99 35 -11.0 95 -11.6 170 0 975.1 NA 0.0000 9999 0 0 0 0
2019/10/03 11:10:00 BASE 4.33 25 4.99 35 -11.0 95 -11.6 138 0 975.1 NA 0.0000 9999 0 0 0 0
2019/10/03 11:11:00 BASE 3.95 13 4.99 35 -11.0 95 -11.7 74 0 975.1 NA 0.0000 9999 0 0 0 0
2019/10/03 11:12:00 BASE 2.78 14 4.99 35 -11.0 95 -11.7 170 0 975.2 NA 0.0000 9999 1900 0 0 0
2019/10/03 11:13:00 BASE 1.68 28 4.99 35 -10.9 95 -11.5 176 0 975.1 NA 0.0000 9999 0 0 0 0
2019/10/03 11:14:00 BASE 2.34 23 4.99 346 -10.8 95 -11.4 186 0 975.1 NA 0.0000 9999 1840 0 0 0
2019/10/03 11:15:00 BASE 3.50 358 5.30 349 -10.8 95 -11.4 183 0 975.1 NA 0.0000 9999 0 0 0 0
2019/10/03 11:16:00 BASE 3.15 356 5.30 349 -10.7 95 -11.3 159 0 975.1 NA 0.0000 9999 0 0 0 0
2019/10/03 11:17:00 BASE 2.71 1 5.30 349 -10.6 95 -11.3 183 0 975.1 NA 0.0000 9999 0 0 0 0
2019/10/03 11:18:00 BASE 2.83 339 5.30 349 -10.7 95 -11.3 186 0 975.2 NA 0.0000 9999 0 0 0 0
2019/10/03 11:19:00 BASE 2.95 331 5.30 349 -10.7 95 -11.3 179 0 975.1 NA 0.0000 9999 0 0 0 0
2019/10/03 11:20:00 BASE 3.61 336 5.30 349 -10.7 95 -11.3 175 0 975.1 NA 0.0000 9999 0 0 0 0
2019/10/03 11:21:00 BASE 3.29 337 5.30 349 -10.7 95 -11.2 116 0 975.1 NA 0.0000 9999 0 0 0 0
2019/10/03 11:22:00 BASE 3.08 323 5.30 349 -10.7 96 -11.2 81 0 975.1 NA 0.0000 9999 5350 0 0 0
2019/10/03 11:23:00 BASE 3.11 306 5.30 349 -10.6 96 -11.2 186 0 975.1 NA 0.0000 9999 5280 0 0 0
2019/10/03 11:24:00 BASE 3.17 294 5.30 349 -10.6 96 -11.1 191 0 975.1 NA 0.0000 9999 0 0 0 0
2019/10/03 11:25:00 BASE 3.47 281 5.66 256 -10.6 96 -11.1 96 0 975.1 NA 0.0000 9999 0 0 0 0
2019/10/03 11:26:00 BASE 3.77 280 5.97 248 -10.5 96 -11.0 70 0 975.1 NA 0.0000 9999 0 0 0 0
2019/10/03 11:27:00 BASE 4.04 291 5.97 248 -10.5 96 -10.9 135 0 975.1 NA 0.0000 9999 0 0 0 0
2019/10/03 11:28:00 BASE 3.45 302 5.97 248 -10.4 96 -10.9 86 0 975.1 NA 0.0000 9999 0 0 0 0
2019/10/03 11:29:00 BASE 2.79 302 5.97 248 -10.5 96 -10.9 185 0 975.1 NA 0.0000 9999 0 0 0 0
2019/10/03 11:30:00 BASE 2.90 306 5.97 248 -10.5 97 -10.9 218 0 975.1 NA 0.0000 9999 0 0 0 0
2019/10/03 11:31:00 BASE 3.23 302 5.97 248 -10.5 97 -10.9 230 0 975.1 NA 0.0000 9999 0 0 0 0
2019/10/03 11:32:00 BASE 3.51 290 5.97 248 -10.5 97 -10.9 193 0 975.1 NA 0.0000 9999 5150 0 0 0
2019/10/03 11:33:00 BASE 3.34 296 5.97 248 -10.5 97 -10.9 183 0 975.1 NA 0.0000 9999 5120 0 0 0
2019/10/03 11:34:00 BASE 2.77 287 5.97 248 -10.4 97 -10.8 275 0 975.0 NA 0.0000 9999 5120 0 0 0
2019/10/03 11:35:00 BASE 2.48 286 5.97 248 -10.4 97 -10.7 308 0 975.1 NA 0.0000 9999 5090 0 0 0
2019/10/03 11:36:00 BASE 1.57 305 5.20 286 -10.3 97 -10.7 256 0 975.0 NA 0.0000 9999 5120 0 0 0
2019/10/03 11:37:00 BASE 1.14 351 5.20 286 -10.3 97 -10.7 214 0 974.9 NA 0.0000 9999 5050 0 0 0
2019/10/03 11:38:00 BASE 1.46 30 5.20 286 -10.3 97 -10.8 213 0 974.9 NA 0.0000 9999 5090 0 0 0
2019/10/03 11:39:00 BASE 1.82 42 5.20 286 -10.4 97 -10.8 250 0 974.9 NA 0.0000 9999 5050 0 0 0
2019/10/03 11:40:00 BASE 2.29 50 5.20 286 -10.4 97 -10.9 199 0 974.9 NA 0.0000 9999 4990 0 0 0
2019/10/03 11:41:00 BASE 2.45 54 5.20 286 -10.5 97 -10.9 189 0 974.9 NA 0.0000 9999 4890 0 0 0
2019/10/03 11:42:00 BASE 2.25 53 3.45 258 -10.5 97 -10.9 192 0 974.9 NA 0.0000 9999 4920 0 0 0
2019/10/03 11:43:00 BASE 2.44 52 3.45 258 -10.5 97 -10.8 249 0 974.9 NA 0.0000 9999 4950 0 0 0
2019/10/03 11:44:00 BASE 2.73 58 3.24 278 -10.4 97 -10.8 293 0 974.9 NA 0.0000 9999 4950 22770 0 0
2019/10/03 11:45:00 BASE 2.98 62 3.29 49 -10.4 97 -10.8 199 0 974.8 NA 0.0000 9999 4920 0 0 0
2019/10/03 11:46:00 BASE 3.02 61 3.29 64 -10.3 97 -10.7 192 0 974.8 NA 0.0000 9999 4890 0 0 0
2019/10/03 11:47:00 BASE 3.02 62 3.81 77 -10.3 97 -10.7 245 0 974.8 NA 0.0000 9999 4790 0 0 0
2019/10/03 11:48:00 BASE 3.44 67 3.96 75 -10.3 97 -10.6 178 0 974.8 NA 0.0000 9999 4820 0 0 0
2019/10/03 11:49:00 BASE 3.44 74 3.96 75 -10.2 97 -10.6 184 0 974.8 NA 0.0000 9999 4950 0 0 0
2019/10/03 11:50:01 BASE 3.48 66 4.32 72 -10.2 97 -10.6 175 0 974.8 NA 0.0000 9999 4990 0 0 0
2019/10/03 11:51:01 BASE 3.50 59 4.32 72 -10.2 97 -10.6 176 0 974.8 NA 0.0000 9999 5020 0 0 0
2019/10/03 11:52:01 BASE 3.52 58 5.09 53 -10.2 97 -10.6 220 0 974.8 NA 0.0000 9999 4950 0 0 0
2019/10/03 11:53:01 BASE 3.99 57 5.09 53 -10.2 97 -10.5 312 0 974.8 NA 0.0000 9999 4950 0 0 0
2019/10/03 11:54:01 BASE 4.09 62 5.09 53 -10.1 97 -10.5 322 0 974.7 NA 0.0000 9999 5020 0 0 0
2019/10/03 11:55:01 BASE 3.91 68 5.09 53 -10.1 97 -10.5 288 0 974.8 NA 0.0000 9999 5020 0 0 0
2019/10/03 11:56:01 BASE 3.70 72 5.09 53 -10.0 97 -10.4 288 0 974.8 NA 0.0000 9999 5050 0 0 0
2019/10/03 11:57:01 BASE 3.83 76 5.09 53 -10.0 97 -10.4 280 0 974.7 NA 0.0000 9999 5020 0 0 0
2019/10/03 11:58:01 BASE 4.04 71 5.09 53 -10.0 97 -10.4 275 0 974.7 NA 0.0000 9999 0 0 0 0
2019/10/03 11:59:01 BASE 3.72 64 5.09 53 -10.0 97 -10.4 273 0 974.7 NA 0.0000 9999 0 0 0 0
2019/10/03 12:00:01 BASE 3.51 70 5.09 53 -10.0 97 -10.3 271 0 974.7 NA 0.0000 9999 0 0 0 0
2019/10/03 12:01:01 BASE 3.43 75 5.09 53 -9.9 97 -10.3 272 0 974.7 NA 0.0000 9999 0 0 0 0
2019/10/03 12:02:01 BASE 3.15 64 4.99 48 -9.9 97 -10.3 271 0 974.7 NA 0.0000 9999 0 0 0 0
2019/10/03 12:03:01 BASE 2.60 58 4.84 64 -9.8 97 -10.3 271 0 974.7 NA 0.0000 9999 0 0 0 0
2019/10/03 12:04:01 BASE 2.42 64 4.58 63 -9.8 96 -10.2 273 0 974.7 NA 0.0000 9999 0 0 0 0
2019/10/03 12:05:01 BASE 2.73 67 4.58 63 -9.7 96 -10.3 274 0 974.6 NA 0.0000 9999 0 0 0 0
2019/10/03 12:06:01 BASE 2.47 91 4.58 63 -9.7 96 -10.3 275 0 974.6 NA 0.0000 9999 0 0 0 0
2019/10/03 12:07:01 BASE 1.45 90 4.58 63 -9.7 95 -10.3 276 0 974.6 NA 0.0000 9999 0 0 0 0
2019/10/03 12:08:01 BASE 1.79 67 4.22 86 -9.7 95 -10.3 279 0 974.5 NA 0.0000 9999 0 0 0 0
2019/10/03 12:09:01 BASE 2.53 72 4.22 86 -9.7 95 -10.4 281 0 974.5 NA 0.0000 9999 0 0 0 0
2019/10/03 12:10:01 BASE 2.24 82 4.01 89 -9.6 94 -10.4 281 0 974.5 NA 0.0000 9999 0 0 0 0
2019/10/03 12:11:01 BASE 2.29 91 3.96 74 -9.6 94 -10.4 287 0 974.5 NA 0.0000 9999 0 0 0 0
2019/10/03 12:12:01 BASE 1.67 112 3.96 74 -9.6 94 -10.5 286 0 974.5 NA 0.0000 9999 0 0 0 0
2019/10/03 12:13:00 BASE 0.51 107 3.96 74 -9.6 93 -10.5 287 0 974.5 NA 0.0000 9999 0 0 0 0
2019/10/03 12:14:01 BASE 0.18 78 3.96 74 -9.6 93 -10.6 291 0 974.5 NA 0.0000 9999 0 0 0 0
2019/10/03 12:15:00 BASE 1.05 84 3.96 74 -9.7 92 -10.7 259 0 974.5 NA 0.0000 9999 0 0 0 0
2019/10/03 12:16:01 BASE 1.80 85 3.34 92 -9.7 92 -10.8 292 0 974.5 NA 0.0000 9999 0 0 0 0
2019/10/03 12:17:00 BASE 1.81 72 3.34 92 -9.7 91 -10.8 297 0 974.4 NA 0.0000 9999 0 0 0 0
2019/10/03 12:18:00 BASE 1.85 85 3.34 92 -9.7 91 -10.9 298 0 974.4 NA 0.0000 9999 0 0 0 0
2019/10/03 12:19:00 BASE 1.40 102 3.34 92 -9.6 91 -10.9 299 0 974.4 NA 0.0000 9999 0 0 0 0
2019/10/03 12:20:00 BASE 0.61 106 2.83 83 -9.6 90 -10.9 301 0 974.4 NA 0.0000 9999 0 0 0 0
2019/10/03 12:21:00 BASE 0.99 106 2.42 125 -9.7 90 -11.0 302 0 974.5 NA 0.0000 9999 0 0 0 0
2019/10/03 12:22:00 BASE 1.15 96 2.42 125 -9.7 90 -11.1 304 0 974.5 NA 0.0000 9999 0 0 0 0
2019/10/03 12:23:00 BASE 0.49 86 2.42 125 -9.7 89 -11.1 306 0 974.4 NA 0.0000 9999 0 0 0 0
2019/10/03 12:24:00 BASE 1.00 84 2.42 125 -9.7 89 -11.1 308 0 974.4 NA 0.0000 9999 0 0 0 0
2019/10/03 12:25:00 BASE 1.95 91 3.19 83 -9.7 89 -11.2 309 0 974.4 NA 0.0000 9999 0 0 0 0
2019/10/03 12:26:00 BASE 2.65 93 3.81 88 -9.7 88 -11.3 311 0 974.5 NA 0.0000 9999 0 0 0 0
2019/10/03 12:27:00 BASE 2.97 90 3.81 88 -9.8 88 -11.4 313 0 974.5 NA 0.0000 9999 0 0 0 0
2019/10/03 12:28:00 BASE 2.91 90 3.81 88 -9.9 88 -11.6 314 0 974.5 NA 0.0000 9999 0 0 0 0
2019/10/03 12:29:00 BASE 3.02 95 3.81 88 -10.0 87 -11.7 318 0 974.6 NA 0.0000 9999 0 0 0 0
2019/10/03 12:30:00 BASE 2.77 95 3.81 88 -10.0 87 -11.8 319 0 974.6 NA 0.0000 9999 0 0 0 0
2019/10/03 12:31:00 BASE 2.77 93 3.81 88 -9.9 87 -11.7 321 0 974.6 NA 0.0000 9999 0 0 0 0
2019/10/03 12:32:00 BASE 3.01 94 3.81 88 -9.9 87 -11.7 322 0 974.6 NA 0.0000 9999 0 0 0 0
2019/10/03 12:33:00 BASE 2.56 92 3.81 88 -9.9 87 -11.6 324 0 974.6 NA 0.0000 9999 0 0 0 0
2019/10/03 12:34:00 BASE 2.30 85 3.81 88 -9.8 87 -11.6 325 0 974.6 NA 0.0000 9999 0 0 0 0
2019/10/03 12:35:00 BASE 2.58 79 3.81 88 -9.8 87 -11.5 329 0 974.5 NA 0.0000 9999 0 0 0 0
2019/10/03 12:36:00 BASE 2.69 73 3.76 95 -9.8 87 -11.5 331 0 974.5 NA 0.0000 9999 0 0 0 0
2019/10/03 12:37:01 BASE 2.72 70 3.76 95 -9.7 87 -11.5 300 0 974.5 NA 0.0000 9999 0 0 0 0
2019/10/03 12:38:01 BASE 2.53 69 3.76 95 -9.7 87 -11.5 335 0 974.5 NA 0.0000 9999 0 0 0 0
2019/10/03 12:39:00 BASE 2.32 63 3.76 95 -9.7 86 -11.5 338 0 974.5 NA 0.0000 9999 0 0 0 0
2019/10/03 12:40:00 BASE 2.50 56 3.76 95 -9.7 86 -11.5 341 0 974.4 NA 0.0000 9999 0 0 0 0
2019/10/03 12:41:00 BASE 2.41 53 3.60 93 -9.6 86 -11.6 344 0 974.3 NA 0.0000 9999 1440 0 0 0
2019/10/03 12:42:00 BASE 2.22 47 3.09 83 -9.6 86 -11.6 341 0 974.3 NA 0.0000 9999 0 0 0 0
2019/10/03 12:43:00 BASE 2.24 46 3.09 83 -9.6 85 -11.6 342 0 974.3 NA 0.0000 9999 0 0 0 0
2019/10/03 12:44:00 BASE 2.20 58 3.09 83 -9.6 85 -11.6 278 0 974.3 NA 0.0000 9999 0 0 0 0
2019/10/03 12:45:00 BASE 1.87 69 3.09 83 -9.6 85 -11.6 233 0 974.3 NA 0.0000 9999 0 0 0 0
2019/10/03 12:46:00 BASE 1.73 66 3.09 83 -9.5 85 -11.6 245 0 974.3 NA 0.0000 9999 0 0 0 0
2019/10/03 12:47:00 BASE 2.02 65 2.98 62 -9.5 85 -11.6 240 0 974.2 NA 0.0000 9999 0 0 0 0
2019/10/03 12:48:00 BASE 1.79 79 2.98 62 -9.4 85 -11.5 156 0 974.2 NA 0.0000 9999 0 0 0 0
2019/10/03 12:49:00 BASE 0.73 81 2.98 62 -9.4 85 -11.4 106 0 974.2 NA 0.0000 9999 0 0 0 0
2019/10/03 12:50:00 BASE 0.04 71 2.98 62 -9.4 86 -11.4 156 0 974.2 NA 0.0000 9999 0 0 0 0
2019/10/03 12:51:00 BASE 0.63 68 2.98 62 -9.4 86 -11.3 150 0 974.2 NA 0.0000 9999 0 0 0 0
2019/10/03 12:52:00 BASE 1.48 64 2.98 62 -9.4 86 -11.3 158 0 974.2 NA 0.0000 9999 0 0 0 0
2019/10/03 12:53:00 BASE 1.53 58 2.98 62 -9.5 86 -11.4 165 0 974.2 NA 0.0000 9999 0 0 0 0
2019/10/03 12:54:00 BASE 1.23 50 2.98 62 -9.5 86 -11.4 177 0 974.1 NA 0.0000 9999 0 0 0 0
2019/10/03 12:55:00 BASE 1.74 49 2.98 62 -9.6 86 -11.5 159 0 974.1 NA 0.0000 9999 0 0 0 0
2019/10/03 12:56:00 BASE 2.75 53 3.34 65 -9.6 86 -11.5 376 0 974.0 NA 0.0000 9999 0 0 0 0
2019/10/03 12:57:00 BASE 2.50 59 3.34 65 -9.6 86 -11.5 369 0 974.0 NA 0.0000 9999 0 0 0 0
2019/10/03 12:58:00 BASE 2.21 58 3.34 65 -9.5 86 -11.4 368 0 974.0 NA 0.0000 9999 0 0 0 0
2019/10/03 12:59:00 BASE 2.78 54 3.55 53 -9.5 86 -11.4 370 0 974.0 NA 0.0000 9999 0 0 0 0
2019/10/03 13:00:00 BASE 3.26 49 3.81 42 -9.4 86 -11.3 371 0 973.9 NA 0.0000 9999 0 0 0 0
2019/10/03 13:01:00 BASE 3.37 45 3.81 42 -9.4 86 -11.3 373 0 973.9 NA 0.0000 9999 0 0 0 0
2019/10/03 13:02:00 BASE 3.17 37 3.81 42 -9.4 86 -11.4 375 0 973.9 NA 0.0000 9999 0 0 0 0
2019/10/03 13:03:00 BASE 3.22 32 3.81 42 -9.5 85 -11.4 376 0 973.9 NA 0.0000 9999 0 0 0 0
2019/10/03 13:04:00 BASE 2.90 34 3.81 42 -9.5 85 -11.5 378 0 973.9 NA 0.0000 9999 0 0 0 0
2019/10/03 13:05:00 BASE 2.19 39 3.81 42 -9.5 85 -11.6 379 0 973.8 NA 0.0000 9999 4430 0 0 0
2019/10/03 13:06:00 BASE 1.98 53 3.81 42 -9.5 85 -11.5 381 0 973.7 NA 0.0000 9999 0 0 0 0
2019/10/03 13:07:00 BASE 2.08 63 3.81 42 -9.5 86 -11.5 383 0 973.7 NA 0.0000 9999 0 0 0 0
2019/10/03 13:08:00 BASE 2.59 72 3.91 73 -9.5 86 -11.4 383 0 973.7 NA 0.0000 9999 0 0 0 0
2019/10/03 13:09:00 BASE 3.27 79 4.06 88 -9.5 86 -11.4 385 0 973.7 NA 0.0000 9999 0 0 0 0
2019/10/03 13:10:00 BASE 3.44 77 4.06 88 -9.5 86 -11.4 387 0 973.7 NA 0.0000 9999 0 0 0 0
2019/10/03 13:11:00 BASE 3.54 68 4.53 62 -9.4 86 -11.3 388 0 973.7 NA 0.0000 9999 0 0 0 0
2019/10/03 13:12:00 BASE 3.12 59 4.53 62 -9.4 86 -11.3 389 0 973.7 NA 0.0000 9999 0 0 0 0
2019/10/03 13:13:00 BASE 2.65 57 4.53 62 -9.3 86 -11.3 391 0 973.7 NA 0.0000 9999 0 0 0 0
2019/10/03 13:14:00 BASE 2.90 61 4.53 62 -9.3 85 -11.3 392 0 973.7 NA 0.0000 9999 0 0 0 0
2019/10/03 13:15:00 BASE 2.88 56 4.53 62 -9.2 85 -11.3 394 0 973.7 NA 0.0000 9999 0 0 0 0
2019/10/03 13:16:00 BASE 2.13 43 4.53 62 -9.2 85 -11.3 396 0 973.7 NA 0.0000 9999 0 0 0 0
2019/10/03 13:17:00 BASE 0.92 42 4.53 62 -9.2 85 -11.3 397 0 973.7 NA 0.0000 9999 0 0 0 0
2019/10/03 13:18:00 BASE 0.55 34 4.53 62 -9.2 85 -11.3 399 0 973.7 NA 0.0000 9999 0 0 0 0
2019/10/03 13:19:00 BASE 1.04 19 4.53 62 -9.3 85 -11.3 400 0 973.7 NA 0.0000 9999 0 0 0 0
2019/10/03 13:20:00 BASE 1.43 15 4.53 62 -9.3 85 -11.4 400 0 973.7 NA 0.0000 9999 0 0 0 0
2019/10/03 13:21:00 BASE 1.40 18 3.55 66 -9.3 85 -11.4 402 0 973.7 NA 0.0000 9999 0 0 0 0
2019/10/03 13:22:00 BASE 0.65 21 3.55 66 -9.3 85 -11.4 404 0 973.7 NA 0.0000 9999 0 0 0 0
2019/10/03 13:23:00 BASE 0.04 25 3.55 66 -9.3 85 -11.4 406 0 973.7 NA 0.0000 9999 0 0 0 0
2019/10/03 13:24:00 BASE 0.00 30 2.98 47 -9.3 85 -11.3 408 0 973.7 NA 0.0000 9999 0 0 0 0
2019/10/03 13:25:00 BASE 0.00 24 1.85 44 -9.2 85 -11.3 409 0 973.7 NA 0.0000 9999 0 0 0 0
2019/10/03 13:26:00 BASE 0.00 8 1.65 16 -9.2 85 -11.3 410 0 973.7 NA 0.0000 9999 0 0 0 0
2019/10/03 13:27:00 BASE 0.00 345 1.65 16 -9.2 84 -11.3 411 0 973.7 NA 0.0000 9999 0 0 0 0
2019/10/03 13:28:00 BASE 0.00 334 1.65 16 -9.2 84 -11.3 412 0 973.7 NA 0.0000 9999 0 0 0 0
2019/10/03 13:29:00 BASE 0.00 354 1.65 16 -9.2 84 -11.4 414 0 973.7 NA 0.0000 9999 0 0 0 0
2019/10/03 13:30:00 BASE 0.00 25 1.54 18 -9.1 84 -11.4 416 0 973.7 NA 0.0000 9999 0 0 0 0
2019/10/03 13:31:00 BASE 0.05 31 1.08 25 -9.1 84 -11.3 418 0 973.7 NA 0.0000 9999 0 0 0 0
2019/10/03 13:32:00 BASE 0.05 24 1.08 25 -9.2 84 -11.4 420 0 973.7 NA 0.0000 9999 0 0 0 0
2019/10/03 13:33:00 BASE 0.31 24 1.49 40 -9.2 84 -11.5 421 0 973.7 NA 0.0000 9999 0 0 0 0
2019/10/03 13:34:00 BASE 1.17 37 1.85 42 -9.3 84 -11.5 423 0 973.6 NA 0.0000 9999 0 0 0 0
2019/10/03 13:35:00 BASE 1.84 47 2.11 58 -9.3 84 -11.6 424 0 973.6 NA 0.0000 9999 0 0 0 0
2019/10/03 13:36:00 BASE 1.97 54 2.31 61 -9.3 84 -11.6 425 0 973.7 NA 0.0000 9999 0 0 0 0
2019/10/03 13:37:00 BASE 2.17 53 2.88 45 -9.3 84 -11.5 426 0 973.7 NA 0.0000 9999 0 0 0 0
2019/10/03 13:38:00 BASE 2.44 37 2.98 40 -9.2 84 -11.4 427 0 973.7 NA 0.0000 9999 0 0 0 0
2019/10/03 13:39:00 BASE 2.24 8 2.98 40 -9.2 84 -11.5 427 0 973.7 NA 0.0000 9999 0 0 0 0
2019/10/03 13:40:00 BASE 1.90 356 2.98 40 -9.3 84 -11.6 430 0 973.7 NA 0.0000 9999 0 0 0 0
2019/10/03 13:41:00 BASE 1.59 6 2.98 40 -9.5 84 -11.7 432 0 973.7 NA 0.0000 9999 0 0 0 0
2019/10/03 13:42:00 BASE 1.36 13 2.98 40 -9.6 84 -11.9 434 0 973.7 NA 0.0000 9999 0 0 0 0
2019/10/03 13:43:00 BASE 1.49 18 2.98 40 -9.7 84 -11.9 437 0 973.7 NA 0.0000 9999 0 0 0 0
2019/10/03 13:44:00 BASE 1.63 25 2.98 40 -9.7 84 -11.9 440 0 973.7 NA 0.0000 9999 0 0 0 0
2019/10/03 13:45:00 BASE 1.74 29 2.98 40 -9.7 85 -11.8 444 0 973.7 NA 0.0000 9999 0 0 0 0
2019/10/03 13:46:00 BASE 1.83 33 2.98 40 -9.7 85 -11.7 446 0 973.7 NA 0.0000 9999 0 0 0 0
2019/10/03 13:47:00 BASE 1.74 33 2.98 40 -9.7 86 -11.6 373 0 973.7 NA 0.0000 9999 0 0 0 0
2019/10/03 13:48:00 BASE 1.93 35 2.52 43 -9.6 86 -11.6 440 0 973.7 NA 0.0000 9999 0 0 0 0
2019/10/03 13:49:00 BASE 2.21 39 2.52 43 -9.6 86 -11.5 442 0 973.6 NA 0.0000 9999 0 0 0 0
2019/10/03 13:50:00 BASE 2.37 36 2.68 35 -9.6 86 -11.5 444 0 973.6 NA 0.0000 9999 0 0 0 0
2019/10/03 13:51:00 BASE 2.44 32 2.68 35 -9.5 86 -11.4 445 0 973.5 NA 0.0000 9999 0 0 0 0
2019/10/03 13:52:00 BASE 2.20 24 2.68 35 -9.4 86 -11.3 446 0 973.6 NA 0.0000 9999 0 0 0 0
2019/10/03 13:53:00 BASE 1.85 16 2.68 35 -9.4 86 -11.2 447 0 973.6 NA 0.0000 9999 0 0 0 0
2019/10/03 13:54:00 BASE 1.52 8 2.68 35 -9.3 86 -11.2 449 0 973.6 NA 0.0000 9999 0 0 0 0
2019/10/03 13:55:00 BASE 1.39 2 2.68 35 -9.3 86 -11.2 450 0 973.5 NA 0.0000 9999 0 0 0 0
2019/10/03 13:56:00 BASE 1.43 357 2.68 35 -9.3 86 -11.2 452 0 973.5 NA 0.0000 9999 0 0 0 0
2019/10/03 13:57:00 BASE 1.11 351 2.68 35 -9.3 86 -11.2 452 0 973.5 NA 0.0000 9999 0 0 0 0
2019/10/03 13:58:00 BASE 0.40 348 2.68 35 -9.3 86 -11.2 453 0 973.5 NA 0.0000 9999 0 0 0 0
2019/10/03 13:59:00 BASE 0.00 349 2.68 35 -9.3 86 -11.2 455 0 973.5 NA 0.0000 9999 0 0 0 0
2019/10/03 14:00:00 BASE 0.00 350 2.62 31 -9.3 86 -11.2 456 0 973.5 NA 0.0000 9999 0 0 0 0
2019/10/03 14:01:00 BASE 0.04 354 2.11 17 -9.3 86 -11.2 457 0 973.5 NA 0.0000 9999 0 0 0 0
2019/10/03 14:02:00 BASE 0.32 360 1.85 14 -9.2 86 -11.1 459 0 973.5 NA 0.0000 9999 0 0 0 0
2019/10/03 14:03:00 BASE 0.95 3 1.59 1 -9.2 86 -11.1 460 0 973.5 NA 0.0000 9999 0 0 0 0
2019/10/03 14:04:00 BASE 1.39 6 1.65 17 -9.2 86 -11.1 462 0 973.5 NA 0.0000 9999 0 0 0 0
2019/10/03 14:05:00 BASE 1.61 16 1.95 26 -9.2 86 -11.1 463 0 973.5 NA 0.0000 9999 0 0 0 0
2019/10/03 14:06:00 BASE 2.00 30 2.31 43 -9.2 86 -11.1 465 0 973.5 NA 0.0000 9999 0 0 0 0
2019/10/03 14:07:00 BASE 2.30 42 2.62 51 -9.1 86 -11.0 465 0 973.6 NA 0.0000 9999 0 0 0 0
2019/10/03 14:08:00 BASE 2.55 49 2.88 53 -9.0 86 -11.0 465 0 973.6 NA 0.0000 9999 0 0 0 0
2019/10/03 14:09:01 BASE 2.89 51 3.40 50 -9.0 86 -10.9 466 0 973.6 NA 0.0000 9999 0 0 0 0
2019/10/03 14:10:01 BASE 3.31 51 3.86 60 -8.9 85 -10.9 467 0 973.6 NA 0.0000 9999 0 0 0 0
2019/10/03 14:11:01 BASE 4.04 56 4.84 65 -8.8 85 -10.9 467 0 973.5 NA 0.0000 9999 0 0 0 0
2019/10/03 14:12:01 BASE 4.41 60 4.84 65 -8.8 85 -10.9 468 0 973.5 NA 0.0000 9999 0 0 0 0
2019/10/03 14:13:01 BASE 4.22 54 4.84 65 -8.8 84 -11.0 469 0 973.5 NA 0.0000 9999 0 0 0 0
2019/10/03 14:14:01 BASE 4.15 51 4.84 65 -8.8 84 -11.0 470 0 973.5 NA 0.0000 9999 0 0 0 0
2019/10/03 14:15:01 BASE 4.12 52 4.84 65 -8.8 84 -11.0 471 0 973.5 NA 0.0000 9999 0 0 0 0
2019/10/03 14:16:01 BASE 4.18 55 4.84 65 -8.7 84 -11.0 472 0 973.5 NA 0.0000 9999 0 0 0 0
2019/10/03 14:17:01 BASE 4.06 53 4.84 65 -8.7 84 -10.9 473 0 973.5 NA 0.0000 9999 0 0 0 0
2019/10/03 14:18:01 BASE 3.71 42 4.84 65 -8.7 84 -10.9 474 0 973.4 NA 0.0000 9999 0 0 0 0
2019/10/03 14:19:01 BASE 3.52 34 4.84 65 -8.7 84 -10.9 475 0 973.4 NA 0.0000 9999 0 0 0 0
2019/10/03 14:20:01 BASE 3.26 32 4.84 65 -8.7 84 -11.0 477 0 973.4 NA 0.0000 9999 0 0 0 0
2019/10/03 14:21:01 BASE 2.76 31 4.68 56 -8.8 84 -11.0 478 0 973.4 NA 0.0000 9999 0 0 0 0
2019/10/03 14:22:01 BASE 2.18 29 4.68 56 -8.8 84 -11.0 479 0 973.4 NA 0.0000 9999 0 0 0 0
2019/10/03 14:23:01 BASE 2.10 25 4.68 56 -8.9 84 -11.1 480 0 973.4 NA 0.0000 9999 0 0 0 0
2019/10/03 14:24:01 BASE 2.27 20 4.68 56 -8.9 84 -11.1 481 0 973.4 NA 0.0000 9999 0 0 0 0
2019/10/03 14:25:01 BASE 2.05 17 4.68 56 -9.0 84 -11.1 482 0 973.4 NA 0.0000 9999 0 0 0 0
2019/10/03 14:26:01 BASE 2.03 18 4.48 49 -9.0 85 -11.1 482 0 973.3 NA 0.0000 9999 0 0 0 0
2019/10/03 14:27:01 BASE 2.28 21 3.86 38 -9.0 85 -11.1 483 0 973.3 NA 0.0000 9999 0 0 0 0
2019/10/03 14:28:01 BASE 2.34 29 3.65 32 -9.0 85 -11.1 485 0 973.3 NA 0.0000 9999 0 0 0 0
2019/10/03 14:29:01 BASE 2.50 31 3.29 32 -9.0 85 -11.1 485 0 973.2 NA 0.0000 9999 0 0 0 0
2019/10/03 14:30:01 BASE 2.76 32 3.14 34 -9.0 85 -11.1 487 0 973.2 NA 0.0000 9999 0 0 0 0
2019/10/03 14:31:01 BASE 2.86 39 3.19 36 -9.0 85 -11.0 488 0 973.3 NA 0.0000 9999 0 0 0 0
2019/10/03 14:32:01 BASE 2.78 41 3.19 36 -8.9 85 -11.0 489 0 973.3 NA 0.0000 9999 0 0 0 0
2019/10/03 14:33:01 BASE 2.54 37 3.19 36 -8.9 85 -10.9 489 0 973.3 NA 0.0000 9999 0 0 0 0
2019/10/03 14:34:01 BASE 2.44 32 3.19 36 -8.8 85 -10.9 490 0 973.3 NA 0.0000 9999 0 0 0 0
2019/10/03 14:35:01 BASE 2.54 30 3.19 36 -8.8 85 -10.9 491 0 973.3 NA 0.0000 9999 0 0 0 0
2019/10/03 14:36:01 BASE 2.76 24 3.19 36 -8.8 85 -10.9 492 0 973.2 NA 0.0000 9999 0 0 0 0
2019/10/03 14:37:00 BASE 2.77 16 3.19 36 -8.8 85 -10.9 493 0 973.2 NA 0.0000 9999 0 0 0 0
2019/10/03 14:38:00 BASE 2.61 11 3.19 36 -8.9 85 -11.0 494 0 973.2 NA 0.0000 9999 0 0 0 0
2019/10/03 14:39:00 BASE 2.37 8 3.19 36 -9.0 85 -11.0 495 0 973.2 NA 0.0000 9999 0 0 0 0
2019/10/03 14:40:00 BASE 1.61 2 3.19 36 -9.1 85 -11.1 496 0 973.2 NA 0.0000 9999 0 0 0 0
2019/10/03 14:41:00 BASE 0.88 355 3.04 13 -9.1 85 -11.1 497 0 973.2 NA 0.0000 9999 0 0 0 0
2019/10/03 14:42:01 BASE 0.41 354 3.04 13 -9.1 86 -11.1 498 0 973.2 NA 0.0000 9999 0 0 0 0
2019/10/03 14:43:00 BASE 0.97 6 3.04 13 -9.1 86 -11.0 499 0 973.2 NA 0.0000 9999 0 0 0 0
2019/10/03 14:44:01 BASE 2.01 15 3.04 13 -9.0 87 -10.8 499 0 973.2 NA 0.0000 9999 0 0 0 0
2019/10/03 14:45:00 BASE 2.20 13 3.04 13 -8.9 87 -10.7 500 0 973.2 NA 0.0000 9999 0 0 0 0
2019/10/03 14:46:01 BASE 2.30 15 3.04 13 -8.8 87 -10.6 501 0 973.2 NA 0.0000 9999 0 0 0 0
2019/10/03 14:47:00 BASE 2.32 16 3.04 13 -8.8 87 -10.5 502 0 973.2 NA 0.0000 9999 0 0 0 0
2019/10/03 14:48:00 BASE 2.41 21 3.04 29 -8.7 87 -10.5 503 0 973.2 NA 0.0000 9999 0 0 0 0
2019/10/03 14:49:00 BASE 2.30 33 3.04 29 -8.7 87 -10.5 503 0 973.2 NA 0.0000 9999 0 0 0 0
2019/10/03 14:50:00 BASE 1.58 50 3.04 29 -8.6 87 -10.4 503 0 973.2 NA 0.0000 9999 0 0 0 0
2019/10/03 14:51:00 BASE 1.19 55 3.04 29 -8.6 87 -10.4 504 0 973.1 NA 0.0000 9999 0 0 0 0
2019/10/03 14:52:00 BASE 1.19 51 3.04 29 -8.5 87 -10.4 506 0 973.0 NA 0.0000 9999 0 0 0 0
2019/10/03 14:53:00 BASE 1.85 49 3.14 41 -8.5 86 -10.3 506 0 973.0 NA 0.0000 9999 0 0 0 0
2019/10/03 14:54:01 BASE 2.96 42 3.50 39 -8.4 86 -10.4 507 0 973.0 NA 0.0000 9999 0 0 0 0
2019/10/03 14:55:00 BASE 3.18 40 3.50 39 -8.4 86 -10.4 508 0 973.0 NA 0.0000 9999 0 0 0 0
2019/10/03 14:56:00 BASE 2.97 39 3.50 39 -8.4 85 -10.5 508 0 973.0 NA 0.0000 9999 0 0 0 0
2019/10/03 14:57:00 BASE 2.90 33 3.50 39 -8.5 85 -10.5 509 0 973.0 NA 0.0000 9999 0 0 0 0
2019/10/03 14:58:00 BASE 2.80 24 3.50 39 -8.5 85 -10.6 509 0 973.0 NA 0.0000 9999 0 0 0 0
2019/10/03 14:59:00 BASE 2.67 11 3.50 39 -8.6 85 -10.7 511 0 973.0 NA 0.0000 9999 0 0 0 0
2019/10/03 15:00:00 BASE 2.62 4 3.50 39 -8.6 84 -10.8 511 0 973.0 NA 0.0000 9999 0 0 0 0
2019/10/03 15:01:00 BASE 2.77 360 3.55 353 -8.7 84 -10.9 512 0 972.9 NA 0.0000 9999 0 0 0 0
2019/10/03 15:02:00 BASE 3.07 3 3.70 9 -8.7 84 -10.9 511 0 972.9 NA 0.0000 9999 0 0 0 0
2019/10/03 15:03:00 BASE 3.07 356 3.70 2 -8.8 84 -10.9 513 0 972.9 NA 0.0000 9999 0 0 0 0
2019/10/03 15:04:00 BASE 1.80 346 3.70 2 -8.7 85 -10.9 514 0 972.9 NA 0.0000 9999 0 0 0 0
2019/10/03 15:05:00 BASE 1.49 353 3.70 2 -8.7 85 -10.8 515 0 972.9 NA 0.0000 9999 0 0 0 0
2019/10/03 15:06:00 BASE 2.55 344 3.70 2 -8.6 85 -10.7 515 0 972.9 NA 0.0000 9999 0 0 0 0
2019/10/03 15:07:00 BASE 2.22 331 3.70 2 -8.6 85 -10.7 516 0 972.9 NA 0.0000 9999 0 0 0 0
2019/10/03 15:08:00 BASE 1.71 343 3.70 2 -8.6 84 -10.7 516 0 972.9 NA 0.0000 9999 0 0 0 0
2019/10/03 15:09:00 BASE 1.94 348 3.70 2 -8.6 84 -10.8 517 0 972.9 NA 0.0000 9999 0 0 0 0
2019/10/03 15:10:00 BASE 2.71 339 3.70 2 -8.6 84 -10.8 518 0 972.9 NA 0.0000 9999 0 0 0 0
2019/10/03 15:11:00 BASE 3.50 335 3.91 336 -8.5 84 -10.7 517 0 972.9 NA 0.0000 9999 0 0 0 0
2019/10/03 15:12:00 BASE 3.48 329 3.91 336 -8.5 84 -10.7 518 0 972.9 NA 0.0000 9999 0 0 0 0
2019/10/03 15:13:00 BASE 3.26 322 3.91 336 -8.4 84 -10.7 519 0 972.9 NA 0.0000 9999 0 0 0 0
2019/10/03 15:14:00 BASE 3.06 316 3.91 336 -8.4 84 -10.6 519 0 972.9 NA 0.0000 9999 0 0 0 0
2019/10/03 15:15:00 BASE 2.55 317 3.91 336 -8.4 84 -10.6 519 0 972.9 NA 0.0000 9999 0 0 0 0
2019/10/03 15:16:00 BASE 2.45 320 3.91 336 -8.4 84 -10.6 519 0 972.9 NA 0.0000 9999 0 0 0 0
2019/10/03 15:17:00 BASE 2.50 320 3.91 336 -8.4 84 -10.6 521 0 972.9 NA 0.0000 9999 0 0 0 0
2019/10/03 15:18:00 BASE 2.02 329 3.91 336 -8.4 84 -10.6 521 0 972.9 NA 0.0000 9999 0 0 0 0
2019/10/03 15:19:00 BASE 2.15 344 3.91 336 -8.4 84 -10.6 522 0 972.9 NA 0.0000 9999 0 0 0 0
2019/10/03 15:20:00 BASE 2.62 347 3.91 336 -8.4 84 -10.7 524 0 972.9 NA 0.0000 9999 0 0 0 0
2019/10/03 15:21:00 BASE 2.65 344 3.65 337 -8.5 84 -10.7 524 0 972.9 NA 0.0000 9999 0 0 0 0
2019/10/03 15:22:00 BASE 2.58 343 3.55 305 -8.5 84 -10.7 524 0 972.9 NA 0.0000 9999 0 0 0 0
2019/10/03 15:23:00 BASE 2.47 342 3.34 305 -8.5 84 -10.7 525 0 972.9 NA 0.0000 9999 0 0 0 0
2019/10/03 15:24:00 BASE 2.12 346 3.19 343 -8.5 84 -10.7 524 0 972.9 NA 0.0000 9999 0 0 0 0
2019/10/03 15:25:00 BASE 1.94 343 3.19 343 -8.5 84 -10.7 525 0 972.9 NA 0.0000 9999 0 0 0 0
2019/10/03 15:26:00 BASE 2.20 346 3.19 343 -8.5 84 -10.7 525 0 972.9 NA 0.0000 9999 0 0 0 0
2019/10/03 15:27:00 BASE 2.75 350 3.60 347 -8.5 84 -10.7 525 0 972.9 NA 0.0000 9999 0 0 0 0
2019/10/03 15:28:00 BASE 3.15 346 3.60 347 -8.5 85 -10.6 525 0 972.9 NA 0.0000 9999 0 0 0 0
2019/10/03 15:29:00 BASE 3.27 348 3.65 354 -8.5 85 -10.6 526 0 972.8 NA 0.0000 9999 0 0 0 0
2019/10/03 15:30:00 BASE 3.52 352 4.01 348 -8.5 85 -10.6 526 0 972.8 NA 0.0000 9999 0 0 0 0
2019/10/03 15:31:00 BASE 3.67 357 4.32 1 -8.5 85 -10.5 526 0 972.8 NA 0.0000 9999 0 0 0 0
2019/10/03 15:32:00 BASE 3.53 356 4.32 1 -8.5 85 -10.5 527 0 972.8 NA 0.0000 9999 0 0 0 0
2019/10/03 15:33:00 BASE 3.39 352 4.32 1 -8.4 85 -10.5 527 0 972.8 NA 0.0000 9999 0 0 0 0
2019/10/03 15:34:00 BASE 3.08 355 4.32 1 -8.4 85 -10.5 527 0 972.8 NA 0.0000 9999 0 0 0 0
2019/10/03 15:35:00 BASE 2.59 1 4.32 1 -8.4 85 -10.5 528 0 972.8 NA 0.0000 9999 0 0 0 0
2019/10/03 15:36:00 BASE 2.52 3 4.32 1 -8.4 85 -10.5 528 0 972.8 NA 0.0000 9999 0 0 0 0
2019/10/03 15:37:00 BASE 2.55 2 4.32 1 -8.4 85 -10.5 529 0 972.8 NA 0.0000 9999 0 0 0 0
2019/10/03 15:38:00 BASE 2.26 5 4.32 1 -8.4 85 -10.5 529 0 972.8 NA 0.0000 9999 0 0 0 0
2019/10/03 15:39:00 BASE 2.26 11 4.32 1 -8.4 85 -10.5 530 0 972.8 NA 0.0000 9999 0 0 0 0
2019/10/03 15:40:00 BASE 2.32 25 4.32 1 -8.4 85 -10.5 530 0 972.8 NA 0.0000 9999 0 0 0 0
2019/10/03 15:41:00 BASE 1.89 42 3.81 347 -8.4 85 -10.5 530 0 972.8 NA 0.0000 9999 0 0 0 0
2019/10/03 15:42:00 BASE 1.92 50 3.65 354 -8.3 85 -10.4 530 0 972.8 NA 0.0000 9999 0 0 0 0
2019/10/03 15:43:00 BASE 2.53 54 3.34 57 -8.3 85 -10.4 530 0 972.8 NA 0.0000 9999 0 0 0 0
2019/10/03 15:44:00 BASE 2.76 65 3.34 57 -8.2 85 -10.3 530 0 972.8 NA 0.0000 9999 0 0 0 0
2019/10/03 15:45:00 BASE 2.21 72 3.34 57 -8.2 85 -10.3 530 0 972.9 NA 0.0000 9999 0 0 0 0
2019/10/03 15:46:00 BASE 1.67 67 3.34 57 -8.2 84 -10.3 531 0 972.9 NA 0.0000 9999 0 0 0 0
2019/10/03 15:47:00 BASE 1.39 63 3.34 57 -8.2 84 -10.4 531 0 972.9 NA 0.0000 9999 0 0 0 0
2019/10/03 15:48:00 BASE 1.70 59 3.34 57 -8.2 84 -10.4 532 0 972.9 NA 0.0000 9999 0 0 0 0
2019/10/03 15:49:00 BASE 2.40 53 3.65 51 -8.1 84 -10.4 532 0 972.9 NA 0.0000 9999 0 0 0 0
2019/10/03 15:50:00 BASE 2.70 53 3.65 51 -8.1 84 -10.3 533 0 972.9 NA 0.0000 9999 0 0 0 0
2019/10/03 15:51:00 BASE 2.69 51 3.65 51 -8.0 84 -10.3 533 0 972.9 NA 0.0000 9999 0 0 0 0
2019/10/03 15:52:00 BASE 2.56 42 3.65 51 -8.0 84 -10.3 532 0 972.9 NA 0.0000 9999 0 0 0 0
2019/10/03 15:53:00 BASE 2.71 36 3.65 51 -8.0 83 -10.3 532 0 972.9 NA 0.0000 9999 0 0 0 0
2019/10/03 15:54:00 BASE 2.77 29 3.65 51 -8.0 83 -10.3 533 0 972.9 NA 0.0000 9999 0 0 0 0
2019/10/03 15:55:00 BASE 2.62 34 3.65 51 -8.0 83 -10.4 417 0 972.9 NA 0.0000 9999 0 0 0 0
2019/10/03 15:56:00 BASE 2.21 33 3.65 51 -8.0 83 -10.4 402 0 972.9 NA 0.0000 9999 0 0 0 0
2019/10/03 15:57:00 BASE 1.95 23 3.65 51 -8.0 83 -10.4 531 0 972.9 NA 0.0000 9999 0 0 0 0
2019/10/03 15:58:00 BASE 1.83 15 3.65 51 -8.0 83 -10.4 532 0 972.9 NA 0.0000 9999 0 0 0 0
2019/10/03 15:59:00 BASE 1.28 6 3.24 54 -8.1 83 -10.4 533 0 972.9 NA 0.0000 9999 0 0 0 0
2019/10/03 16:00:00 BASE 1.16 358 3.14 45 -8.2 83 -10.5 534 0 972.9 NA 0.0000 9999 0 0 0 0
2019/10/03 16:01:00 BASE 1.16 346 3.14 45 -8.2 84 -10.5 534 0 972.9 NA 0.0000 9999 0 0 0 0
2019/10/03 16:02:00 BASE 0.58 336 3.14 45 -8.3 84 -10.5 535 0 972.9 NA 0.0000 9999 0 0 0 0
2019/10/03 16:03:00 BASE 0.09 340 3.14 45 -8.3 84 -10.5 535 0 972.9 NA 0.0000 9999 0 0 0 0
2019/10/03 16:04:00 BASE 0.00 346 3.14 45 -8.3 84 -10.6 536 0 972.9 NA 0.0000 9999 0 0 0 0
2019/10/03 16:05:00 BASE 0.24 346 2.31 25 -8.3 84 -10.6 536 0 972.9 NA 0.0000 9999 0 0 0 0
2019/10/03 16:06:00 BASE 0.73 353 2.31 25 -8.3 84 -10.6 536 0 972.9 NA 0.0000 9999 0 0 0 0
2019/10/03 16:07:00 BASE 1.44 357 2.21 354 -8.3 84 -10.6 536 0 972.9 NA 0.0000 9999 0 0 0 0
2019/10/03 16:08:00 BASE 2.11 354 2.83 351 -8.3 84 -10.5 536 0 972.9 NA 0.0000 9999 0 0 0 0
2019/10/03 16:09:00 BASE 2.47 351 2.83 351 -8.3 84 -10.5 536 0 972.9 NA 0.0000 9999 0 0 0 0
2019/10/03 16:10:00 BASE 2.54 351 2.83 351 -8.3 84 -10.5 535 0 972.9 NA 0.0000 9999 0 0 0 0
2019/10/03 16:11:00 BASE 2.75 356 3.40 6 -8.2 84 -10.5 535 0 972.9 NA 0.0000 9999 0 0 0 0
2019/10/03 16:12:00 BASE 2.61 7 3.40 6 -8.2 84 -10.4 535 0 972.9 NA 0.0000 9999 0 0 0 0
2019/10/03 16:13:00 BASE 2.11 14 3.40 6 -8.2 84 -10.4 536 0 972.9 NA 0.0000 9999 0 0 0 0
2019/10/03 16:14:00 BASE 2.13 10 3.40 6 -8.2 84 -10.5 535 0 972.9 NA 0.0000 9999 0 0 0 0
2019/10/03 16:15:00 BASE 2.36 3 3.40 6 -8.2 84 -10.4 535 0 972.9 NA 0.0000 9999 0 0 0 0
2019/10/03 16:16:00 BASE 2.60 356 3.40 6 -8.2 84 -10.4 535 0 972.9 NA 0.0000 9999 0 0 0 0
2019/10/03 16:17:00 BASE 2.72 347 3.40 6 -8.2 84 -10.4 535 0 972.8 NA 0.0000 9999 0 0 0 0
2019/10/03 16:18:00 BASE 2.69 341 3.40 6 -8.2 84 -10.4 535 0 972.8 NA 0.0000 9999 0 0 0 0
2019/10/03 16:19:00 BASE 2.63 342 3.40 6 -8.2 84 -10.4 535 0 972.8 NA 0.0000 9999 0 0 0 0
2019/10/03 16:20:00 BASE 2.47 347 3.40 6 -8.2 84 -10.4 534 0 972.8 NA 0.0000 9999 0 0 0 0
2019/10/03 16:21:00 BASE 2.24 350 2.88 344 -8.2 84 -10.4 534 0 972.8 NA 0.0000 9999 0 0 0 0
2019/10/03 16:22:00 BASE 2.20 351 2.88 344 -8.3 84 -10.4 533 0 972.8 NA 0.0000 9999 0 0 0 0
2019/10/03 16:23:00 BASE 2.33 349 2.88 344 -8.3 85 -10.4 534 0 972.8 NA 0.0000 9999 0 0 0 0
2019/10/03 16:24:00 BASE 2.51 348 2.88 344 -8.3 85 -10.4 534 0 972.8 NA 0.0000 9999 0 0 0 0
2019/10/03 16:25:00 BASE 2.71 348 2.93 348 -8.3 85 -10.3 534 0 972.8 NA 0.0000 9999 0 0 0 0
2019/10/03 16:26:00 BASE 2.79 350 2.93 348 -8.3 85 -10.3 533 0 972.8 NA 0.0000 9999 0 0 0 0
2019/10/03 16:27:01 BASE 2.67 360 2.93 348 -8.3 86 -10.2 534 0 972.8 NA 0.0000 9999 0 0 0 0
2019/10/03 16:28:01 BASE 2.78 8 3.24 12 -8.2 86 -10.2 533 0 972.8 NA 0.0000 9999 0 0 0 0
2019/10/03 16:29:01 BASE 3.02 8 3.24 12 -8.2 86 -10.2 533 0 972.8 NA 0.0000 9999 0 0 0 0
2019/10/03 16:30:01 BASE 3.04 7 3.24 7 -8.2 86 -10.1 533 0 972.8 NA 0.0000 9999 0 0 0 0
2019/10/03 16:31:01 BASE 3.09 8 3.34 9 -8.2 86 -10.1 533 0 972.8 NA 0.0000 9999 0 0 0 0
2019/10/03 16:32:01 BASE 3.31 9 3.76 10 -8.2 86 -10.1 533 0 972.7 NA 0.0000 9999 0 0 0 0
2019/10/03 16:33:01 BASE 3.62 8 3.91 3 -8.2 86 -10.1 533 0 972.8 NA 0.0000 9999 0 0 0 0
2019/10/03 16:34:01 BASE 3.82 6 3.96 6 -8.2 86 -10.1 533 0 972.8 NA 0.0000 9999 0 0 0 0
2019/10/03 16:35:01 BASE 3.94 4 4.22 4 -8.2 86 -10.1 532 0 972.8 NA 0.0000 9999 0 0 0 0
2019/10/03 16:36:01 BASE 3.90 2 4.22 4 -8.2 87 -10.1 533 0 972.8 NA 0.0000 9999 0 0 0 0
2019/10/03 16:37:01 BASE 3.75 3 4.22 4 -8.3 87 -10.1 533 0 972.8 NA 0.0000 9999 0 0 0 0
2019/10/03 16:38:01 BASE 3.82 6 4.22 4 -8.3 87 -10.0 532 0 972.8 NA 0.0000 9999 0 0 0 0
2019/10/03 16:39:01 BASE 3.75 10 4.22 4 -8.3 87 -10.1 531 0 972.8 NA 0.0000 9999 0 0 0 0
2019/10/03 16:40:01 BASE 3.72 12 4.22 4 -8.3 87 -10.1 530 0 972.8 NA 0.0000 9999 0 0 0 0
2019/10/03 16:41:01 BASE 4.27 18 4.99 24 -8.2 87 -10.0 530 0 972.8 NA 0.0000 9999 0 0 0 0
2019/10/03 16:42:01 BASE 4.73 24 5.09 26 -8.2 87 -10.0 530 0 972.7 NA 0.0000 9999 0 0 0 0
2019/10/03 16:43:01 BASE 4.61 26 5.09 26 -8.1 87 -9.9 530 0 972.7 NA 0.0000 9999 0 0 0 0
2019/10/03 16:44:01 BASE 4.59 29 5.81 24 -8.1 87 -9.9 530 0 972.7 NA 0.0000 9999 0 0 0 0
2019/10/03 16:45:01 BASE 4.96 27 5.81 24 -8.0 87 -9.8 529 0 972.7 NA 0.0000 9999 0 0 0 0
2019/10/03 16:46:01 BASE 4.73 18 5.81 24 -7.9 86 -9.8 528 0 972.7 NA 0.0000 9999 0 0 0 0
2019/10/03 16:47:01 BASE 4.17 11 5.81 24 -7.9 86 -9.9 528 0 972.7 NA 0.0000 9999 0 0 0 0
2019/10/03 16:48:01 BASE 3.63 11 5.81 24 -7.9 85 -10.0 528 0 972.7 NA 0.0000 9999 0 0 0 0
2019/10/03 16:49:01 BASE 3.05 17 5.81 24 -7.9 85 -10.0 528 0 972.7 NA 0.0000 9999 0 0 0 0
2019/10/03 16:50:01 BASE 2.85 14 5.81 24 -7.9 84 -10.2 527 0 972.6 NA 0.0000 9999 0 0 0 0
2019/10/03 16:51:01 BASE 2.84 7 5.81 24 -8.0 84 -10.2 528 0 972.6 NA 0.0000 9999 0 0 0 0
2019/10/03 16:52:01 BASE 2.92 9 5.81 24 -8.0 83 -10.3 527 0 972.6 NA 0.0000 9999 0 0 0 0
2019/10/03 16:53:01 BASE 2.90 16 5.81 24 -7.9 83 -10.3 527 0 972.6 NA 0.0000 9999 0 0 0 0
2019/10/03 16:54:01 BASE 2.51 7 5.71 22 -8.0 83 -10.3 527 0 972.6 NA 0.0000 9999 0 0 0 0
2019/10/03 16:55:01 BASE 2.47 350 4.99 14 -8.0 83 -10.3 526 0 972.7 NA 0.0000 9999 0 0 0 0
2019/10/03 16:56:01 BASE 2.71 344 4.48 7 -8.0 83 -10.3 526 0 972.6 NA 0.0000 9999 0 0 0 0
2019/10/03 16:57:01 BASE 2.33 342 3.65 16 -8.0 83 -10.4 526 0 972.6 NA 0.0000 9999 0 0 0 0
2019/10/03 16:58:01 BASE 1.95 351 3.40 17 -8.0 83 -10.4 525 0 972.7 NA 0.0000 9999 0 0 0 0
2019/10/03 16:59:01 BASE 1.86 6 3.40 17 -8.0 82 -10.5 525 0 972.6 NA 0.0000 9999 0 0 0 0
2019/10/03 17:00:01 BASE 1.63 9 3.40 17 -8.0 82 -10.5 524 0 972.7 NA 0.0000 9999 0 0 0 0
2019/10/03 17:01:01 BASE 1.48 11 3.34 19 -7.9 82 -10.5 524 0 972.7 NA 0.0000 9999 0 0 0 0
2019/10/03 17:02:01 BASE 1.70 7 3.24 25 -7.9 81 -10.6 525 0 972.7 NA 0.0000 9999 0 0 0 0
2019/10/03 17:03:00 BASE 2.25 357 3.19 6 -7.9 81 -10.6 524 0 972.7 NA 0.0000 9999 0 0 0 0
2019/10/03 17:04:01 BASE 2.89 0 3.34 4 -7.9 81 -10.5 523 0 972.7 NA 0.0000 9999 0 0 0 0
2019/10/03 17:05:01 BASE 3.19 9 3.45 18 -7.9 82 -10.5 523 0 972.7 NA 0.0000 9999 0 0 0 0
2019/10/03 17:06:00 BASE 3.23 6 3.55 4 -7.9 82 -10.5 522 0 972.7 NA 0.0000 9999 0 0 0 0
2019/10/03 17:07:00 BASE 3.50 346 4.12 329 -7.9 82 -10.4 522 0 972.6 NA 0.0000 9999 0 0 0 0
2019/10/03 17:08:01 BASE 3.79 333 4.12 334 -7.9 82 -10.4 522 0 972.6 NA 0.0000 9999 0 0 0 0
2019/10/03 17:09:01 BASE 3.83 332 4.22 331 -7.9 82 -10.4 522 0 972.6 NA 0.0000 9999 0 0 0 0
2019/10/03 17:10:01 BASE 3.16 337 4.22 331 -7.9 82 -10.4 522 0 972.6 NA 0.0000 9999 0 0 0 0
2019/10/03 17:11:01 BASE 2.35 347 4.22 331 -7.9 82 -10.5 522 0 972.6 NA 0.0000 9999 0 0 0 0
2019/10/03 17:12:00 BASE 2.52 349 4.22 331 -7.9 82 -10.5 522 0 972.6 NA 0.0000 9999 0 0 0 0
2019/10/03 17:13:00 BASE 2.64 353 4.22 331 -7.9 81 -10.5 523 0 972.6 NA 0.0000 9999 0 0 0 0
2019/10/03 17:14:00 BASE 2.40 5 4.22 331 -7.9 81 -10.6 521 0 972.5 NA 0.0000 9999 0 0 0 0
2019/10/03 17:15:00 BASE 2.55 6 4.22 331 -7.9 81 -10.6 516 0 972.4 NA 0.0000 9999 0 0 0 0
2019/10/03 17:16:00 BASE 2.52 356 4.22 331 -7.9 81 -10.6 526 0 972.4 NA 0.0000 9999 0 0 0 0
2019/10/03 17:17:00 BASE 2.39 340 4.22 331 -7.9 81 -10.6 503 0 972.4 NA 0.0000 9999 0 0 0 0
2019/10/03 17:18:00 BASE 2.34 328 4.22 331 -7.9 81 -10.5 445 0 972.4 NA 0.0000 9999 0 0 0 0
2019/10/03 17:19:00 BASE 2.37 332 3.19 333 -7.8 81 -10.5 535 0 972.4 NA 0.0000 9999 0 0 0 0
2019/10/03 17:20:00 BASE 3.31 342 5.35 347 -7.8 81 -10.5 508 0 972.4 NA 0.0000 9999 0 0 0 0
2019/10/03 17:21:00 BASE 3.95 344 5.35 347 -7.8 81 -10.5 408 0 972.4 NA 0.0000 9999 0 0 0 0
2019/10/03 17:22:00 BASE 3.79 347 5.35 347 -7.8 81 -10.5 379 0 972.4 NA 0.0000 9999 0 0 0 0
2019/10/03 17:23:00 BASE 3.83 346 5.35 347 -7.8 81 -10.5 343 0 972.5 NA 0.0000 9999 0 0 0 0
2019/10/03 17:24:00 BASE 3.37 337 5.35 347 -7.9 81 -10.6 258 0 972.6 NA 0.0000 9999 0 0 0 0
2019/10/03 17:25:00 BASE 2.89 335 5.35 347 -7.9 81 -10.6 390 0 972.6 NA 0.0000 9999 0 0 0 0
2019/10/03 17:26:00 BASE 3.50 337 5.35 347 -8.0 81 -10.7 400 0 972.6 NA 0.0000 9999 0 0 0 0
2019/10/03 17:27:00 BASE 4.01 333 5.35 347 -8.0 81 -10.7 349 0 972.6 NA 0.0000 9999 0 0 0 0
2019/10/03 17:28:00 BASE 4.09 326 5.61 321 -8.0 81 -10.7 510 0 972.6 NA 0.0000 9999 0 0 0 0
2019/10/03 17:29:00 BASE 4.78 323 5.61 321 -8.0 81 -10.7 498 0 972.6 NA 0.0000 9999 0 0 0 0
2019/10/03 17:30:00 BASE 5.29 323 5.61 321 -8.0 81 -10.6 530 0 972.6 NA 0.0000 9999 0 0 0 0
2019/10/03 17:31:00 BASE 5.25 322 5.61 321 -8.0 82 -10.6 501 0 972.6 NA 0.0000 9999 0 0 0 0
2019/10/03 17:32:00 BASE 5.27 320 5.71 318 -8.0 82 -10.5 519 0 972.6 NA 0.0000 9999 0 0 0 0
2019/10/03 17:33:00 BASE 5.32 320 5.86 320 -7.9 82 -10.4 528 0 972.6 NA 0.0000 9999 0 0 0 0
2019/10/03 17:34:00 BASE 5.42 321 5.86 320 -7.9 82 -10.4 526 0 972.6 NA 0.0000 9999 0 0 0 0
2019/10/03 17:35:00 BASE 5.45 322 5.86 320 -7.9 83 -10.3 527 0 972.6 NA 0.0000 9999 0 0 0 0
2019/10/03 17:36:00 BASE 5.19 324 5.86 320 -7.9 83 -10.3 500 0 972.6 NA 0.0000 9999 0 0 0 0
2019/10/03 17:37:00 BASE 5.04 326 5.86 320 -7.9 84 -10.2 500 0 972.6 NA 0.0000 9999 0 0 0 0
2019/10/03 17:38:00 BASE 4.89 327 5.86 320 -7.9 84 -10.1 458 0 972.6 NA 0.0000 9999 0 0 0 0
2019/10/03 17:39:00 BASE 4.76 331 5.86 320 -7.8 84 -10.1 431 0 972.6 NA 0.0000 9999 0 0 0 0
2019/10/03 17:40:00 BASE 5.11 334 5.86 320 -7.8 84 -10.1 433 0 972.6 NA 0.0000 9999 0 0 0 0
2019/10/03 17:41:00 BASE 5.43 334 5.86 320 -7.8 84 -10.0 456 0 972.5 NA 0.0000 9999 0 0 0 0
2019/10/03 17:42:00 BASE 5.50 333 5.86 320 -7.8 84 -10.0 403 0 972.6 NA 0.0000 9999 0 0 0 0
2019/10/03 17:43:00 BASE 5.33 330 5.76 331 -7.8 84 -10.0 408 0 972.5 NA 0.0000 9999 0 0 0 0
2019/10/03 17:44:00 BASE 5.26 327 5.76 324 -7.9 85 -10.0 403 0 972.5 NA 0.0000 9999 0 0 0 0
2019/10/03 17:45:00 BASE 5.28 324 5.76 324 -7.9 85 -10.0 401 0 972.4 NA 0.0000 9999 0 0 0 0
2019/10/03 17:46:00 BASE 5.27 317 5.76 324 -7.9 85 -10.0 347 0 972.4 NA 0.0000 9999 0 0 0 0
2019/10/03 17:47:00 BASE 5.54 312 6.07 309 -7.9 85 -10.0 341 0 972.4 NA 0.0000 9999 0 0 0 0
2019/10/03 17:48:00 BASE 5.46 313 6.07 309 -8.0 85 -10.0 343 0 972.4 NA 0.0000 9999 0 0 0 0
2019/10/03 17:49:00 BASE 4.82 316 6.07 309 -8.0 86 -10.0 402 0 972.4 NA 0.0000 9999 0 0 0 0
2019/10/03 17:50:00 BASE 4.87 319 6.07 309 -8.0 86 -10.0 443 0 972.4 NA 0.0000 9999 0 0 0 0
2019/10/03 17:51:00 BASE 5.49 319 6.17 321 -8.0 86 -10.0 438 0 972.4 NA 0.0000 9999 0 0 0 0
2019/10/03 17:52:00 BASE 5.72 319 6.17 321 -8.0 86 -9.9 467 0 972.4 NA 0.0000 9999 0 0 0 0
2019/10/03 17:53:00 BASE 5.55 317 6.17 321 -8.0 86 -9.9 430 0 972.4 NA 0.0000 9999 0 0 0 0
2019/10/03 17:54:00 BASE 5.08 316 6.17 321 -8.0 87 -9.9 431 0 972.4 NA 0.0000 9999 0 0 0 0
2019/10/03 17:55:00 BASE 4.70 318 6.17 321 -8.0 87 -9.8 370 0 972.4 NA 0.0000 9999 0 0 0 0
2019/10/03 17:56:00 BASE 4.47 321 6.17 321 -8.0 87 -9.8 422 0 972.4 NA 0.0000 9999 0 0 0 0
2019/10/03 17:57:00 BASE 4.22 324 6.17 321 -8.0 87 -9.8 485 0 972.4 NA 0.0000 9999 0 0 0 0
2019/10/03 17:58:00 BASE 3.87 328 6.17 321 -8.0 87 -9.8 496 0 972.4 NA 0.0000 9999 0 0 0 0
2019/10/03 17:59:00 BASE 3.57 334 6.17 321 -8.0 87 -9.8 454 0 972.4 NA 0.0000 9999 0 0 0 0
2019/10/03 18:00:00 BASE 3.57 339 6.17 321 -8.0 87 -9.8 371 0 972.4 NA 0.0000 9999 0 0 0 0
2019/10/03 18:01:00 BASE 3.83 340 6.07 323 -8.0 87 -9.8 329 0 972.4 NA 0.0000 9999 0 0 0 0
2019/10/03 18:02:00 BASE 4.16 338 5.86 318 -8.0 87 -9.8 312 0 972.4 NA 0.0000 9999 0 0 0 0
2019/10/03 18:03:00 BASE 4.20 335 5.04 319 -8.1 87 -9.8 314 0 972.4 NA 0.0000 9999 15190 0 0 0
2019/10/03 18:04:00 BASE 3.89 335 4.68 321 -8.1 88 -9.8 299 0 972.4 NA 0.0000 9999 15390 0 0 0
2019/10/03 18:05:00 BASE 3.94 336 4.84 332 -8.1 88 -9.8 300 0 972.4 NA 0.0000 9999 15390 0 0 0
2019/10/03 18:06:00 BASE 4.26 333 4.84 332 -8.2 88 -9.8 323 0 972.4 NA 0.0000 9999 15060 0 0 0
2019/10/03 18:07:00 BASE 4.11 327 4.84 332 -8.2 88 -9.8 292 0 972.4 NA 0.0000 9999 0 0 0 0
2019/10/03 18:08:00 BASE 3.80 319 4.84 332 -8.2 88 -9.8 288 0 972.4 NA 0.0000 9999 0 0 0 0
2019/10/03 18:09:00 BASE 3.80 315 4.84 332 -8.2 88 -9.8 294 0 972.4 NA 0.0000 9999 0 0 0 0
2019/10/03 18:10:00 BASE 3.76 316 4.84 332 -8.2 88 -9.8 313 0 972.4 NA 0.0000 9999 0 0 0 0
2019/10/03 18:11:00 BASE 3.72 316 4.84 332 -8.2 88 -9.8 342 0 972.5 NA 0.0000 9999 0 0 0 0
2019/10/03 18:12:00 BASE 3.64 316 4.84 332 -8.2 88 -9.8 312 0 972.5 NA 0.0000 9999 0 0 0 0
2019/10/03 18:13:00 BASE 3.53 315 4.84 332 -8.2 88 -9.8 307 0 972.5 NA 0.0000 9999 0 0 0 0
2019/10/03 18:14:00 BASE 3.39 313 4.84 332 -8.2 88 -9.8 300 0 972.5 NA 0.0000 9999 0 0 0 0
2019/10/03 18:15:00 BASE 3.28 312 4.73 335 -8.2 89 -9.7 271 0 972.4 NA 0.0000 9999 0 0 0 0
2019/10/03 18:16:00 BASE 3.21 315 4.37 320 -8.2 89 -9.7 273 0 972.4 NA 0.0000 9999 0 0 0 0
2019/10/03 18:17:00 BASE 2.91 314 4.37 320 -8.2 89 -9.7 296 0 972.5 NA 0.0000 9999 0 0 0 0
2019/10/03 18:18:00 BASE 2.73 309 4.37 320 -8.2 89 -9.7 267 0 972.5 NA 0.0000 9999 0 0 0 0
2019/10/03 18:19:00 BASE 2.69 308 4.32 315 -8.2 89 -9.7 278 0 972.5 NA 0.0000 9999 0 0 0 0
2019/10/03 18:20:00 BASE 2.46 311 4.12 318 -8.2 89 -9.7 291 0 972.5 NA 0.0000 9999 0 0 0 0
2019/10/03 18:21:00 BASE 2.36 311 4.01 318 -8.2 89 -9.6 293 0 972.5 NA 0.0000 9999 21650 0 0 0
2019/10/03 18:22:00 BASE 2.48 312 4.01 318 -8.2 89 -9.6 321 0 972.4 NA 0.0000 9999 0 0 0 0
2019/10/03 18:23:00 BASE 2.66 316 3.70 317 -8.2 89 -9.6 337 0 972.4 NA 0.0000 9999 0 0 0 0
2019/10/03 18:24:00 BASE 2.75 318 3.70 317 -8.2 89 -9.6 315 0 972.4 NA 0.0000 9999 0 0 0 0
2019/10/03 18:25:00 BASE 2.46 320 3.19 320 -8.2 89 -9.7 365 0 972.5 NA 0.0000 9999 13980 0 0 0
2019/10/03 18:26:00 BASE 2.21 323 2.98 306 -8.2 89 -9.7 353 0 972.5 NA 0.0000 9999 0 0 0 0
2019/10/03 18:27:00 BASE 2.34 331 2.98 306 -8.2 89 -9.7 405 0 972.5 NA 0.0000 9999 0 0 0 0
2019/10/03 18:28:00 BASE 2.72 337 3.19 336 -8.2 89 -9.7 419 0 972.4 NA 0.0000 9999 13580 0 0 0
2019/10/03 18:29:00 BASE 2.63 337 3.19 336 -8.2 89 -9.7 431 0 972.5 NA 0.0000 9999 0 0 0 0
2019/10/03 18:30:00 BASE 2.23 339 3.19 336 -8.2 89 -9.7 494 0 972.6 NA 0.0000 9999 0 0 0 0
2019/10/03 18:31:00 BASE 2.30 336 3.19 336 -8.2 89 -9.7 490 0 972.5 NA 0.0000 9999 0 0 0 0
2019/10/03 18:32:00 BASE 2.56 330 3.19 336 -8.2 89 -9.7 513 0 972.4 NA 0.0000 9999 0 0 0 0
2019/10/03 18:33:00 BASE 2.76 329 3.19 336 -8.1 89 -9.6 504 0 972.4 NA 0.0000 9999 0 0 0 0
2019/10/03 18:34:00 BASE 3.10 328 3.81 325 -8.1 89 -9.6 497 0 972.4 NA 0.0000 9999 0 0 0 0
2019/10/03 18:35:00 BASE 3.22 322 3.81 325 -8.0 89 -9.5 504 0 972.4 NA 0.0000 9999 0 0 0 0
2019/10/03 18:36:00 BASE 2.95 315 3.81 325 -8.0 90 -9.4 500 0 972.4 NA 0.0000 9999 0 0 0 0
2019/10/03 18:37:00 BASE 2.83 320 3.81 325 -7.9 90 -9.3 488 0 972.4 NA 0.0000 9999 0 0 0 0
2019/10/03 18:38:00 BASE 2.82 326 3.81 325 -7.9 90 -9.3 488 0 972.4 NA 0.0000 9999 0 0 0 0
2019/10/03 18:39:00 BASE 2.77 321 3.81 325 -7.8 89 -9.3 455 0 972.5 NA 0.0000 9999 14400 0 0 0
2019/10/03 18:40:01 BASE 2.81 316 3.81 325 -7.8 89 -9.3 454 0 972.5 NA 0.0000 9999 0 0 0 0
2019/10/03 18:41:01 BASE 2.76 313 3.81 325 -7.8 89 -9.3 452 0 972.6 NA 0.0000 9999 0 0 0 0
2019/10/03 18:42:01 BASE 2.53 312 3.81 325 -7.8 89 -9.3 454 0 972.5 NA 0.0000 9999 0 0 0 0
2019/10/03 18:43:01 BASE 2.25 317 3.81 325 -7.8 89 -9.3 464 0 972.5 NA 0.0000 9999 13810 0 0 0
2019/10/03 18:44:01 BASE 2.45 315 3.24 316 -7.8 89 -9.3 439 0 972.5 NA 0.0000 9999 13650 0 0 0
2019/10/03 18:45:01 BASE 3.09 304 3.76 299 -7.8 89 -9.3 443 0 972.5 NA 0.0000 9999 13550 0 0 0
2019/10/03 18:46:01 BASE 3.25 299 3.76 299 -7.8 89 -9.3 441 0 972.4 NA 0.0000 9999 13450 0 0 0
2019/10/03 18:47:01 BASE 3.04 302 3.76 299 -7.8 89 -9.3 447 0 972.4 NA 0.0000 9999 0 0 0 0
2019/10/03 18:48:01 BASE 2.75 306 3.76 299 -7.8 89 -9.3 446 0 972.4 NA 0.0000 9999 0 0 0 0
2019/10/03 18:49:01 BASE 2.51 307 3.76 299 -7.8 89 -9.3 443 0 972.5 NA 0.0000 9999 0 0 0 0
2019/10/03 18:50:01 BASE 2.64 305 3.76 299 -7.8 89 -9.3 439 0 972.5 NA 0.0000 9999 0 0 0 0
2019/10/03 18:51:01 BASE 3.12 302 3.81 308 -7.8 89 -9.3 431 0 972.6 NA 0.0000 9999 0 0 0 0
2019/10/03 18:52:01 BASE 3.47 296 4.06 286 -7.8 89 -9.3 416 0 972.6 NA 0.0000 9999 0 0 0 0
2019/10/03 18:53:01 BASE 3.52 290 4.37 274 -7.8 89 -9.3 337 0 972.6 NA 0.0000 9999 0 0 0 0
2019/10/03 18:54:01 BASE 3.71 292 4.37 274 -7.8 89 -9.3 341 0 972.6 NA 0.0000 9999 0 0 0 0
2019/10/03 18:55:01 BASE 3.82 294 4.37 274 -7.8 89 -9.3 380 0 972.6 NA 0.0000 9999 0 0 0 0
2019/10/03 18:56:01 BASE 3.67 294 4.37 274 -7.8 89 -9.3 423 0 972.6 NA 0.0000 9999 0 0 0 0
2019/10/03 18:57:01 BASE 3.52 291 4.37 274 -7.9 89 -9.4 420 0 972.6 NA 0.0000 9999 0 0 0 0
2019/10/03 18:58:01 BASE 3.40 290 4.37 274 -7.9 89 -9.4 417 0 972.6 NA 0.0000 9999 0 0 0 0
2019/10/03 18:59:01 BASE 3.26 293 4.37 274 -7.9 89 -9.4 414 0 972.6 NA 0.0000 9999 0 0 0 0
2019/10/03 19:00:01 BASE 3.27 297 4.37 274 -7.9 89 -9.4 413 0 972.5 NA 0.0000 9999 21590 0 0 0
2019/10/03 19:01:01 BASE 3.22 298 4.37 274 -7.9 89 -9.4 411 0 972.4 NA 0.0000 9999 0 0 0 0
2019/10/03 19:02:01 BASE 3.13 301 4.37 274 -7.9 89 -9.4 388 0 972.4 NA 0.0000 9999 0 0 0 0
2019/10/03 19:03:01 BASE 3.19 302 4.22 294 -7.9 89 -9.4 370 0 972.5 NA 0.0000 9999 0 0 0 0
2019/10/03 19:04:01 BASE 3.04 301 4.01 295 -7.9 89 -9.4 375 0 972.5 NA 0.0000 9999 0 0 0 0
2019/10/03 19:05:01 BASE 2.78 305 3.91 290 -7.9 89 -9.4 385 0 972.6 NA 0.0000 9999 0 0 0 0
2019/10/03 19:06:01 BASE 2.45 310 3.65 291 -7.9 89 -9.4 386 0 972.5 NA 0.0000 9999 0 0 0 0
2019/10/03 19:07:01 BASE 2.14 309 3.60 291 -7.9 89 -9.4 392 0 972.6 NA 0.0000 9999 0 0 0 0
2019/10/03 19:08:01 BASE 1.92 305 3.45 300 -7.9 89 -9.4 401 0 972.5 NA 0.0000 9999 0 0 0 0
2019/10/03 19:09:01 BASE 1.70 311 3.45 300 -7.9 89 -9.4 412 0 972.5 NA 0.0000 9999 0 0 0 0
2019/10/03 19:10:01 BASE 1.72 320 3.40 299 -7.9 88 -9.5 410 0 972.6 NA 0.0000 9999 0 0 0 0
2019/10/03 19:11:01 BASE 1.80 325 3.40 299 -7.9 88 -9.5 414 0 972.6 NA 0.0000 9999 0 0 0 0
2019/10/03 19:12:01 BASE 1.94 327 3.40 299 -7.9 88 -9.5 418 0 972.6 NA 0.0000 9999 0 0 0 0
2019/10/03 19:13:01 BASE 2.08 329 3.19 301 -8.0 88 -9.6 421 0 972.6 NA 0.0000 9999 14800 0 0 0
2019/10/03 19:14:01 BASE 2.07 333 2.83 309 -8.0 88 -9.7 416 0 972.6 NA 0.0000 9999 14900 0 0 0
2019/10/03 19:15:01 BASE 2.02 341 2.73 315 -8.1 88 -9.7 421 0 972.6 NA 0.0000 9999 14860 0 0 0
2019/10/03 19:16:01 BASE 1.94 349 2.37 327 -8.2 88 -9.7 419 0 972.6 NA 0.0000 9999 0 0 0 0
2019/10/03 19:17:00 BASE 1.91 356 2.37 327 -8.2 89 -9.8 420 0 972.6 NA 0.0000 9999 0 0 0 0
2019/10/03 19:18:01 BASE 2.06 2 2.42 8 -8.2 89 -9.8 419 0 972.5 NA 0.0000 9999 0 0 0 0
2019/10/03 19:19:00 BASE 2.31 7 2.68 12 -8.2 89 -9.7 421 0 972.4 NA 0.0000 9999 0 0 0 0
2019/10/03 19:20:01 BASE 2.45 14 2.68 12 -8.2 89 -9.7 421 0 972.4 NA 0.0000 9999 0 0 0 0
2019/10/03 19:21:00 BASE 2.39 16 2.68 12 -8.2 89 -9.6 418 0 972.4 NA 0.0000 9999 0 0 0 0
2019/10/03 19:22:01 BASE 2.30 20 2.68 12 -8.2 90 -9.6 420 0 972.4 NA 0.0000 9999 0 0 0 0
2019/10/03 19:23:00 BASE 2.26 27 2.68 12 -8.1 90 -9.5 420 0 972.4 NA 0.0000 9999 0 0 0 0
2019/10/03 19:24:01 BASE 2.41 36 2.88 50 -8.1 90 -9.4 420 0 972.4 NA 0.0000 9999 0 0 0 0
2019/10/03 19:25:01 BASE 2.52 45 2.88 51 -8.1 90 -9.4 419 0 972.4 NA 0.0000 9999 0 0 0 0
2019/10/03 19:26:01 BASE 2.31 49 2.88 51 -8.0 90 -9.3 418 0 972.4 NA 0.0000 9999 13880 0 0 0
2019/10/03 19:27:01 BASE 2.25 48 2.88 51 -8.0 91 -9.3 415 0 972.4 NA 0.0000 9999 13780 0 0 0
2019/10/03 19:28:01 BASE 2.31 48 2.88 51 -8.0 91 -9.2 412 0 972.4 NA 0.0000 9999 0 0 0 0
2019/10/03 19:29:00 BASE 2.22 41 2.88 51 -8.0 91 -9.2 407 0 972.4 NA 0.0000 9999 13580 0 0 0
2019/10/03 19:30:00 BASE 2.16 29 2.88 51 -8.0 91 -9.2 409 0 972.4 NA 0.0000 9999 13580 0 0 0
2019/10/03 19:31:00 BASE 2.24 26 2.88 51 -8.0 91 -9.2 408 0 972.5 NA 0.0000 9999 0 0 0 0
2019/10/03 19:32:00 BASE 2.45 28 3.14 27 -8.0 91 -9.2 407 0 972.6 NA 0.0000 9999 13420 0 0 0
2019/10/03 19:33:00 BASE 2.70 30 3.14 27 -8.1 91 -9.3 406 0 972.6 NA 0.0000 9999 0 0 0 0
2019/10/03 19:34:00 BASE 2.55 31 3.14 27 -8.1 91 -9.3 406 0 972.6 NA 0.0000 9999 0 0 0 0
2019/10/03 19:35:00 BASE 2.25 28 3.14 27 -8.1 91 -9.3 406 0 972.6 NA 0.0000 9999 0 0 0 0
2019/10/03 19:36:00 BASE 2.14 17 3.14 27 -8.1 91 -9.3 408 0 972.6 NA 0.0000 9999 0 0 0 0
2019/10/03 19:37:00 BASE 2.10 5 3.14 27 -8.1 91 -9.3 381 0 972.6 NA 0.0000 9999 0 0 0 0
2019/10/03 19:38:00 BASE 2.11 358 3.14 27 -8.1 91 -9.3 362 0 972.6 NA 0.0000 9999 0 0 0 0
2019/10/03 19:39:00 BASE 2.17 355 3.14 27 -8.2 91 -9.4 379 0 972.6 NA 0.0000 9999 0 0 0 0
2019/10/03 19:40:00 BASE 2.45 357 3.14 27 -8.2 91 -9.4 415 0 972.6 NA 0.0000 9999 0 0 0 0
2019/10/03 19:41:00 BASE 2.59 5 3.14 27 -8.2 91 -9.4 305 0 972.6 NA 0.0000 9999 0 0 0 0
2019/10/03 19:42:00 BASE 2.64 15 3.04 22 -8.2 91 -9.3 374 0 972.6 NA 0.0000 9999 0 0 0 0
2019/10/03 19:43:00 BASE 2.64 26 3.14 42 -8.2 92 -9.3 375 0 972.6 NA 0.0000 9999 0 0 0 0
2019/10/03 19:44:00 BASE 2.49 45 3.14 42 -8.2 92 -9.3 327 0 972.6 NA 0.0000 9999 0 0 0 0
2019/10/03 19:45:00 BASE 1.97 54 3.14 42 -8.2 92 -9.2 253 0 972.6 NA 0.0000 9999 0 0 0 0
2019/10/03 19:46:00 BASE 2.08 36 3.91 13 -8.1 92 -9.2 186 0 972.6 NA 0.0000 9999 0 0 0 0
2019/10/03 19:47:00 BASE 2.77 13 3.91 13 -8.1 92 -9.2 204 0 972.6 NA 0.0000 9999 0 0 0 0
2019/10/03 19:48:00 BASE 2.88 0 3.91 13 -8.1 92 -9.2 163 0 972.7 NA 0.0000 9999 0 0 0 0
2019/10/03 19:49:00 BASE 2.92 350 3.91 13 -8.2 91 -9.3 145 0 972.7 NA 0.0000 9999 0 0 0 0
2019/10/03 19:50:00 BASE 3.06 347 3.91 13 -8.2 91 -9.4 142 0 972.6 NA 0.0000 9999 0 0 0 0
2019/10/03 19:51:00 BASE 2.90 347 3.91 13 -8.3 91 -9.5 141 0 972.6 NA 0.0000 9999 0 0 0 0
2019/10/03 19:52:00 BASE 2.61 350 3.91 13 -8.3 91 -9.5 142 0 972.6 NA 0.0000 9999 0 0 0 0
2019/10/03 19:53:00 BASE 2.45 350 3.91 13 -8.4 91 -9.6 145 0 972.6 NA 0.0000 9999 2030 0 0 0
2019/10/03 19:54:00 BASE 2.28 344 3.91 13 -8.4 91 -9.6 142 0 972.6 NA 0.0000 9999 0 0 0 0
2019/10/03 19:55:00 BASE 2.04 339 3.91 13 -8.4 91 -9.6 144 0 972.6 NA 0.0000 9999 10630 0 0 0
2019/10/03 19:56:00 BASE 2.10 343 3.76 7 -8.3 91 -9.5 146 0 972.6 NA 0.0000 9999 10500 0 0 0
2019/10/03 19:57:00 BASE 2.50 349 3.40 347 -8.3 91 -9.5 148 0 972.6 NA 0.0000 9999 10730 0 0 0
2019/10/03 19:58:00 BASE 2.57 348 3.40 347 -8.3 91 -9.5 149 0 972.6 NA 0.0000 9999 10700 0 0 0
2019/10/03 19:59:00 BASE 2.71 346 3.40 347 -8.3 91 -9.5 150 0 972.6 NA 0.0000 9999 10530 0 0 0
2019/10/03 20:00:00 BASE 2.96 346 3.19 350 -8.3 91 -9.5 150 0 972.6 NA 0.0000 9999 10660 0 0 0
2019/10/03 20:01:00 BASE 3.05 345 3.34 343 -8.3 91 -9.5 150 0 972.6 NA 0.0000 9999 10760 0 0 0
2019/10/03 20:02:00 BASE 3.04 344 3.34 343 -8.3 90 -9.6 149 0 972.6 NA 0.0000 9999 10700 0 0 0
2019/10/03 20:03:00 BASE 2.97 349 3.34 343 -8.3 90 -9.6 148 0 972.6 NA 0.0000 9999 1970 10730 0 0
2019/10/03 20:04:00 BASE 3.00 351 3.34 343 -8.2 90 -9.6 147 0 972.6 NA 0.0000 9999 1940 10560 0 0
2019/10/03 20:05:00 BASE 3.12 347 3.55 345 -8.2 90 -9.6 146 0 972.6 NA 0.0000 9999 1870 10860 0 0
2019/10/03 20:06:00 BASE 3.18 343 3.55 345 -8.2 90 -9.6 144 0 972.6 NA 0.0000 9999 1800 0 0 0
2019/10/03 20:07:00 BASE 3.11 342 3.55 345 -8.2 90 -9.6 142 0 972.6 NA 0.0000 9999 1840 10700 21620 0
2019/10/03 20:08:00 BASE 3.05 349 3.55 345 -8.2 90 -9.6 141 0 972.6 NA 0.0000 9999 1800 10700 0 0
2019/10/03 20:09:00 BASE 3.13 351 3.55 345 -8.2 90 -9.6 140 0 972.6 NA 0.0000 9999 1670 0 0 0
2019/10/03 20:10:00 BASE 3.10 349 3.55 345 -8.2 90 -9.6 139 0 972.6 NA 0.0000 9999 1510 0 0 0
2019/10/03 20:11:00 BASE 3.05 350 3.55 345 -8.2 90 -9.6 138 0 972.6 NA 0.0000 9999 1610 0 0 0
2019/10/03 20:12:00 BASE 2.98 344 3.55 345 -8.2 90 -9.6 136 0 972.6 NA 0.0000 9999 1610 0 0 0
2019/10/03 20:13:00 BASE 2.77 336 3.55 345 -8.2 90 -9.5 133 0 972.7 NA 0.0000 9999 1610 0 0 0
2019/10/03 20:14:00 BASE 2.40 332 3.55 345 -8.2 90 -9.5 131 0 972.6 NA 0.0000 9999 1510 22150 0 0
2019/10/03 20:15:00 BASE 2.08 332 3.34 350 -8.1 90 -9.5 129 0 972.6 NA 0.0000 9999 1480 0 0 0
2019/10/03 20:16:00 BASE 2.09 338 3.34 350 -8.1 90 -9.5 127 0 972.6 NA 0.0000 9999 1540 0 0 0
2019/10/03 20:17:00 BASE 2.38 339 3.70 340 -8.1 90 -9.4 126 0 972.6 NA 0.0000 9999 1540 0 0 0
2019/10/03 20:18:00 BASE 3.32 337 4.32 354 -8.1 90 -9.4 125 0 972.6 NA 0.0000 9999 1480 0 0 0
2019/10/03 20:19:00 BASE 3.26 344 4.32 354 -8.1 90 -9.4 123 0 972.6 NA 0.0000 9999 1440 0 0 0
2019/10/03 20:20:00 BASE 2.63 346 4.32 354 -8.1 90 -9.4 121 0 972.6 NA 0.0000 9999 1380 0 0 0
2019/10/03 20:21:00 BASE 2.99 344 4.32 354 -8.1 90 -9.4 119 0 972.6 NA 0.0000 9999 1410 0 0 0
2019/10/03 20:22:00 BASE 3.08 344 4.32 354 -8.1 90 -9.4 118 0 972.6 NA 0.0000 9999 1350 0 0 0
2019/10/03 20:23:00 BASE 2.87 345 4.32 354 -8.1 90 -9.4 117 0 972.6 NA 0.0000 9999 1310 0 0 0
2019/10/03 20:24:00 BASE 3.08 343 4.32 354 -8.1 90 -9.4 116 0 972.6 NA 0.0000 9999 1380 0 0 0
2019/10/03 20:25:00 BASE 3.75 332 4.53 328 -8.0 90 -9.4 115 0 972.7 NA 0.0000 9999 1440 24050 0 0
2019/10/03 20:26:00 BASE 4.02 325 4.53 328 -8.0 90 -9.4 115 0 972.7 NA 0.0000 9999 1480 0 0 0
2019/10/03 20:27:00 BASE 3.70 328 4.53 328 -8.0 90 -9.4 114 0 972.7 NA 0.0000 9999 1510 0 0 0
2019/10/03 20:28:00 BASE 3.31 333 4.53 328 -8.0 90 -9.4 114 0 972.7 NA 0.0000 9999 1480 0 0 0
2019/10/03 20:29:00 BASE 3.12 330 4.53 328 -8.0 90 -9.4 113 0 972.7 NA 0.0000 9999 1540 0 0 0
2019/10/03 20:30:00 BASE 3.52 331 4.63 338 -8.0 90 -9.4 111 0 972.6 NA 0.0000 9999 1510 0 0 0
2019/10/03 20:31:00 BASE 3.47 337 4.63 338 -8.0 90 -9.4 109 0 972.6 NA 0.0000 9999 1540 0 0 0
2019/10/03 20:32:00 BASE 2.76 339 4.63 338 -8.0 89 -9.4 106 0 972.7 NA 0.0000 9999 1670 0 0 0
2019/10/03 20:33:00 BASE 2.77 340 4.63 338 -8.0 89 -9.5 103 0 972.7 NA 0.0000 9999 1540 0 0 0
2019/10/03 20:34:00 BASE 3.35 342 4.63 338 -8.1 89 -9.6 101 0 972.7 NA 0.0000 9999 1410 0 0 0
2019/10/03 20:35:00 BASE 4.19 343 4.94 336 -8.1 89 -9.6 99 0 972.6 NA 0.0000 9999 1570 0 0 0
2019/10/03 20:36:00 BASE 4.36 338 4.94 336 -8.1 89 -9.6 96 0 972.6 NA 0.0000 9999 1610 0 0 0
2019/10/03 20:37:00 BASE 3.82 338 4.94 336 -8.1 89 -9.5 92 0 972.6 NA 0.0000 9999 1510 0 0 0
2019/10/03 20:38:00 BASE 3.69 348 4.94 336 -8.0 89 -9.5 88 0 972.6 NA 0.0000 9999 1570 0 0 0
2019/10/03 20:39:00 BASE 3.94 356 4.94 336 -8.0 89 -9.5 84 0 972.6 NA 0.0000 9999 1710 0 0 0
2019/10/03 20:40:00 BASE 3.92 354 4.94 336 -8.0 89 -9.5 81 0 972.6 NA 0.0000 9999 1710 0 0 0
2019/10/03 20:41:00 BASE 3.72 342 4.94 336 -8.0 89 -9.5 78 0 972.6 NA 0.0000 9999 1670 0 0 0
2019/10/03 20:42:00 BASE 2.89 329 4.94 336 -8.0 89 -9.5 77 0 972.6 NA 0.0000 9999 1610 0 0 0
2019/10/03 20:43:00 BASE 1.33 335 4.94 336 -8.0 89 -9.5 76 0 972.6 NA 0.0000 9999 1440 0 0 0
2019/10/03 20:44:00 BASE 0.84 353 4.94 336 -8.1 90 -9.5 76 0 972.6 NA 0.0000 9999 1410 1870 0 0
2019/10/03 20:45:00 BASE 1.88 6 4.89 328 -8.1 90 -9.5 76 0 972.6 NA 0.0000 9999 1710 0 0 0
2019/10/03 20:46:00 BASE 3.36 15 4.89 8 -8.1 90 -9.4 75 0 972.6 NA 0.0000 9999 1670 0 0 0
2019/10/03 20:47:01 BASE 3.47 19 4.89 8 -8.1 90 -9.4 75 0 972.7 NA 0.0000 9999 1350 1940 0 0
2019/10/03 20:48:01 BASE 3.22 18 4.89 8 -8.1 90 -9.4 74 0 972.6 NA 0.0000 9999 1380 0 0 0
2019/10/03 20:49:01 BASE 3.57 16 4.89 8 -8.0 90 -9.4 74 0 972.6 NA 0.0000 9999 1310 0 0 0
2019/10/03 20:50:01 BASE 3.41 13 4.89 8 -8.0 90 -9.4 73 0 972.6 NA 0.0000 9999 1250 0 0 0
2019/10/03 20:51:01 BASE 3.10 14 4.89 8 -8.0 90 -9.4 72 0 972.6 NA 0.0000 9999 1210 0 0 0
2019/10/03 20:52:01 BASE 2.64 20 4.89 8 -8.0 90 -9.4 71 0 972.6 NA 0.0000 9999 1210 0 0 0
2019/10/03 20:53:01 BASE 2.65 21 4.89 8 -8.0 90 -9.4 70 0 972.6 NA 0.0000 9999 1250 0 0 0
2019/10/03 20:54:01 BASE 3.01 16 4.89 8 -8.0 90 -9.4 69 0 972.7 NA 0.0000 9999 1180 0 0 0
2019/10/03 20:55:01 BASE 3.27 353 4.89 8 -8.0 90 -9.4 68 0 972.7 NA 0.0000 9999 1180 22670 0 0
2019/10/03 20:56:01 BASE 3.08 335 4.37 21 -8.0 90 -9.4 67 0 972.7 NA 0.0000 9999 1180 0 0 0
2019/10/03 20:57:01 BASE 2.24 343 4.37 21 -8.0 90 -9.4 67 0 972.7 NA 0.0000 9999 1180 0 0 0
2019/10/03 20:58:01 BASE 1.59 348 4.32 338 -8.0 90 -9.4 66 0 972.7 NA 0.0000 9999 1280 0 0 0
2019/10/03 20:59:01 BASE 1.48 346 4.32 338 -8.0 90 -9.4 66 0 972.7 NA 0.0000 9999 1350 0 0 0
2019/10/03 21:00:01 BASE 1.70 344 4.32 338 -8.0 90 -9.4 65 0 972.8 NA 0.0000 9999 1210 0 0 0
2019/10/03 21:01:01 BASE 2.20 349 4.32 338 -8.0 90 -9.4 65 0 972.8 NA 0.0000 9999 1210 0 0 0
2019/10/03 21:02:01 BASE 2.55 348 4.32 338 -8.0 90 -9.4 65 0 972.8 NA 0.0000 9999 1280 0 0 0
2019/10/03 21:03:01 BASE 2.42 343 4.32 338 -8.0 90 -9.3 65 0 972.8 NA 0.0000 9999 1280 0 0 0
2019/10/03 21:04:01 BASE 2.12 341 4.32 338 -8.0 90 -9.3 65 0 972.8 NA 0.0000 9999 1210 0 0 0
2019/10/03 21:05:01 BASE 1.76 334 3.50 336 -8.0 90 -9.3 64 0 972.8 NA 0.0000 9999 1210 0 0 0
2019/10/03 21:06:01 BASE 1.61 331 3.04 349 -8.0 90 -9.3 64 0 972.8 NA 0.0000 9999 1250 0 0 0
2019/10/03 21:07:01 BASE 1.53 333 3.04 349 -7.9 90 -9.3 63 0 972.8 NA 0.0000 9999 1210 0 0 0
2019/10/03 21:08:01 BASE 1.83 337 3.04 349 -7.9 90 -9.3 62 0 972.8 NA 0.0000 9999 1210 1640 0 0
2019/10/03 21:09:01 BASE 2.52 335 3.24 315 -7.9 90 -9.3 60 0 972.8 NA 0.0000 9999 1210 0 0 0
2019/10/03 21:10:01 BASE 2.62 327 3.24 315 -7.9 90 -9.3 59 0 972.8 NA 0.0000 9999 1180 0 0 0
2019/10/03 21:11:01 BASE 2.69 329 3.24 336 -7.9 90 -9.3 57 0 972.8 NA 0.0000 9999 1180 0 0 0
2019/10/03 21:12:01 BASE 2.97 335 3.34 340 -7.9 90 -9.3 56 0 972.8 NA 0.0000 9999 1180 0 0 0
2019/10/03 21:13:01 BASE 2.75 334 3.34 340 -7.9 90 -9.3 54 0 972.9 NA 0.0000 9999 1180 0 0 0
2019/10/03 21:14:01 BASE 2.47 328 3.34 340 -7.9 90 -9.2 53 0 972.9 NA 0.0000 9999 1180 0 0 0
2019/10/03 21:15:01 BASE 2.34 333 3.34 340 -7.9 90 -9.2 51 0 972.9 NA 0.0000 9999 1210 0 0 0
2019/10/03 21:16:01 BASE 2.41 342 3.34 340 -7.9 91 -9.2 50 0 972.8 NA 0.0000 9999 1180 0 0 0
2019/10/03 21:17:01 BASE 2.81 349 3.65 336 -7.9 91 -9.1 49 0 972.8 NA 0.0000 9999 1150 0 0 0
2019/10/03 21:18:01 BASE 3.24 356 3.65 336 -7.9 91 -9.1 48 0 972.8 NA 0.0000 9999 1150 0 0 0
2019/10/03 21:19:01 BASE 3.01 2 3.65 336 -7.9 91 -9.1 47 0 972.8 NA 0.0000 9999 1180 0 0 0
2019/10/03 21:20:01 BASE 2.45 4 3.65 336 -7.9 91 -9.2 47 0 972.8 NA 0.0000 9999 1180 0 0 0
2019/10/03 21:21:01 BASE 2.28 3 3.65 336 -7.9 91 -9.2 46 0 972.8 NA 0.0000 9999 1350 0 0 0
2019/10/03 21:22:01 BASE 1.99 349 3.65 336 -8.0 91 -9.2 45 0 972.8 NA 0.0000 9999 1410 0 0 0
2019/10/03 21:23:01 BASE 1.64 341 3.65 336 -8.0 91 -9.2 43 0 972.8 NA 0.0000 9999 1250 0 0 0
2019/10/03 21:24:01 BASE 1.73 344 3.65 336 -8.0 91 -9.2 42 0 972.8 NA 0.0000 9999 1210 0 0 0
2019/10/03 21:25:01 BASE 2.17 344 3.65 336 -7.9 91 -9.1 41 0 972.8 NA 0.0000 9999 1180 0 0 0
2019/10/03 21:26:01 BASE 2.54 342 3.65 336 -7.9 91 -9.2 40 0 972.9 NA 0.0000 9999 1150 0 0 0
2019/10/03 21:27:01 BASE 2.69 355 3.60 354 -8.0 91 -9.2 40 0 972.9 NA 0.0000 9999 1120 0 0 0
2019/10/03 21:28:01 BASE 2.76 4 3.29 352 -7.9 91 -9.2 40 0 972.8 NA 0.0000 9999 1210 0 0 0
2019/10/03 21:29:01 BASE 2.84 2 3.19 352 -7.9 91 -9.2 40 0 972.8 NA 0.0000 9999 1310 0 0 0
2019/10/03 21:30:01 BASE 2.84 359 3.19 352 -7.9 91 -9.1 39 0 972.8 NA 0.0000 9999 1150 0 0 0
2019/10/03 21:31:01 BASE 2.70 7 3.19 352 -7.9 91 -9.1 39 0 972.8 NA 0.0000 9999 1150 0 0 0
2019/10/03 21:32:01 BASE 2.60 19 3.19 352 -7.9 92 -9.0 39 0 972.8 NA 0.0000 9999 1210 0 0 0
2019/10/03 21:33:00 BASE 2.50 26 3.19 352 -7.9 92 -9.0 39 0 972.8 NA 0.0000 9999 1150 0 0 0
2019/10/03 21:34:00 BASE 2.59 32 3.45 19 -7.9 92 -9.0 40 0 972.7 NA 0.0000 9999 1180 0 0 0
2019/10/03 21:35:01 BASE 3.19 35 4.01 49 -7.9 92 -9.0 39 0 972.7 NA 0.0000 9999 1180 0 0 0
2019/10/03 21:36:00 BASE 3.73 45 4.01 56 -7.9 92 -9.0 38 0 972.7 NA 0.0000 9999 1280 0 0 0
2019/10/03 21:37:00 BASE 3.33 48 4.01 56 -7.9 92 -9.0 37 0 972.7 NA 0.0000 9999 1310 0 0 0
2019/10/03 21:38:00 BASE 2.70 35 4.01 56 -7.9 92 -9.0 36 0 972.7 NA 0.0000 9999 1310 0 0 0
2019/10/03 21:39:00 BASE 2.88 21 4.01 56 -7.9 92 -9.0 35 0 972.8 NA 0.0000 9999 1280 0 0 0
2019/10/03 21:40:01 BASE 3.26 18 4.01 56 -7.9 92 -9.0 34 0 972.8 NA 0.0000 9999 1280 0 0 0
2019/10/03 21:41:00 BASE 3.10 17 4.01 56 -7.9 92 -9.0 34 0 972.8 NA 0.0000 9999 1180 0 0 0
2019/10/03 21:42:00 BASE 3.07 18 4.01 56 -7.9 92 -9.0 33 0 972.8 NA 0.0000 9999 1250 0 0 0
2019/10/03 21:43:01 BASE 3.34 21 4.01 56 -7.9 92 -9.0 33 0 972.8 NA 0.0000 9999 1280 0 0 0
2019/10/03 21:44:01 BASE 3.28 20 4.01 56 -7.9 92 -9.0 32 0 972.8 NA 0.0000 9999 1350 0 0 0
2019/10/03 21:45:01 BASE 3.04 15 4.01 56 -7.9 92 -9.0 31 0 972.8 NA 0.0000 9999 1310 0 0 0
2019/10/03 21:46:00 BASE 3.09 19 3.81 19 -7.9 92 -9.0 31 0 972.8 NA 0.0000 9999 1310 0 0 0
2019/10/03 21:47:00 BASE 3.29 30 3.81 19 -7.9 92 -9.0 30 0 972.8 NA 0.0000 9999 1280 0 0 0
2019/10/03 21:48:00 BASE 3.35 32 3.81 19 -7.9 92 -9.0 29 0 972.8 NA 0.0000 9999 1280 0 0 0
2019/10/03 21:49:00 BASE 3.27 27 3.81 19 -7.9 92 -8.9 28 0 972.8 NA 0.0000 9999 1310 0 0 0
2019/10/03 21:50:00 BASE 3.27 24 3.81 19 -7.9 92 -8.9 27 0 972.8 NA 0.0000 9999 1310 0 0 0
2019/10/03 21:51:00 BASE 2.86 21 3.81 19 -7.8 92 -8.9 26 0 972.8 NA 0.0000 9999 1380 0 0 0
2019/10/03 21:52:00 BASE 2.24 23 3.81 19 -7.8 92 -8.9 26 0 972.8 NA 0.0000 9999 1310 0 0 0
2019/10/03 21:53:00 BASE 2.41 28 3.76 30 -7.8 92 -8.8 25 0 972.8 NA 0.0000 9999 1280 0 0 0
2019/10/03 21:54:00 BASE 3.19 31 4.01 42 -7.8 93 -8.8 24 0 972.8 NA 0.0000 9999 1250 0 0 0
2019/10/03 21:55:00 BASE 3.56 40 4.01 42 -7.8 93 -8.8 23 0 972.8 NA 0.0000 9999 1280 0 0 0
2019/10/03 21:56:00 BASE 3.27 44 4.01 42 -7.8 93 -8.7 23 0 972.8 NA 0.0000 9999 1310 0 0 0
2019/10/03 21:57:00 BASE 3.12 36 4.01 42 -7.8 93 -8.7 22 0 972.8 NA 0.0000 9999 1210 0 0 0
2019/10/03 21:58:00 BASE 2.97 40 4.01 42 -7.8 93 -8.7 21 0 972.8 NA 0.0000 9999 1150 0 0 0
2019/10/03 21:59:00 BASE 2.47 46 4.01 42 -7.8 93 -8.7 21 0 972.8 NA 0.0000 9999 1180 0 0 0
2019/10/03 22:00:00 BASE 2.08 41 4.01 42 -7.8 93 -8.7 20 0 972.9 NA 0.0000 9999 1180 0 0 0
2019/10/03 22:01:00 BASE 1.86 41 4.01 42 -7.8 93 -8.7 20 0 972.9 NA 0.0000 9999 1250 0 0 0
2019/10/03 22:02:00 BASE 2.00 48 4.01 42 -7.8 93 -8.7 19 0 972.8 NA 0.0000 9999 1280 0 0 0
2019/10/03 22:03:00 BASE 2.63 54 4.01 42 -7.8 93 -8.7 19 0 972.8 NA 0.0000 9999 1250 0 0 0
2019/10/03 22:04:00 BASE 2.81 60 3.81 40 -7.7 93 -8.7 19 0 972.8 NA 0.0000 9999 1210 0 0 0
2019/10/03 22:05:00 BASE 2.42 62 3.76 37 -7.7 93 -8.6 18 0 972.8 NA 0.0000 9999 1210 0 0 0
2019/10/03 22:06:00 BASE 1.99 60 3.76 37 -7.7 93 -8.6 17 0 972.9 NA 0.0000 9999 1310 0 0 0
2019/10/03 22:07:00 BASE 1.78 40 3.45 59 -7.6 93 -8.6 17 0 972.9 NA 0.0000 9999 1210 0 0 0
2019/10/03 22:08:00 BASE 1.87 33 3.45 59 -7.6 93 -8.6 17 0 972.9 NA 0.0000 9999 1210 0 0 0
2019/10/03 22:09:00 BASE 1.77 42 3.45 59 -7.6 93 -8.5 17 0 972.9 NA 0.0000 9999 1180 0 0 0
2019/10/03 22:10:00 BASE 1.56 40 3.45 59 -7.6 93 -8.5 17 0 972.9 NA 0.0000 9999 1180 0 0 0
2019/10/03 22:11:00 BASE 1.62 37 3.45 59 -7.6 93 -8.6 17 0 972.9 NA 0.0000 9999 1180 0 0 0
2019/10/03 22:12:00 BASE 1.72 46 3.45 59 -7.6 93 -8.6 17 0 972.9 NA 0.0000 9999 1180 0 0 0
2019/10/03 22:13:00 BASE 1.77 61 2.83 63 -7.7 93 -8.6 17 0 972.9 NA 0.0000 9999 1180 0 0 0
2019/10/03 22:14:00 BASE 1.90 53 2.57 36 -7.7 93 -8.6 17 0 972.9 NA 0.0000 9999 1350 0 0 0
2019/10/03 22:15:00 BASE 1.80 47 2.57 36 -7.7 93 -8.6 16 0 972.9 NA 0.0000 9999 1410 0 0 0
2019/10/03 22:16:00 BASE 1.83 62 2.57 36 -7.7 93 -8.6 16 0 972.8 NA 0.0000 9999 1410 0 0 0
2019/10/03 22:17:00 BASE 1.87 68 2.52 72 -7.6 93 -8.6 15 0 972.8 NA 0.0000 9999 1410 0 0 0
2019/10/03 22:18:00 BASE 1.69 59 2.52 72 -7.6 93 -8.6 14 0 972.8 NA 0.0000 9999 1380 0 0 0
2019/10/03 22:19:00 BASE 1.76 48 2.52 72 -7.6 93 -8.5 13 0 972.8 NA 0.0000 9999 1380 0 0 0
2019/10/03 22:20:00 BASE 1.84 42 2.52 72 -7.6 93 -8.5 13 0 972.8 NA 0.0000 9999 1380 0 0 0
2019/10/03 22:21:00 BASE 1.63 39 2.52 72 -7.6 93 -8.5 12 0 972.8 NA 0.0000 9999 1350 0 0 0
2019/10/03 22:22:00 BASE 1.27 39 2.52 72 -7.6 93 -8.5 11 0 972.8 NA 0.0000 9999 1350 0 0 0
2019/10/03 22:23:00 BASE 0.77 41 2.52 72 -7.6 93 -8.5 11 0 972.8 NA 0.0000 9999 1280 0 0 0
2019/10/03 22:24:00 BASE 0.76 40 2.52 72 -7.6 93 -8.5 10 0 972.8 NA 0.0000 9999 1250 0 0 0
2019/10/03 22:25:00 BASE 1.13 40 2.52 72 -7.6 93 -8.5 9 0 972.8 NA 0.0000 9999 1210 0 0 0
2019/10/03 22:26:00 BASE 1.23 38 2.21 79 -7.6 93 -8.5 9 0 972.8 NA 0.0000 9999 1280 0 0 0
2019/10/03 22:27:00 BASE 1.04 37 2.16 45 -7.6 93 -8.5 8 0 972.8 NA 0.0000 9999 1280 0 0 0
2019/10/03 22:28:00 BASE 1.00 39 2.16 45 -7.6 93 -8.5 7 0 972.8 NA 0.0000 9999 1380 0 0 0
2019/10/03 22:29:00 BASE 1.32 35 1.95 35 -7.6 93 -8.5 7 0 972.8 NA 0.0000 9999 1350 0 0 0
2019/10/03 22:30:00 BASE 0.94 32 1.80 40 -7.6 94 -8.4 6 0 972.8 NA 0.0000 9999 1210 0 0 0
2019/10/03 22:31:00 BASE 0.21 25 1.54 31 -7.6 94 -8.4 5 0 972.8 NA 0.0000 9999 1250 0 0 0
2019/10/03 22:32:00 BASE 0.00 9 1.54 31 -7.6 94 -8.4 5 0 972.8 NA 0.0000 9999 1310 0 0 0
2019/10/03 22:33:00 BASE 0.00 351 1.54 31 -7.6 94 -8.4 4 0 972.8 NA 0.0000 9999 1310 0 0 0
2019/10/03 22:34:00 BASE 0.00 343 1.54 31 -7.6 94 -8.4 4 0 972.8 NA 0.0000 9999 1310 0 0 0
2019/10/03 22:35:00 BASE 0.00 342 1.54 31 -7.6 94 -8.4 4 0 972.9 NA 0.0000 9999 1280 0 0 0
2019/10/03 22:36:00 BASE 0.00 338 1.54 31 -7.6 94 -8.4 4 0 972.9 NA 0.0000 9999 1250 0 0 0
2019/10/03 22:37:00 BASE 0.00 345 1.54 31 -7.6 94 -8.4 3 0 972.8 NA 0.0000 9999 1180 0 0 0
2019/10/03 22:38:00 BASE 0.00 8 1.54 31 -7.6 94 -8.4 3 0 972.8 NA 0.0000 9999 1180 0 0 0
2019/10/03 22:39:00 BASE 0.00 78 1.34 38 -7.6 94 -8.4 3 0 972.8 NA 0.0000 9999 1380 0 0 0
2019/10/03 22:40:00 BASE 0.05 118 1.08 118 -7.6 94 -8.4 3 0 972.8 NA 0.0000 9999 1410 0 0 0
2019/10/03 22:41:00 BASE 0.05 130 1.08 118 -7.6 94 -8.4 3 0 972.8 NA 0.0000 9999 1250 0 0 0
2019/10/03 22:42:00 BASE 0.00 156 1.08 118 -7.6 94 -8.4 3 0 972.8 NA 0.0000 9000 1210 0 0 0
2019/10/03 22:43:00 BASE 0.00 162 1.08 118 -7.5 94 -8.3 3 0 972.8 NA 0.0000 -SN 9999 1410 0 0 0
2019/10/03 22:44:00 BASE 0.00 157 1.08 118 -7.5 94 -8.3 3 0 972.8 NA 0.0000 -SN 9999 1440 0 0 0
2019/10/03 22:45:00 BASE 0.00 158 1.08 118 -7.5 94 -8.4 2 0 972.8 NA 0.0000 -SN 9999 1180 0 0 0
2019/10/03 22:46:00 BASE 0.00 159 1.08 118 -7.5 94 -8.4 2 0 972.8 NA 0.0000 -SN 9999 1210 0 0 0
2019/10/03 22:47:01 BASE 0.00 163 1.08 118 -7.5 93 -8.4 2 0 972.8 NA 0.0000 -SN 9999 1210 0 0 0
2019/10/03 22:48:01 BASE 0.00 164 1.08 118 -7.5 93 -8.4 2 0 972.8 NA 0.0000 -SN 9000 1250 0 0 0
2019/10/03 22:49:01 BASE 0.00 153 1.08 118 -7.5 93 -8.5 2 0 972.8 NA 0.0000 -SN 7000 1180 0 0 0
2019/10/03 22:50:01 BASE 0.00 132 M M -7.5 93 -8.5 2 0 972.8 NA 0.0000 -SN BR 9999 1350 0 0 0
2019/10/03 22:51:01 BASE 0.00 112 M M -7.6 93 -8.5 2 0 972.8 NA 0.0000 -SN BR 8000 1310 0 0 0
2019/10/03 22:52:01 BASE 0.00 100 M M -7.6 93 -8.5 2 0 972.8 NA 0.0000 -SN BR 8000 1120 0 0 0
2019/10/03 22:53:01 BASE 0.00 102 M M -7.6 93 -8.5 1 0 972.8 NA 0.0000 -SN BR 9000 950 0 0 0
2019/10/03 22:54:01 BASE 0.00 105 M M -7.6 93 -8.5 1 0 972.8 NA 0.0000 -SN BR 9999 750 0 0 0
2019/10/03 22:55:01 BASE 0.00 109 M M -7.6 93 -8.5 1 0 972.8 NA 0.0000 -SN BR 9999 1280 0 0 0
2019/10/03 22:56:01 BASE 0.26 106 1.08 81 -7.6 93 -8.5 1 0 972.8 NA 0.0000 -SN BR 9999 1310 0 0 0
2019/10/03 22:57:01 BASE 0.26 98 1.08 81 -7.6 93 -8.5 1 0 972.8 NA 0.0000 -SN BR 9999 1350 0 0 0
2019/10/03 22:58:01 BASE 0.09 120 1.08 136 -7.6 93 -8.4 1 0 972.8 NA 0.0000 -SN BR 9999 1380 0 0 0
2019/10/03 22:59:01 BASE 0.09 155 1.08 136 -7.5 93 -8.4 1 0 972.8 NA 0.0000 -SN BR 9000 1310 0 0 0
2019/10/03 23:00:01 BASE 0.00 166 1.08 136 -7.6 93 -8.4 1 0 972.8 NA 0.0000 -SN BR 9000 950 0 0 0
2019/10/03 23:01:01 BASE 0.00 157 1.08 136 -7.6 93 -8.5 1 0 972.8 NA 0.0000 -SN BR 9000 1050 0 0 0
2019/10/03 23:02:01 BASE 0.00 144 1.08 136 -7.6 93 -8.5 1 0 972.8 NA 0.0000 -SN BR 9000 1280 0 0 0
2019/10/03 23:03:01 BASE 0.00 137 1.08 136 -7.7 93 -8.6 1 0 972.8 NA 0.0000 -SN BR 9000 750 0 0 0
2019/10/03 23:04:01 BASE 0.00 129 1.08 136 -7.7 93 -8.6 0 0 972.8 NA 0.0000 -SN BR 9000 820 1310 0 0
2019/10/03 23:05:01 BASE 0.00 116 1.08 136 -7.7 93 -8.6 0 0 972.8 NA 0.0000 -SN BR 9000 820 1310 0 0
2019/10/03 23:06:01 BASE 0.00 107 1.08 136 -7.7 94 -8.5 0 0 972.8 NA 0.0000 -SN BR 9999 1280 0 0 0
2019/10/03 23:07:01 BASE 0.00 106 1.08 136 -7.6 94 -8.5 0 0 972.8 NA 0.0000 -SN BR 9999 490 0 0 0
2019/10/03 23:08:01 BASE 0.00 106 M M -7.6 94 -8.4 0 0 972.8 NA 0.0000 BR 9999 430 0 0 0
2019/10/03 23:09:01 BASE 0.00 106 M M -7.6 94 -8.4 0 0 972.8 NA 0.0000 BR 9999 390 1380 0 0
2019/10/03 23:10:01 BASE 0.00 106 M M -7.6 94 -8.4 0 0 972.8 NA 0.0000 9999 390 1380 0 0
2019/10/03 23:11:01 BASE 0.00 106 M M -7.6 94 -8.4 0 0 972.8 NA 0.0000 9999 390 0 0 0
2019/10/03 23:12:01 BASE 0.00 105 M M -7.6 94 -8.4 0 0 972.8 NA 0.0000 9999 390 0 0 0
2019/10/03 23:13:01 BASE 0.00 104 M M -7.6 94 -8.4 0 0 972.8 NA 0.0000 9999 1410 0 0 0
2019/10/03 23:14:01 BASE 0.00 104 M M -7.6 94 -8.4 0 0 972.8 NA 0.0000 9999 1410 0 0 0
2019/10/03 23:15:01 BASE 0.00 92 M M -7.6 94 -8.4 0 0 972.8 NA 0.0000 9999 1410 0 0 0
2019/10/03 23:16:01 BASE 0.00 73 M M -7.6 94 -8.4 0 0 972.8 NA 0.0000 9999 1440 0 0 0
2019/10/03 23:17:01 BASE 0.00 66 M M -7.6 94 -8.4 0 0 972.8 NA 0.0000 9999 1480 0 0 0
2019/10/03 23:18:01 BASE 0.00 66 M M -7.6 94 -8.4 0 0 972.8 NA 0.0000 9999 1480 0 0 0
2019/10/03 23:19:01 BASE 0.00 66 M M -7.6 94 -8.4 0 0 972.8 NA 0.0000 9999 1440 0 0 0
2019/10/03 23:20:01 BASE 0.00 66 M M -7.6 94 -8.4 0 0 972.8 NA 0.0000 9999 1480 0 0 0
2019/10/03 23:21:01 BASE 0.00 66 M M -7.6 94 -8.4 0 0 972.8 NA 0.0000 9999 1440 0 0 0
2019/10/03 23:22:01 BASE 0.00 66 M M -7.5 94 -8.3 0 0 972.8 NA 0.0000 9999 1440 0 0 0
2019/10/03 23:23:01 BASE 0.00 66 M M -7.5 94 -8.3 0 0 972.8 NA 0.0000 9999 1440 0 0 0
2019/10/03 23:24:01 BASE 0.00 64 M M -7.5 94 -8.3 0 0 972.8 NA 0.0000 9999 1380 0 0 0
2019/10/03 23:25:01 BASE 0.00 57 M M -7.5 94 -8.3 0 0 972.8 NA 0.0000 9999 1410 0 0 0
2019/10/03 23:26:01 BASE 0.00 52 M M -7.5 94 -8.3 0 0 972.8 NA 0.0000 9999 1440 0 0 0
2019/10/03 23:27:01 BASE 0.00 50 M M -7.6 94 -8.4 0 0 972.8 NA 0.0000 9999 1410 0 0 0
2019/10/03 23:28:01 BASE 0.00 348 M M -7.6 94 -8.4 0 0 972.8 NA 0.0000 9999 1380 0 0 0
2019/10/03 23:29:01 BASE 0.00 261 M M -7.6 94 -8.4 0 0 972.8 NA 0.0000 9999 1380 0 0 0
2019/10/03 23:30:01 BASE 0.00 244 M M -7.6 94 -8.4 0 0 972.8 NA 0.0000 9999 1380 0 0 0
2019/10/03 23:31:01 BASE 0.00 244 M M -7.6 94 -8.4 0 0 972.8 NA 0.0000 9999 1380 0 0 0
2019/10/03 23:32:01 BASE 0.00 243 M M -7.6 94 -8.4 0 0 972.8 NA 0.0000 9999 1350 0 0 0
2019/10/03 23:33:00 BASE 0.00 243 M M -7.6 94 -8.4 0 0 972.8 NA 0.0000 9999 1350 0 0 0
2019/10/03 23:34:01 BASE 0.00 246 M M -7.6 94 -8.4 0 0 972.8 NA 0.0000 9999 1310 0 0 0
2019/10/03 23:35:01 BASE 0.00 250 M M -7.6 94 -8.4 0 0 972.8 NA 0.0000 9999 1350 0 0 0
2019/10/03 23:36:01 BASE 0.00 253 M M -7.6 94 -8.4 0 0 972.8 NA 0.0000 9999 1280 0 0 0
2019/10/03 23:37:00 BASE 0.00 265 M M -7.6 94 -8.4 0 0 972.8 NA 0.0000 9999 1280 0 0 0
2019/10/03 23:38:01 BASE 0.00 280 M M -7.6 94 -8.4 0 0 972.8 NA 0.0000 9999 1310 0 0 0
2019/10/03 23:39:00 BASE 0.00 283 M M -7.6 94 -8.4 0 0 972.8 NA 0.0000 9999 1280 0 0 0
2019/10/03 23:40:00 BASE 0.00 286 M M -7.6 94 -8.4 0 0 972.8 NA 0.0000 -SN 9999 1280 0 0 0
2019/10/03 23:41:00 BASE 0.00 301 M M -7.6 94 -8.4 0 0 972.8 NA 0.0000 -SN 9999 1280 0 0 0
2019/10/03 23:42:01 BASE 0.00 319 M M -7.6 94 -8.4 0 0 972.8 NA 0.0000 -SN 9999 1250 0 0 0
2019/10/03 23:43:00 BASE 0.24 324 1.23 324 -7.6 95 -8.3 0 0 972.8 NA 0.0000 -SN 9999 1250 0 0 0
2019/10/03 23:44:01 BASE 0.83 327 1.29 330 -7.6 95 -8.3 0 0 972.8 NA 0.0000 -SN 9999 1350 4820 0 0
2019/10/03 23:45:00 BASE 1.22 330 1.34 330 -7.7 95 -8.3 0 0 972.8 NA 0.0000 -SN 9999 1350 4920 0 0
2019/10/03 23:46:01 BASE 1.18 330 1.34 330 -7.6 95 -8.3 0 0 972.8 NA 0.0000 -SN 9999 1410 4720 0 0
2019/10/03 23:47:00 BASE 0.79 324 1.34 330 -7.6 95 -8.3 0 0 972.8 NA 0.0000 -SN 9999 1410 4330 0 0
2019/10/03 23:48:01 BASE 0.60 313 1.34 330 -7.6 95 -8.3 0 0 972.8 NA 0.0000 -SN 9999 1410 4790 0 0
2019/10/03 23:49:00 BASE 0.80 307 1.34 330 -7.6 95 -8.3 0 0 972.8 NA 0.0000 -SN 9999 1380 5940 0 0
2019/10/03 23:50:00 BASE 1.03 307 1.39 307 -7.6 95 -8.3 0 0 972.8 NA 0.0000 -SN 9999 1380 4920 0 0
2019/10/03 23:51:01 BASE 0.82 309 1.39 307 -7.6 95 -8.3 0 0 972.8 NA 0.0000 -SN 9999 1380 4760 0 0
2019/10/03 23:52:01 BASE 0.69 314 1.65 319 -7.6 95 -8.3 0 0 972.7 NA 0.0000 -SN 9999 1380 5180 0 0
2019/10/03 23:53:00 BASE 1.15 331 1.65 319 -7.6 95 -8.3 0 0 972.7 NA 0.0000 -SN 9999 1410 4720 0 0
2019/10/03 23:54:01 BASE 1.31 344 1.65 319 -7.6 95 -8.3 0 0 972.7 NA 0.0000 -SN 9999 1410 2850 0 0
2019/10/03 23:55:00 BASE 1.21 342 1.65 319 -7.6 95 -8.3 0 0 972.7 NA 0.0000 -SN 9999 1410 0 0 0
2019/10/03 23:56:01 BASE 1.19 340 1.65 319 -7.6 95 -8.2 0 0 972.7 NA 0.0000 -SN 9999 1480 2820 0 0
2019/10/03 23:57:00 BASE 1.28 338 1.65 340 -7.6 95 -8.2 0 0 972.7 NA 0.0000 -SN 9999 1440 4560 0 0
2019/10/03 23:58:00 BASE 1.68 341 2.11 346 -7.6 95 -8.2 0 0 972.7 NA 0.0000 -SN 9999 1510 2990 0 0
2019/10/03 23:59:01 BASE 2.09 346 2.37 350 -7.6 95 -8.2 0 0 972.7 NA 0.0000 -SN 9999 1970 5840 0 0